Darstellungsparameter: Aktuell verwendete Einstellungen:
Skalierung der Graphiken ... ?
xyx+y,   Skalierungsfaktor:      Skalierung: Modus: x, Faktor: 1
Darstellungszeitraum ... ?
Vom - - bis: - -   Zeitraum: 31.01.2019 - 20.02.2019
Min/Max/Avg-Anzeige ... ?
Zeige MMA aktuell
Zeige MMA Monat
Zeige MMA alles
Zeige --A aktuell
Zeige --A Monat
Zeige --A alles
Keine MMA-Anzeige
MMA:
Keine MMA-Graphiken
MMA-Basis: 31.01.2019 - 20.02.2019
Quicknavigation für Darstellung... ?
Tage:      1T, 2T, 3T, 5T -1T -2T -3T -5T +1T +2T +3T +5T
Wochen: 1W, 2W, 3W -1W -2W -3W +1W +2W +3W
Monate: 1M, 3M, 6M -1M -3M -6M +1M +3M +6M
Jahre:    1J, 3J, 5J, 10J -1J -3J -5J -10J +1J +3J +5J +10J
Nutze für die Darstellung ... ?
Originaldaten oder Mittelwerte auf ...
Stundenbasis Tagesbasis Wochenbasis
Monatsbasis Jahresbasis      Datenbasis: Original-Daten
Darstellen als:
Statistik (Auto) Statistik J:M      Darstellung:
Zur Graphik,    zurück zur Übersicht aller Sensoren.
 
Tabellarische Datenbersicht: ?
 
Sensor: Nr:Datum:Temp:Feuchte:Taupunkt:
Aussen-T/F 1 31-01-2019 00:00:00 -0.2 C 93 % -1.19 C
2 31-01-2019 00:05:00 -0.2 C 93 % -1.19 C
3 31-01-2019 00:10:00 -0.2 C 93 % -1.19 C
4 31-01-2019 00:15:00 -0.2 C 93 % -1.19 C
5 31-01-2019 00:20:00 -0.3 C 93 % -1.29 C
6 31-01-2019 00:25:00 -0.3 C 93 % -1.29 C
7 31-01-2019 00:30:00 -0.4 C 93 % -1.39 C
8 31-01-2019 00:35:00 -0.4 C 93 % -1.39 C
9 31-01-2019 00:40:00 -0.5 C 93 % -1.49 C
10 31-01-2019 00:45:00 -0.6 C 93 % -1.59 C
11 31-01-2019 00:50:00 -0.7 C 93 % -1.69 C
12 31-01-2019 00:55:00 -0.8 C 93 % -1.79 C
13 31-01-2019 01:00:00 -1 C 93 % -1.99 C
14 31-01-2019 01:05:00 -1.1 C 93 % -2.09 C
15 31-01-2019 01:10:00 -1.2 C 93 % -2.18 C
16 31-01-2019 01:15:00 -1.3 C 93 % -2.28 C
17 31-01-2019 01:20:00 -1.4 C 93 % -2.38 C
18 31-01-2019 01:25:00 -1.4 C 94 % -2.24 C
19 31-01-2019 01:30:00 -1.4 C 94 % -2.24 C
20 31-01-2019 01:35:00 -1.4 C 94 % -2.24 C
21 31-01-2019 01:40:00 -1.3 C 94 % -2.14 C
22 31-01-2019 01:45:00 -1.2 C 95 % -1.9 C
23 31-01-2019 01:50:00 -1.1 C 95 % -1.8 C
24 31-01-2019 01:55:00 -1.1 C 95 % -1.8 C
25 31-01-2019 02:00:00 -1.1 C 94 % -1.94 C
Sensor: Nr:Datum:Temp:Feuchte:Taupunkt:
Aussen-T/F 26 31-01-2019 02:05:00 -1.2 C 94 % -2.04 C
27 31-01-2019 02:10:00 -1.2 C 94 % -2.04 C
28 31-01-2019 02:15:00 -1.2 C 94 % -2.04 C
29 31-01-2019 02:20:00 -1.3 C 94 % -2.14 C
30 31-01-2019 02:25:00 -1.3 C 95 % -2 C
31 31-01-2019 02:30:00 -1.3 C 94 % -2.14 C
32 31-01-2019 02:35:00 -1.3 C 95 % -2 C
33 31-01-2019 02:40:00 -1.4 C 95 % -2.1 C
34 31-01-2019 02:45:00 -1.4 C 95 % -2.1 C
35 31-01-2019 02:50:00 -1.4 C 95 % -2.1 C
36 31-01-2019 02:55:00 -1.4 C 95 % -2.1 C
37 31-01-2019 03:00:00 -1.4 C 95 % -2.1 C
38 31-01-2019 03:05:00 -1.4 C 95 % -2.1 C
39 31-01-2019 03:10:00 -1.4 C 95 % -2.1 C
40 31-01-2019 03:15:00 -1.4 C 95 % -2.1 C
41 31-01-2019 03:20:00 -1.4 C 95 % -2.1 C
42 31-01-2019 03:25:00 -1.4 C 95 % -2.1 C
43 31-01-2019 03:30:00 -1.3 C 95 % -2 C
44 31-01-2019 03:35:00 -1.3 C 95 % -2 C
45 31-01-2019 03:40:00 -1.2 C 95 % -1.9 C
46 31-01-2019 03:45:00 -1.2 C 95 % -1.9 C
47 31-01-2019 03:50:00 -1.2 C 95 % -1.9 C
48 31-01-2019 03:55:00 -1.1 C 95 % -1.8 C
49 31-01-2019 04:00:00 -0.9 C 96 % -1.46 C
50 31-01-2019 04:05:00 -0.9 C 96 % -1.46 C
Sensor: Nr:Datum:Temp:Feuchte:Taupunkt:
Aussen-T/F 51 31-01-2019 04:10:00 -0.8 C 96 % -1.36 C
52 31-01-2019 04:15:00 -0.8 C 96 % -1.36 C
53 31-01-2019 04:20:00 -0.8 C 96 % -1.36 C
54 31-01-2019 04:25:00 -0.8 C 96 % -1.36 C
55 31-01-2019 04:30:00 -0.8 C 95 % -1.5 C
56 31-01-2019 04:35:00 -0.8 C 95 % -1.5 C
57 31-01-2019 04:40:00 -0.8 C 95 % -1.5 C
58 31-01-2019 04:45:00 -0.8 C 95 % -1.5 C
59 31-01-2019 04:50:00 -0.7 C 95 % -1.4 C
60 31-01-2019 04:55:00 -0.7 C 96 % -1.26 C
61 31-01-2019 05:00:00 -0.7 C 96 % -1.26 C
62 31-01-2019 05:05:00 -0.7 C 96 % -1.26 C
63 31-01-2019 05:10:00 -0.7 C 96 % -1.26 C
64 31-01-2019 05:15:00 -0.7 C 96 % -1.26 C
65 31-01-2019 05:20:00 -0.6 C 96 % -1.16 C
66 31-01-2019 05:25:00 -0.6 C 96 % -1.16 C
67 31-01-2019 05:30:00 -0.6 C 96 % -1.16 C
68 31-01-2019 05:35:00 -0.6 C 96 % -1.16 C
69 31-01-2019 05:40:00 -0.6 C 96 % -1.16 C
70 31-01-2019 05:45:00 -0.6 C 96 % -1.16 C
71 31-01-2019 05:50:00 -0.5 C 96 % -1.06 C
72 31-01-2019 05:55:00 -0.5 C 96 % -1.06 C
73 31-01-2019 06:00:00 -0.5 C 96 % -1.06 C
74 31-01-2019 06:05:00 -0.5 C 96 % -1.06 C
75 31-01-2019 06:10:00 -0.4 C 96 % -0.96 C
Sensor: Nr:Datum:Temp:Feuchte:Taupunkt:
Aussen-T/F 76 31-01-2019 06:15:00 -0.4 C 96 % -0.96 C
77 31-01-2019 06:20:00 -0.4 C 96 % -0.96 C
78 31-01-2019 06:25:00 -0.4 C 96 % -0.96 C
79 31-01-2019 06:30:00 -0.4 C 96 % -0.96 C
80 31-01-2019 06:35:00 -0.4 C 96 % -0.96 C
81 31-01-2019 06:40:00 -0.4 C 96 % -0.96 C
82 31-01-2019 06:45:00 -0.4 C 96 % -0.96 C
83 31-01-2019 06:50:00 -0.4 C 96 % -0.96 C
84 31-01-2019 06:55:00 -0.4 C 96 % -0.96 C
85 31-01-2019 07:00:00 -0.4 C 96 % -0.96 C
86 31-01-2019 07:05:00 -0.5 C 96 % -1.06 C
87 31-01-2019 07:10:00 -0.4 C 96 % -0.96 C
88 31-01-2019 07:15:00 -0.4 C 96 % -0.96 C
89 31-01-2019 07:20:00 -0.4 C 96 % -0.96 C
90 31-01-2019 07:25:00 -0.4 C 96 % -0.96 C
91 31-01-2019 07:30:00 -0.3 C 96 % -0.86 C
92 31-01-2019 07:35:00 -0.3 C 96 % -0.86 C
93 31-01-2019 07:40:00 -0.3 C 96 % -0.86 C
94 31-01-2019 07:45:00 -0.3 C 96 % -0.86 C
95 31-01-2019 07:50:00 -0.3 C 96 % -0.86 C
96 31-01-2019 07:55:00 -0.3 C 96 % -0.86 C
97 31-01-2019 08:00:00 -0.3 C 96 % -0.86 C
98 31-01-2019 08:05:00 -0.3 C 96 % -0.86 C
99 31-01-2019 08:10:00 -0.3 C 96 % -0.86 C
100 31-01-2019 08:15:00 -0.3 C 96 % -0.86 C
Sensor: Nr:Datum:Temp:Feuchte:Taupunkt:
Aussen-T/F 101 31-01-2019 08:20:00 -0.3 C 96 % -0.86 C
102 31-01-2019 08:25:00 -0.3 C 96 % -0.86 C
103 31-01-2019 08:30:00 -0.3 C 96 % -0.86 C
104 31-01-2019 08:35:00 -0.3 C 96 % -0.86 C
105 31-01-2019 08:40:00 -0.3 C 96 % -0.86 C
106 31-01-2019 08:45:00 -0.3 C 96 % -0.86 C
107 31-01-2019 08:50:00 -0.3 C 96 % -0.86 C
108 31-01-2019 08:55:00 -0.2 C 96 % -0.76 C
109 31-01-2019 09:00:00 -0.2 C 96 % -0.76 C
110 31-01-2019 09:05:00 -0.1 C 96 % -0.66 C
111 31-01-2019 09:10:00 -0.1 C 96 % -0.66 C
112 31-01-2019 09:15:00 0.1 C 96 % -0.46 C
113 31-01-2019 09:20:00 0.1 C 96 % -0.46 C
114 31-01-2019 09:25:00 0.2 C 96 % -0.36 C
115 31-01-2019 09:30:00 0.3 C 96 % -0.26 C
116 31-01-2019 09:35:00 0.3 C 96 % -0.26 C
117 31-01-2019 09:40:00 0.3 C 96 % -0.26 C
118 31-01-2019 09:45:00 0.3 C 96 % -0.26 C
119 31-01-2019 09:50:00 0.3 C 96 % -0.26 C
120 31-01-2019 09:55:00 0.4 C 96 % -0.16 C
121 31-01-2019 10:00:00 0.5 C 96 % -0.06 C
122 31-01-2019 10:05:00 0.5 C 96 % -0.06 C
123 31-01-2019 10:10:00 0.6 C 96 % 0.04 C
124 31-01-2019 10:15:00 0.6 C 96 % 0.04 C
125 31-01-2019 10:20:00 0.6 C 95 % -0.11 C
Sensor: Nr:Datum:Temp:Feuchte:Taupunkt:
Aussen-T/F 126 31-01-2019 10:25:00 0.6 C 95 % -0.11 C
127 31-01-2019 10:30:00 0.7 C 95 % -0.01 C
128 31-01-2019 10:35:00 0.8 C 95 % 0.09 C
129 31-01-2019 10:40:00 0.8 C 95 % 0.09 C
130 31-01-2019 10:45:00 0.9 C 95 % 0.19 C
131 31-01-2019 10:50:00 1 C 95 % 0.29 C
132 31-01-2019 10:55:00 1.1 C 94 % 0.24 C
133 31-01-2019 11:00:00 1.1 C 94 % 0.24 C
134 31-01-2019 11:05:00 1.2 C 95 % 0.49 C
135 31-01-2019 11:10:00 1.3 C 95 % 0.59 C
136 31-01-2019 11:15:00 1.3 C 94 % 0.44 C
137 31-01-2019 11:20:00 1.4 C 94 % 0.54 C
138 31-01-2019 11:25:00 1.4 C 94 % 0.54 C
139 31-01-2019 11:30:00 1.4 C 94 % 0.54 C
140 31-01-2019 11:35:00 1.4 C 94 % 0.54 C
141 31-01-2019 11:40:00 1.4 C 94 % 0.54 C
142 31-01-2019 11:45:00 1.5 C 94 % 0.64 C
143 31-01-2019 11:50:00 1.6 C 94 % 0.74 C
144 31-01-2019 11:55:00 1.7 C 94 % 0.84 C
145 31-01-2019 12:00:00 1.8 C 94 % 0.94 C
146 31-01-2019 12:05:00 1.7 C 94 % 0.84 C
147 31-01-2019 12:10:00 1.7 C 94 % 0.84 C
148 31-01-2019 12:15:00 1.8 C 94 % 0.94 C
149 31-01-2019 12:20:00 1.8 C 94 % 0.94 C
150 31-01-2019 12:25:00 1.9 C 94 % 1.04 C
Sensor: Nr:Datum:Temp:Feuchte:Taupunkt:
Aussen-T/F 151 31-01-2019 12:30:00 1.9 C 94 % 1.04 C
152 31-01-2019 12:35:00 1.9 C 94 % 1.04 C
153 31-01-2019 12:40:00 1.9 C 94 % 1.04 C
154 31-01-2019 12:45:00 1.9 C 94 % 1.04 C
155 31-01-2019 12:50:00 1.8 C 94 % 0.94 C
156 31-01-2019 12:55:00 1.7 C 93 % 0.69 C
157 31-01-2019 13:00:00 1.7 C 93 % 0.69 C
158 31-01-2019 13:05:00 1.7 C 94 % 0.84 C
159 31-01-2019 13:10:00 1.6 C 94 % 0.74 C
160 31-01-2019 13:15:00 1.6 C 93 % 0.59 C
161 31-01-2019 13:20:00 1.6 C 94 % 0.74 C
162 31-01-2019 13:25:00 1.5 C 94 % 0.64 C
163 31-01-2019 13:30:00 1.5 C 94 % 0.64 C
164 31-01-2019 13:35:00 1.5 C 94 % 0.64 C
165 31-01-2019 13:40:00 1.5 C 94 % 0.64 C
166 31-01-2019 13:45:00 1.4 C 94 % 0.54 C
167 31-01-2019 13:50:00 1.4 C 94 % 0.54 C
168 31-01-2019 13:55:00 1.4 C 94 % 0.54 C
169 31-01-2019 14:00:00 1.4 C 94 % 0.54 C
170 31-01-2019 14:05:00 1.4 C 94 % 0.54 C
171 31-01-2019 14:10:00 1.5 C 94 % 0.64 C
172 31-01-2019 14:15:00 1.6 C 95 % 0.89 C
173 31-01-2019 14:20:00 1.7 C 95 % 0.99 C
174 31-01-2019 14:25:00 1.9 C 95 % 1.19 C
175 31-01-2019 14:30:00 2 C 95 % 1.29 C
Sensor: Nr:Datum:Temp:Feuchte:Taupunkt:
Aussen-T/F 176 31-01-2019 14:35:00 2.1 C 95 % 1.38 C
177 31-01-2019 14:40:00 2.1 C 95 % 1.38 C
178 31-01-2019 14:45:00 2.1 C 95 % 1.38 C
179 31-01-2019 14:50:00 2.1 C 94 % 1.24 C
180 31-01-2019 14:55:00 2.1 C 94 % 1.24 C
181 31-01-2019 15:00:00 2.2 C 94 % 1.34 C
182 31-01-2019 15:05:00 2.3 C 94 % 1.44 C
183 31-01-2019 15:10:00 2.4 C 94 % 1.54 C
184 31-01-2019 15:15:00 2.4 C 94 % 1.54 C
185 31-01-2019 15:20:00 2.4 C 94 % 1.54 C
186 31-01-2019 15:25:00 2.3 C 93 % 1.29 C
187 31-01-2019 15:30:00 2.3 C 93 % 1.29 C
188 31-01-2019 15:35:00 2.3 C 93 % 1.29 C
189 31-01-2019 15:40:00 2.2 C 93 % 1.19 C
190 31-01-2019 15:45:00 2.1 C 93 % 1.09 C
191 31-01-2019 15:50:00 2.1 C 93 % 1.09 C
192 31-01-2019 15:55:00 2 C 93 % 0.99 C
193 31-01-2019 16:00:00 1.9 C 93 % 0.89 C
194 31-01-2019 16:05:00 1.8 C 93 % 0.79 C
195 31-01-2019 16:10:00 1.7 C 93 % 0.69 C
196 31-01-2019 16:15:00 1.7 C 93 % 0.69 C
197 31-01-2019 16:20:00 1.6 C 93 % 0.59 C
198 31-01-2019 16:25:00 1.6 C 93 % 0.59 C
199 31-01-2019 16:30:00 1.6 C 93 % 0.59 C
200 31-01-2019 16:35:00 1.5 C 94 % 0.64 C
Sensor: Nr:Datum:Temp:Feuchte:Taupunkt:
Aussen-T/F 201 31-01-2019 16:40:00 1.4 C 93 % 0.4 C
202 31-01-2019 16:45:00 1.4 C 93 % 0.4 C
203 31-01-2019 16:50:00 1.3 C 94 % 0.44 C
204 31-01-2019 16:55:00 1.3 C 94 % 0.44 C
205 31-01-2019 17:00:00 1.2 C 94 % 0.34 C
206 31-01-2019 17:05:00 1.2 C 94 % 0.34 C
207 31-01-2019 17:10:00 1.1 C 94 % 0.24 C
208 31-01-2019 17:15:00 1.1 C 94 % 0.24 C
209 31-01-2019 17:20:00 1.1 C 94 % 0.24 C
210 31-01-2019 17:25:00 0.9 C 94 % 0.05 C
211 31-01-2019 17:30:00 0.9 C 94 % 0.05 C
212 31-01-2019 17:35:00 0.8 C 94 % -0.05 C
213 31-01-2019 17:40:00 0.8 C 94 % -0.05 C
214 31-01-2019 17:45:00 0.8 C 94 % -0.05 C
215 31-01-2019 17:50:00 0.7 C 94 % -0.15 C
216 31-01-2019 17:55:00 0.6 C 94 % -0.25 C
217 31-01-2019 18:00:00 0.4 C 94 % -0.45 C
218 31-01-2019 18:05:00 0.4 C 94 % -0.45 C
219 31-01-2019 18:10:00 0.3 C 94 % -0.55 C
220 31-01-2019 18:15:00 0.3 C 94 % -0.55 C
221 31-01-2019 18:20:00 0.2 C 94 % -0.65 C
222 31-01-2019 18:25:00 0.2 C 94 % -0.65 C
223 31-01-2019 18:30:00 0 C 94 % -0.85 C
224 31-01-2019 18:35:00 -0.1 C 94 % -0.95 C
225 31-01-2019 18:40:00 -0.2 C 94 % -1.05 C
Sensor: Nr:Datum:Temp:Feuchte:Taupunkt:
Aussen-T/F 226 31-01-2019 18:45:00 -0.2 C 94 % -1.05 C
227 31-01-2019 18:50:00 -0.2 C 94 % -1.05 C
228 31-01-2019 18:55:00 -0.3 C 94 % -1.15 C
229 31-01-2019 19:00:00 -0.3 C 94 % -1.15 C
230 31-01-2019 19:05:00 -0.4 C 94 % -1.25 C
231 31-01-2019 19:10:00 -0.6 C 94 % -1.44 C
232 31-01-2019 19:15:00 -0.8 C 93 % -1.79 C
233 31-01-2019 19:20:00 -1 C 94 % -1.84 C
234 31-01-2019 19:25:00 -1.2 C 93 % -2.18 C
235 31-01-2019 19:30:00 -1.3 C 94 % -2.14 C
236 31-01-2019 19:35:00 -1.4 C 94 % -2.24 C
237 31-01-2019 19:40:00 -1.5 C 94 % -2.34 C
238 31-01-2019 19:45:00 -1.6 C 94 % -2.44 C
239 31-01-2019 19:50:00 -1.6 C 94 % -2.44 C
240 31-01-2019 19:55:00 -1.7 C 94 % -2.54 C
241 31-01-2019 20:00:00 -1.7 C 94 % -2.54 C
242 31-01-2019 20:05:00 -1.8 C 94 % -2.64 C
243 31-01-2019 20:10:00 -1.8 C 94 % -2.64 C
244 31-01-2019 20:15:00 -1.9 C 94 % -2.73 C
245 31-01-2019 20:20:00 -1.9 C 94 % -2.73 C
246 31-01-2019 20:25:00 -1.9 C 94 % -2.73 C
247 31-01-2019 20:30:00 -2 C 94 % -2.83 C
248 31-01-2019 20:35:00 -2.1 C 94 % -2.93 C
249 31-01-2019 20:40:00 -2.1 C 94 % -2.93 C
250 31-01-2019 20:45:00 -2.1 C 94 % -2.93 C
Sensor: Nr:Datum:Temp:Feuchte:Taupunkt:
Aussen-T/F 251 31-01-2019 20:50:00 -2.1 C 95 % -2.79 C
252 31-01-2019 20:55:00 -2.1 C 95 % -2.79 C
253 31-01-2019 21:00:00 -2.1 C 95 % -2.79 C
254 31-01-2019 21:05:00 -2.1 C 95 % -2.79 C
255 31-01-2019 21:10:00 -2.1 C 95 % -2.79 C
256 31-01-2019 21:15:00 -2.1 C 95 % -2.79 C
257 31-01-2019 21:20:00 -2.1 C 95 % -2.79 C
258 31-01-2019 21:25:00 -2.1 C 95 % -2.79 C
259 31-01-2019 21:30:00 -2.1 C 95 % -2.79 C
260 31-01-2019 21:35:00 -2 C 95 % -2.69 C
261 31-01-2019 21:40:00 -1.9 C 95 % -2.59 C
262 31-01-2019 21:45:00 -1.9 C 95 % -2.59 C
263 31-01-2019 21:50:00 -1.8 C 95 % -2.49 C
264 31-01-2019 21:55:00 -1.8 C 95 % -2.49 C
265 31-01-2019 22:00:00 -1.7 C 95 % -2.39 C
266 31-01-2019 22:05:00 -1.7 C 96 % -2.25 C
267 31-01-2019 22:10:00 -1.6 C 96 % -2.15 C
268 31-01-2019 22:15:00 -1.6 C 96 % -2.15 C
269 31-01-2019 22:20:00 -1.6 C 96 % -2.15 C
270 31-01-2019 22:25:00 -1.6 C 96 % -2.15 C
271 31-01-2019 22:30:00 -1.6 C 96 % -2.15 C
272 31-01-2019 22:35:00 -1.6 C 96 % -2.15 C
273 31-01-2019 22:40:00 -1.6 C 96 % -2.15 C
274 31-01-2019 22:45:00 -1.6 C 96 % -2.15 C
275 31-01-2019 22:50:00 -1.5 C 96 % -2.05 C
Sensor: Nr:Datum:Temp:Feuchte:Taupunkt:
Aussen-T/F 276 31-01-2019 22:55:00 -1.5 C 96 % -2.05 C
277 31-01-2019 23:00:00 -1.4 C 96 % -1.95 C
278 31-01-2019 23:05:00 -1.4 C 96 % -1.95 C
279 31-01-2019 23:10:00 -1.3 C 96 % -1.85 C
280 31-01-2019 23:15:00 -1.3 C 96 % -1.85 C
281 31-01-2019 23:20:00 -1.3 C 96 % -1.85 C
282 31-01-2019 23:25:00 -1.3 C 96 % -1.85 C
283 31-01-2019 23:30:00 -1.2 C 96 % -1.75 C
284 31-01-2019 23:35:00 -1.2 C 96 % -1.75 C
285 31-01-2019 23:40:00 -1.1 C 96 % -1.66 C
286 31-01-2019 23:45:00 -1.1 C 96 % -1.66 C
287 31-01-2019 23:50:00 -1.1 C 96 % -1.66 C
288 31-01-2019 23:55:00 -1 C 96 % -1.56 C
289 01-02-2019 00:00:00 -0.9 C 96 % -1.46 C
290 01-02-2019 00:05:00 -0.9 C 96 % -1.46 C
291 01-02-2019 00:10:00 -0.9 C 96 % -1.46 C
292 01-02-2019 00:15:00 -0.8 C 96 % -1.36 C
293 01-02-2019 00:20:00 -0.8 C 96 % -1.36 C
294 01-02-2019 00:25:00 -0.8 C 96 % -1.36 C
295 01-02-2019 00:30:00 -0.8 C 96 % -1.36 C
296 01-02-2019 00:35:00 -0.7 C 96 % -1.26 C
297 01-02-2019 00:40:00 -0.7 C 96 % -1.26 C
298 01-02-2019 00:45:00 -0.7 C 96 % -1.26 C
299 01-02-2019 00:50:00 -0.7 C 96 % -1.26 C
300 01-02-2019 00:55:00 -0.6 C 96 % -1.16 C
Sensor: Nr:Datum:Temp:Feuchte:Taupunkt:
Aussen-T/F 301 01-02-2019 01:00:00 -0.6 C 96 % -1.16 C
302 01-02-2019 01:05:00 -0.6 C 96 % -1.16 C
303 01-02-2019 01:10:00 -0.5 C 96 % -1.06 C
304 01-02-2019 01:15:00 -0.5 C 96 % -1.06 C
305 01-02-2019 01:20:00 -0.4 C 96 % -0.96 C
306 01-02-2019 01:25:00 -0.4 C 96 % -0.96 C
307 01-02-2019 01:30:00 -0.4 C 96 % -0.96 C
308 01-02-2019 01:35:00 -0.4 C 96 % -0.96 C
309 01-02-2019 01:40:00 -0.4 C 96 % -0.96 C
310 01-02-2019 01:45:00 -0.4 C 96 % -0.96 C
311 01-02-2019 01:50:00 -0.4 C 96 % -0.96 C
312 01-02-2019 01:55:00 -0.3 C 96 % -0.86 C
313 01-02-2019 02:00:00 -0.3 C 96 % -0.86 C
314 01-02-2019 02:05:00 -0.3 C 96 % -0.86 C
315 01-02-2019 02:10:00 -0.2 C 96 % -0.76 C
316 01-02-2019 02:15:00 -0.2 C 96 % -0.76 C
317 01-02-2019 02:20:00 -0.2 C 96 % -0.76 C
318 01-02-2019 02:25:00 -0.2 C 96 % -0.76 C
319 01-02-2019 02:30:00 -0.1 C 96 % -0.66 C
320 01-02-2019 02:35:00 -0.1 C 96 % -0.66 C
321 01-02-2019 02:40:00 -0.1 C 96 % -0.66 C
322 01-02-2019 02:45:00 0 C 96 % -0.56 C
323 01-02-2019 02:50:00 0.1 C 96 % -0.46 C
324 01-02-2019 02:55:00 0.1 C 96 % -0.46 C
325 01-02-2019 03:00:00 0.2 C 96 % -0.36 C
Sensor: Nr:Datum:Temp:Feuchte:Taupunkt:
Aussen-T/F 326 01-02-2019 03:05:00 0.3 C 96 % -0.26 C
327 01-02-2019 03:10:00 0.4 C 97 % -0.02 C
328 01-02-2019 03:15:00 0.4 C 97 % -0.02 C
329 01-02-2019 03:20:00 0.5 C 97 % 0.08 C
330 01-02-2019 03:25:00 0.6 C 97 % 0.18 C
331 01-02-2019 03:30:00 0.6 C 96 % 0.04 C
332 01-02-2019 03:35:00 0.7 C 97 % 0.28 C
333 01-02-2019 03:40:00 0.7 C 97 % 0.28 C
334 01-02-2019 03:45:00 0.8 C 97 % 0.38 C
335 01-02-2019 03:50:00 0.8 C 97 % 0.38 C
336 01-02-2019 03:55:00 0.9 C 97 % 0.48 C
337 01-02-2019 04:00:00 0.9 C 97 % 0.48 C
338 01-02-2019 04:05:00 0.9 C 97 % 0.48 C
339 01-02-2019 04:10:00 0.9 C 97 % 0.48 C
340 01-02-2019 04:15:00 1 C 96 % 0.44 C
341 01-02-2019 04:20:00 1.1 C 96 % 0.54 C
342 01-02-2019 04:25:00 1.1 C 96 % 0.54 C
343 01-02-2019 04:30:00 1.1 C 96 % 0.54 C
344 01-02-2019 04:35:00 1.2 C 96 % 0.63 C
345 01-02-2019 04:40:00 1.2 C 96 % 0.63 C
346 01-02-2019 04:45:00 1.2 C 96 % 0.63 C
347 01-02-2019 04:50:00 1.2 C 96 % 0.63 C
348 01-02-2019 04:55:00 1.2 C 96 % 0.63 C
349 01-02-2019 05:00:00 1.2 C 96 % 0.63 C
350 01-02-2019 05:05:00 1.2 C 95 % 0.49 C
Sensor: Nr:Datum:Temp:Feuchte:Taupunkt:
Aussen-T/F 351 01-02-2019 05:10:00 1.1 C 96 % 0.54 C
352 01-02-2019 05:15:00 1.2 C 96 % 0.63 C
353 01-02-2019 05:20:00 1.1 C 96 % 0.54 C
354 01-02-2019 05:25:00 1.2 C 96 % 0.63 C
355 01-02-2019 05:30:00 1.2 C 96 % 0.63 C
356 01-02-2019 05:35:00 1.2 C 96 % 0.63 C
357 01-02-2019 05:40:00 1.2 C 96 % 0.63 C
358 01-02-2019 05:45:00 1.2 C 96 % 0.63 C
359 01-02-2019 05:50:00 1.2 C 96 % 0.63 C
360 01-02-2019 05:55:00 1.2 C 96 % 0.63 C
361 01-02-2019 06:00:00 1.2 C 96 % 0.63 C
362 01-02-2019 06:05:00 1.2 C 96 % 0.63 C
363 01-02-2019 06:10:00 1.2 C 96 % 0.63 C
364 01-02-2019 06:15:00 1.2 C 96 % 0.63 C
365 01-02-2019 06:20:00 1.1 C 95 % 0.39 C
366 01-02-2019 06:25:00 1.1 C 95 % 0.39 C
367 01-02-2019 06:30:00 1.1 C 96 % 0.54 C
368 01-02-2019 06:35:00 1.1 C 96 % 0.54 C
369 01-02-2019 06:40:00 1.1 C 96 % 0.54 C
370 01-02-2019 06:45:00 1.1 C 96 % 0.54 C
371 01-02-2019 06:50:00 1.1 C 96 % 0.54 C
372 01-02-2019 06:55:00 1.1 C 96 % 0.54 C
373 01-02-2019 07:00:00 1.1 C 96 % 0.54 C
374 01-02-2019 07:05:00 1.1 C 96 % 0.54 C
375 01-02-2019 07:10:00 1.1 C 96 % 0.54 C
Sensor: Nr:Datum:Temp:Feuchte:Taupunkt:
Aussen-T/F 376 01-02-2019 07:15:00 1.1 C 96 % 0.54 C
377 01-02-2019 07:20:00 1.1 C 96 % 0.54 C
378 01-02-2019 07:25:00 1.2 C 96 % 0.63 C
379 01-02-2019 07:30:00 1.2 C 96 % 0.63 C
380 01-02-2019 07:35:00 1.2 C 96 % 0.63 C
381 01-02-2019 07:40:00 1.2 C 96 % 0.63 C
382 01-02-2019 07:45:00 1.3 C 96 % 0.73 C
383 01-02-2019 07:50:00 1.4 C 96 % 0.83 C
384 01-02-2019 07:55:00 1.4 C 96 % 0.83 C
385 01-02-2019 08:00:00 1.4 C 96 % 0.83 C
386 01-02-2019 08:05:00 1.3 C 96 % 0.73 C
387 01-02-2019 08:10:00 1.3 C 96 % 0.73 C
388 01-02-2019 08:15:00 1.3 C 96 % 0.73 C
389 01-02-2019 08:20:00 1.3 C 96 % 0.73 C
390 01-02-2019 08:25:00 1.3 C 96 % 0.73 C
391 01-02-2019 08:30:00 1.3 C 96 % 0.73 C
392 01-02-2019 08:35:00 1.2 C 96 % 0.63 C
393 01-02-2019 08:40:00 1.2 C 96 % 0.63 C
394 01-02-2019 08:45:00 1.2 C 96 % 0.63 C
395 01-02-2019 08:50:00 1.4 C 96 % 0.83 C
396 01-02-2019 08:55:00 1.6 C 97 % 1.18 C
397 01-02-2019 09:00:00 1.8 C 96 % 1.23 C
398 01-02-2019 09:05:00 1.8 C 96 % 1.23 C
399 01-02-2019 09:10:00 1.7 C 96 % 1.13 C
400 01-02-2019 09:15:00 1.7 C 96 % 1.13 C
Sensor: Nr:Datum:Temp:Feuchte:Taupunkt:
Aussen-T/F 401 01-02-2019 09:20:00 1.6 C 96 % 1.03 C
402 01-02-2019 09:25:00 1.5 C 96 % 0.93 C
403 01-02-2019 09:30:00 1.4 C 96 % 0.83 C
404 01-02-2019 09:35:00 1.4 C 96 % 0.83 C
405 01-02-2019 09:40:00 1.4 C 96 % 0.83 C
406 01-02-2019 09:45:00 1.3 C 96 % 0.73 C
407 01-02-2019 09:50:00 1.4 C 96 % 0.83 C
408 01-02-2019 09:55:00 1.5 C 96 % 0.93 C
409 01-02-2019 10:00:00 1.6 C 96 % 1.03 C
410 01-02-2019 10:05:00 1.8 C 96 % 1.23 C
411 01-02-2019 10:10:00 1.9 C 96 % 1.33 C
412 01-02-2019 10:15:00 2 C 96 % 1.43 C
413 01-02-2019 10:20:00 2.1 C 96 % 1.53 C
414 01-02-2019 10:25:00 2.2 C 96 % 1.63 C
415 01-02-2019 10:30:00 2.3 C 96 % 1.73 C
416 01-02-2019 10:35:00 2.4 C 96 % 1.83 C
417 01-02-2019 10:40:00 2.4 C 96 % 1.83 C
418 01-02-2019 10:45:00 2.6 C 96 % 2.03 C
419 01-02-2019 10:50:00 2.6 C 96 % 2.03 C
420 01-02-2019 10:55:00 2.7 C 96 % 2.13 C
421 01-02-2019 11:00:00 2.7 C 96 % 2.13 C
422 01-02-2019 11:05:00 2.8 C 96 % 2.23 C
423 01-02-2019 11:10:00 2.9 C 96 % 2.33 C
424 01-02-2019 11:15:00 3 C 95 % 2.28 C
425 01-02-2019 11:20:00 3.1 C 95 % 2.38 C
Sensor: Nr:Datum:Temp:Feuchte:Taupunkt:
Aussen-T/F 426 01-02-2019 11:25:00 3.1 C 95 % 2.38 C
427 01-02-2019 11:30:00 3.2 C 95 % 2.48 C
428 01-02-2019 11:35:00 3.3 C 95 % 2.58 C
429 01-02-2019 11:40:00 3.3 C 95 % 2.58 C
430 01-02-2019 11:45:00 3.4 C 94 % 2.53 C
431 01-02-2019 11:50:00 3.5 C 94 % 2.63 C
432 01-02-2019 11:55:00 3.6 C 94 % 2.73 C
433 01-02-2019 12:00:00 3.6 C 94 % 2.73 C
434 01-02-2019 12:05:00 3.7 C 94 % 2.83 C
435 01-02-2019 12:10:00 3.7 C 94 % 2.83 C
436 01-02-2019 12:15:00 3.7 C 93 % 2.68 C
437 01-02-2019 12:20:00 3.6 C 93 % 2.58 C
438 01-02-2019 12:25:00 3.4 C 93 % 2.38 C
439 01-02-2019 12:30:00 3.2 C 93 % 2.18 C
440 01-02-2019 12:35:00 3.1 C 93 % 2.08 C
441 01-02-2019 12:40:00 2.8 C 93 % 1.78 C
442 01-02-2019 12:45:00 2.7 C 93 % 1.68 C
443 01-02-2019 12:50:00 2.6 C 93 % 1.59 C
444 01-02-2019 12:55:00 2.6 C 94 % 1.73 C
445 01-02-2019 13:00:00 2.7 C 94 % 1.83 C
446 01-02-2019 13:05:00 2.8 C 95 % 2.08 C
447 01-02-2019 13:10:00 2.8 C 94 % 1.93 C
448 01-02-2019 13:15:00 2.8 C 94 % 1.93 C
449 01-02-2019 13:20:00 2.7 C 94 % 1.83 C
450 01-02-2019 13:25:00 2.6 C 94 % 1.73 C
Sensor: Nr:Datum:Temp:Feuchte:Taupunkt:
Aussen-T/F 451 01-02-2019 13:30:00 2.6 C 95 % 1.88 C
452 01-02-2019 13:35:00 2.8 C 95 % 2.08 C
453 01-02-2019 13:40:00 2.8 C 95 % 2.08 C
454 01-02-2019 13:45:00 2.8 C 94 % 1.93 C
455 01-02-2019 13:50:00 2.7 C 94 % 1.83 C
456 01-02-2019 13:55:00 2.7 C 94 % 1.83 C
457 01-02-2019 14:00:00 2.8 C 95 % 2.08 C
458 01-02-2019 14:05:00 2.8 C 95 % 2.08 C
459 01-02-2019 14:10:00 3.1 C 95 % 2.38 C
460 01-02-2019 14:15:00 3.3 C 96 % 2.72 C
461 01-02-2019 14:20:00 3.6 C 96 % 3.02 C
462 01-02-2019 14:25:00 3.8 C 96 % 3.22 C
463 01-02-2019 14:30:00 3.9 C 95 % 3.17 C
464 01-02-2019 14:35:00 3.8 C 94 % 2.93 C
465 01-02-2019 14:40:00 3.7 C 94 % 2.83 C
466 01-02-2019 14:45:00 3.7 C 94 % 2.83 C
467 01-02-2019 14:50:00 3.7 C 94 % 2.83 C
468 01-02-2019 14:55:00 3.7 C 94 % 2.83 C
469 01-02-2019 15:00:00 3.7 C 94 % 2.83 C
470 01-02-2019 15:05:00 3.5 C 93 % 2.48 C
471 01-02-2019 15:10:00 3.4 C 93 % 2.38 C
472 01-02-2019 15:15:00 3.3 C 94 % 2.43 C
473 01-02-2019 15:20:00 3.3 C 94 % 2.43 C
474 01-02-2019 15:25:00 3.2 C 94 % 2.33 C
475 01-02-2019 15:30:00 3.1 C 94 % 2.23 C
Sensor: Nr:Datum:Temp:Feuchte:Taupunkt:
Aussen-T/F 476 01-02-2019 15:35:00 3 C 94 % 2.13 C
477 01-02-2019 15:40:00 3 C 94 % 2.13 C
478 01-02-2019 15:45:00 3.1 C 94 % 2.23 C
479 01-02-2019 15:50:00 3.1 C 94 % 2.23 C
480 01-02-2019 15:55:00 3.1 C 95 % 2.38 C
481 01-02-2019 16:00:00 3.1 C 95 % 2.38 C
482 01-02-2019 16:05:00 3.1 C 95 % 2.38 C
483 01-02-2019 16:10:00 3.1 C 95 % 2.38 C
484 01-02-2019 16:15:00 3.1 C 95 % 2.38 C
485 01-02-2019 16:20:00 3 C 95 % 2.28 C
486 01-02-2019 16:25:00 2.9 C 95 % 2.18 C
487 01-02-2019 16:30:00 2.8 C 95 % 2.08 C
488 01-02-2019 16:35:00 2.7 C 94 % 1.83 C
489 01-02-2019 16:40:00 2.7 C 95 % 1.98 C
490 01-02-2019 16:45:00 2.7 C 95 % 1.98 C
491 01-02-2019 16:50:00 2.6 C 95 % 1.88 C
492 01-02-2019 16:55:00 2.6 C 95 % 1.88 C
493 01-02-2019 17:00:00 2.5 C 95 % 1.78 C
494 01-02-2019 17:05:00 2.6 C 95 % 1.88 C
495 01-02-2019 17:10:00 2.6 C 95 % 1.88 C
496 01-02-2019 17:15:00 2.6 C 95 % 1.88 C
497 01-02-2019 17:20:00 2.6 C 95 % 1.88 C
498 01-02-2019 17:25:00 2.5 C 95 % 1.78 C
499 01-02-2019 17:30:00 2.5 C 95 % 1.78 C
500 01-02-2019 17:35:00 2.5 C 96 % 1.93 C
Sensor: Nr:Datum:Temp:Feuchte:Taupunkt:
Aussen-T/F 501 01-02-2019 17:40:00 2.5 C 96 % 1.93 C
502 01-02-2019 17:45:00 2.6 C 96 % 2.03 C
503 01-02-2019 17:50:00 2.5 C 96 % 1.93 C
504 01-02-2019 17:55:00 2.5 C 96 % 1.93 C
505 01-02-2019 18:00:00 2.5 C 96 % 1.93 C
506 01-02-2019 18:05:00 2.5 C 96 % 1.93 C
507 01-02-2019 18:10:00 2.6 C 96 % 2.03 C
508 01-02-2019 18:15:00 2.6 C 96 % 2.03 C
509 01-02-2019 18:20:00 2.5 C 96 % 1.93 C
510 01-02-2019 18:25:00 2.5 C 96 % 1.93 C
511 01-02-2019 18:30:00 2.4 C 96 % 1.83 C
512 01-02-2019 18:35:00 2.4 C 96 % 1.83 C
513 01-02-2019 18:40:00 2.4 C 96 % 1.83 C
514 01-02-2019 18:45:00 2.4 C 96 % 1.83 C
515 01-02-2019 18:50:00 2.4 C 96 % 1.83 C
516 01-02-2019 18:55:00 2.4 C 96 % 1.83 C
517 01-02-2019 19:00:00 2.4 C 96 % 1.83 C
518 01-02-2019 19:05:00 2.4 C 96 % 1.83 C
519 01-02-2019 19:10:00 2.3 C 96 % 1.73 C
520 01-02-2019 19:15:00 2.3 C 96 % 1.73 C
521 01-02-2019 19:20:00 2.3 C 96 % 1.73 C
522 01-02-2019 19:25:00 2.3 C 96 % 1.73 C
523 01-02-2019 19:30:00 2.2 C 96 % 1.63 C
524 01-02-2019 19:35:00 2.2 C 96 % 1.63 C
525 01-02-2019 19:40:00 2.2 C 96 % 1.63 C
Sensor: Nr:Datum:Temp:Feuchte:Taupunkt:
Aussen-T/F 526 01-02-2019 19:45:00 2.1 C 96 % 1.53 C
527 01-02-2019 19:50:00 2.1 C 96 % 1.53 C
528 01-02-2019 19:55:00 2.1 C 96 % 1.53 C
529 01-02-2019 20:00:00 2.1 C 96 % 1.53 C
530 01-02-2019 20:05:00 2.1 C 96 % 1.53 C
531 01-02-2019 20:10:00 2 C 96 % 1.43 C
532 01-02-2019 20:15:00 2 C 96 % 1.43 C
533 01-02-2019 20:20:00 1.9 C 96 % 1.33 C
534 01-02-2019 20:25:00 2 C 96 % 1.43 C
535 01-02-2019 20:30:00 2 C 96 % 1.43 C
536 01-02-2019 20:35:00 2.1 C 96 % 1.53 C
537 01-02-2019 20:40:00 2.1 C 96 % 1.53 C
538 01-02-2019 20:45:00 2 C 96 % 1.43 C
539 01-02-2019 20:50:00 2 C 96 % 1.43 C
540 01-02-2019 20:55:00 1.9 C 96 % 1.33 C
541 01-02-2019 21:00:00 1.9 C 96 % 1.33 C
542 01-02-2019 21:05:00 1.9 C 96 % 1.33 C
543 01-02-2019 21:10:00 1.9 C 96 % 1.33 C
544 01-02-2019 21:15:00 1.9 C 96 % 1.33 C
545 01-02-2019 21:20:00 1.9 C 96 % 1.33 C
546 01-02-2019 21:25:00 1.8 C 96 % 1.23 C
547 01-02-2019 21:30:00 1.8 C 96 % 1.23 C
548 01-02-2019 21:35:00 1.8 C 96 % 1.23 C
549 01-02-2019 21:40:00 1.7 C 96 % 1.13 C
550 01-02-2019 21:45:00 1.7 C 96 % 1.13 C
Sensor: Nr:Datum:Temp:Feuchte:Taupunkt:
Aussen-T/F 551 01-02-2019 21:50:00 1.7 C 96 % 1.13 C
552 01-02-2019 21:55:00 1.7 C 96 % 1.13 C
553 01-02-2019 22:00:00 1.7 C 96 % 1.13 C
554 01-02-2019 22:05:00 1.7 C 96 % 1.13 C
555 01-02-2019 22:10:00 1.7 C 96 % 1.13 C
556 01-02-2019 22:15:00 1.8 C 96 % 1.23 C
557 01-02-2019 22:20:00 1.7 C 96 % 1.13 C
558 01-02-2019 22:25:00 1.7 C 96 % 1.13 C
559 01-02-2019 22:30:00 1.7 C 96 % 1.13 C
560 01-02-2019 22:35:00 1.7 C 96 % 1.13 C
561 01-02-2019 22:40:00 1.6 C 96 % 1.03 C
562 01-02-2019 22:45:00 1.6 C 96 % 1.03 C
563 01-02-2019 22:50:00 1.6 C 96 % 1.03 C
564 01-02-2019 22:55:00 1.6 C 96 % 1.03 C
565 01-02-2019 23:00:00 1.5 C 96 % 0.93 C
566 01-02-2019 23:05:00 1.5 C 96 % 0.93 C
567 01-02-2019 23:10:00 1.5 C 96 % 0.93 C
568 01-02-2019 23:15:00 1.5 C 97 % 1.08 C
569 01-02-2019 23:20:00 1.6 C 97 % 1.18 C
570 01-02-2019 23:25:00 1.6 C 97 % 1.18 C
571 01-02-2019 23:30:00 1.6 C 97 % 1.18 C
572 01-02-2019 23:35:00 1.6 C 97 % 1.18 C
573 01-02-2019 23:40:00 1.6 C 97 % 1.18 C
574 01-02-2019 23:45:00 1.7 C 97 % 1.28 C
575 01-02-2019 23:50:00 1.7 C 97 % 1.28 C
Sensor: Nr:Datum:Temp:Feuchte:Taupunkt:
Aussen-T/F 576 01-02-2019 23:55:00 1.7 C 97 % 1.28 C
577 02-02-2019 00:00:00 1.7 C 97 % 1.28 C
578 02-02-2019 00:05:00 1.7 C 97 % 1.28 C
579 02-02-2019 00:10:00 1.7 C 97 % 1.28 C
580 02-02-2019 00:15:00 1.7 C 97 % 1.28 C
581 02-02-2019 00:20:00 1.7 C 97 % 1.28 C
582 02-02-2019 00:25:00 1.7 C 97 % 1.28 C
583 02-02-2019 00:30:00 1.7 C 97 % 1.28 C
584 02-02-2019 00:35:00 1.8 C 97 % 1.38 C
585 02-02-2019 00:40:00 1.8 C 97 % 1.38 C
586 02-02-2019 00:45:00 1.8 C 97 % 1.38 C
587 02-02-2019 00:50:00 1.8 C 97 % 1.38 C
588 02-02-2019 00:55:00 1.8 C 97 % 1.38 C
589 02-02-2019 01:00:00 1.8 C 97 % 1.38 C
590 02-02-2019 01:05:00 1.8 C 97 % 1.38 C
591 02-02-2019 01:10:00 1.8 C 97 % 1.38 C
592 02-02-2019 01:15:00 1.8 C 97 % 1.38 C
593 02-02-2019 01:20:00 1.8 C 97 % 1.38 C
594 02-02-2019 01:25:00 1.8 C 97 % 1.38 C
595 02-02-2019 01:30:00 1.8 C 97 % 1.38 C
596 02-02-2019 01:35:00 1.8 C 97 % 1.38 C
597 02-02-2019 01:40:00 1.8 C 97 % 1.38 C
598 02-02-2019 01:45:00 1.9 C 97 % 1.48 C
599 02-02-2019 01:50:00 1.9 C 97 % 1.48 C
600 02-02-2019 01:55:00 1.9 C 97 % 1.48 C
Sensor: Nr:Datum:Temp:Feuchte:Taupunkt:
Aussen-T/F 601 02-02-2019 02:00:00 1.9 C 97 % 1.48 C
602 02-02-2019 02:05:00 1.9 C 97 % 1.48 C
603 02-02-2019 02:10:00 1.9 C 97 % 1.48 C
604 02-02-2019 02:15:00 1.8 C 97 % 1.38 C
605 02-02-2019 02:20:00 1.8 C 97 % 1.38 C
606 02-02-2019 02:25:00 1.8 C 97 % 1.38 C
607 02-02-2019 02:30:00 1.8 C 97 % 1.38 C
608 02-02-2019 02:35:00 1.8 C 97 % 1.38 C
609 02-02-2019 02:40:00 1.8 C 97 % 1.38 C
610 02-02-2019 02:45:00 1.8 C 97 % 1.38 C
611 02-02-2019 02:50:00 1.8 C 97 % 1.38 C
612 02-02-2019 02:55:00 1.8 C 97 % 1.38 C
613 02-02-2019 03:00:00 1.8 C 97 % 1.38 C
614 02-02-2019 03:05:00 1.8 C 97 % 1.38 C
615 02-02-2019 03:10:00 1.7 C 97 % 1.28 C
616 02-02-2019 03:15:00 1.7 C 97 % 1.28 C
617 02-02-2019 03:20:00 1.7 C 97 % 1.28 C
618 02-02-2019 03:25:00 1.7 C 97 % 1.28 C
619 02-02-2019 03:30:00 1.7 C 97 % 1.28 C
620 02-02-2019 03:35:00 1.7 C 97 % 1.28 C
621 02-02-2019 03:40:00 1.7 C 97 % 1.28 C
622 02-02-2019 03:45:00 1.8 C 97 % 1.38 C
623 02-02-2019 03:50:00 1.9 C 97 % 1.48 C
624 02-02-2019 03:55:00 1.9 C 97 % 1.48 C
625 02-02-2019 04:00:00 1.9 C 97 % 1.48 C
Sensor: Nr:Datum:Temp:Feuchte:Taupunkt:
Aussen-T/F 626 02-02-2019 04:05:00 1.9 C 97 % 1.48 C
627 02-02-2019 04:10:00 1.8 C 97 % 1.38 C
628 02-02-2019 04:15:00 1.8 C 97 % 1.38 C
629 02-02-2019 04:20:00 1.8 C 97 % 1.38 C
630 02-02-2019 04:25:00 1.8 C 97 % 1.38 C
631 02-02-2019 04:30:00 1.8 C 97 % 1.38 C
632 02-02-2019 04:35:00 1.8 C 97 % 1.38 C
633 02-02-2019 04:40:00 1.8 C 97 % 1.38 C
634 02-02-2019 04:45:00 1.8 C 97 % 1.38 C
635 02-02-2019 04:50:00 1.8 C 97 % 1.38 C
636 02-02-2019 04:55:00 1.8 C 97 % 1.38 C
637 02-02-2019 05:00:00 1.7 C 97 % 1.28 C
638 02-02-2019 05:05:00 1.7 C 97 % 1.28 C
639 02-02-2019 05:10:00 1.7 C 97 % 1.28 C
640 02-02-2019 05:15:00 1.7 C 97 % 1.28 C
641 02-02-2019 05:20:00 1.7 C 97 % 1.28 C
642 02-02-2019 05:25:00 1.7 C 97 % 1.28 C
643 02-02-2019 05:30:00 1.7 C 97 % 1.28 C
644 02-02-2019 05:35:00 1.7 C 97 % 1.28 C
645 02-02-2019 05:40:00 1.7 C 97 % 1.28 C
646 02-02-2019 05:45:00 1.7 C 97 % 1.28 C
647 02-02-2019 05:50:00 1.7 C 97 % 1.28 C
648 02-02-2019 05:55:00 1.8 C 97 % 1.38 C
649 02-02-2019 06:00:00 1.8 C 97 % 1.38 C
650 02-02-2019 06:05:00 1.8 C 97 % 1.38 C
Sensor: Nr:Datum:Temp:Feuchte:Taupunkt:
Aussen-T/F 651 02-02-2019 06:10:00 1.8 C 97 % 1.38 C
652 02-02-2019 06:15:00 1.7 C 97 % 1.28 C
653 02-02-2019 06:20:00 1.7 C 97 % 1.28 C
654 02-02-2019 06:25:00 1.7 C 97 % 1.28 C
655 02-02-2019 06:30:00 1.7 C 97 % 1.28 C
656 02-02-2019 06:35:00 1.7 C 97 % 1.28 C
657 02-02-2019 06:40:00 1.7 C 97 % 1.28 C
658 02-02-2019 06:45:00 1.7 C 97 % 1.28 C
659 02-02-2019 06:50:00 1.7 C 97 % 1.28 C
660 02-02-2019 06:55:00 1.7 C 97 % 1.28 C
661 02-02-2019 07:00:00 1.7 C 97 % 1.28 C
662 02-02-2019 07:05:00 1.7 C 97 % 1.28 C
663 02-02-2019 07:10:00 1.7 C 97 % 1.28 C
664 02-02-2019 07:15:00 1.7 C 97 % 1.28 C
665 02-02-2019 07:20:00 1.7 C 97 % 1.28 C
666 02-02-2019 07:25:00 1.8 C 97 % 1.38 C
667 02-02-2019 07:30:00 1.7 C 97 % 1.28 C
668 02-02-2019 07:35:00 1.8 C 97 % 1.38 C
669 02-02-2019 07:40:00 1.7 C 97 % 1.28 C
670 02-02-2019 07:45:00 1.7 C 97 % 1.28 C
671 02-02-2019 07:50:00 1.8 C 97 % 1.38 C
672 02-02-2019 07:55:00 1.8 C 97 % 1.38 C
673 02-02-2019 08:00:00 1.8 C 97 % 1.38 C
674 02-02-2019 08:05:00 1.8 C 97 % 1.38 C
675 02-02-2019 08:10:00 1.8 C 97 % 1.38 C
Sensor: Nr:Datum:Temp:Feuchte:Taupunkt:
Aussen-T/F 676 02-02-2019 08:15:00 1.8 C 97 % 1.38 C
677 02-02-2019 08:20:00 1.8 C 97 % 1.38 C
678 02-02-2019 08:25:00 1.8 C 97 % 1.38 C
679 02-02-2019 08:30:00 1.8 C 97 % 1.38 C
680 02-02-2019 08:35:00 1.8 C 97 % 1.38 C
681 02-02-2019 08:40:00 1.8 C 97 % 1.38 C
682 02-02-2019 08:45:00 1.8 C 97 % 1.38 C
683 02-02-2019 08:50:00 1.8 C 97 % 1.38 C
684 02-02-2019 08:55:00 1.8 C 97 % 1.38 C
685 02-02-2019 09:00:00 1.8 C 97 % 1.38 C
686 02-02-2019 09:05:00 1.9 C 97 % 1.48 C
687 02-02-2019 09:10:00 1.9 C 97 % 1.48 C
688 02-02-2019 09:15:00 1.9 C 97 % 1.48 C
689 02-02-2019 09:20:00 2 C 97 % 1.58 C
690 02-02-2019 09:25:00 2.1 C 97 % 1.67 C
691 02-02-2019 09:30:00 2.1 C 97 % 1.67 C
692 02-02-2019 09:35:00 2.2 C 97 % 1.77 C
693 02-02-2019 09:40:00 2.2 C 97 % 1.77 C
694 02-02-2019 09:45:00 2.3 C 97 % 1.87 C
695 02-02-2019 09:50:00 2.3 C 97 % 1.87 C
696 02-02-2019 09:55:00 2.4 C 97 % 1.97 C
697 02-02-2019 10:00:00 2.5 C 98 % 2.22 C
698 02-02-2019 10:05:00 2.6 C 98 % 2.32 C
699 02-02-2019 10:10:00 2.6 C 97 % 2.17 C
700 02-02-2019 10:15:00 2.7 C 97 % 2.27 C
Sensor: Nr:Datum:Temp:Feuchte:Taupunkt:
Aussen-T/F 701 02-02-2019 10:20:00 2.7 C 98 % 2.42 C
702 02-02-2019 10:25:00 2.7 C 98 % 2.42 C
703 02-02-2019 10:30:00 2.8 C 98 % 2.52 C
704 02-02-2019 10:35:00 2.8 C 98 % 2.52 C
705 02-02-2019 10:40:00 2.8 C 97 % 2.37 C
706 02-02-2019 10:45:00 2.8 C 97 % 2.37 C
707 02-02-2019 10:50:00 2.8 C 97 % 2.37 C
708 02-02-2019 10:55:00 2.8 C 97 % 2.37 C
709 02-02-2019 11:00:00 2.9 C 97 % 2.47 C
710 02-02-2019 11:05:00 2.9 C 97 % 2.47 C
711 02-02-2019 11:10:00 3 C 97 % 2.57 C
712 02-02-2019 11:15:00 3 C 97 % 2.57 C
713 02-02-2019 11:20:00 3.1 C 97 % 2.67 C
714 02-02-2019 11:25:00 3.1 C 97 % 2.67 C
715 02-02-2019 11:30:00 3.1 C 97 % 2.67 C
716 02-02-2019 11:35:00 3.1 C 97 % 2.67 C
717 02-02-2019 11:40:00 3.1 C 97 % 2.67 C
718 02-02-2019 11:45:00 3.1 C 97 % 2.67 C
719 02-02-2019 11:50:00 3.1 C 97 % 2.67 C
720 02-02-2019 11:55:00 3.1 C 97 % 2.67 C
721 02-02-2019 12:00:00 3.1 C 97 % 2.67 C
722 02-02-2019 12:05:00 3.2 C 97 % 2.77 C
723 02-02-2019 12:10:00 3.2 C 97 % 2.77 C
724 02-02-2019 12:15:00 3.2 C 97 % 2.77 C
725 02-02-2019 12:20:00 3.3 C 97 % 2.87 C
Sensor: Nr:Datum:Temp:Feuchte:Taupunkt:
Aussen-T/F 726 02-02-2019 12:25:00 3.3 C 97 % 2.87 C
727 02-02-2019 12:30:00 3.3 C 97 % 2.87 C
728 02-02-2019 12:35:00 3.4 C 97 % 2.97 C
729 02-02-2019 12:40:00 3.4 C 97 % 2.97 C
730 02-02-2019 12:45:00 3.4 C 97 % 2.97 C
731 02-02-2019 12:50:00 3.5 C 97 % 3.07 C
732 02-02-2019 12:55:00 3.5 C 97 % 3.07 C
733 02-02-2019 13:00:00 3.5 C 97 % 3.07 C
734 02-02-2019 13:05:00 3.4 C 97 % 2.97 C
735 02-02-2019 13:10:00 3.5 C 97 % 3.07 C
736 02-02-2019 13:15:00 3.6 C 97 % 3.17 C
737 02-02-2019 13:20:00 3.7 C 97 % 3.27 C
738 02-02-2019 13:25:00 3.7 C 97 % 3.27 C
739 02-02-2019 13:30:00 3.8 C 97 % 3.37 C
740 02-02-2019 13:35:00 3.7 C 97 % 3.27 C
741 02-02-2019 13:40:00 3.8 C 97 % 3.37 C
742 02-02-2019 13:45:00 3.8 C 97 % 3.37 C
743 02-02-2019 13:50:00 3.8 C 97 % 3.37 C
744 02-02-2019 13:55:00 3.8 C 97 % 3.37 C
745 02-02-2019 14:00:00 3.8 C 97 % 3.37 C
746 02-02-2019 14:05:00 3.8 C 97 % 3.37 C
747 02-02-2019 14:10:00 3.8 C 97 % 3.37 C
748 02-02-2019 14:15:00 3.8 C 97 % 3.37 C
749 02-02-2019 14:20:00 3.8 C 97 % 3.37 C
750 02-02-2019 14:25:00 3.8 C 97 % 3.37 C
Sensor: Nr:Datum:Temp:Feuchte:Taupunkt:
Aussen-T/F 751 02-02-2019 14:30:00 3.7 C 97 % 3.27 C
752 02-02-2019 14:35:00 3.7 C 97 % 3.27 C
753 02-02-2019 14:40:00 3.7 C 97 % 3.27 C
754 02-02-2019 14:45:00 3.6 C 97 % 3.17 C
755 02-02-2019 14:50:00 3.6 C 97 % 3.17 C
756 02-02-2019 14:55:00 3.6 C 97 % 3.17 C
757 02-02-2019 15:00:00 3.6 C 97 % 3.17 C
758 02-02-2019 15:05:00 3.7 C 97 % 3.27 C
759 02-02-2019 15:10:00 3.8 C 97 % 3.37 C
760 02-02-2019 15:15:00 3.8 C 97 % 3.37 C
761 02-02-2019 15:20:00 3.9 C 97 % 3.47 C
762 02-02-2019 15:25:00 4 C 97 % 3.57 C
763 02-02-2019 15:30:00 4 C 97 % 3.57 C
764 02-02-2019 15:35:00 4.1 C 97 % 3.67 C
765 02-02-2019 15:40:00 4.1 C 97 % 3.67 C
766 02-02-2019 15:45:00 4 C 97 % 3.57 C
767 02-02-2019 15:50:00 4 C 97 % 3.57 C
768 02-02-2019 15:55:00 3.9 C 97 % 3.47 C
769 02-02-2019 16:00:00 3.9 C 97 % 3.47 C
770 02-02-2019 16:05:00 3.8 C 97 % 3.37 C
771 02-02-2019 16:10:00 3.8 C 97 % 3.37 C
772 02-02-2019 16:15:00 3.7 C 97 % 3.27 C
773 02-02-2019 16:20:00 3.7 C 97 % 3.27 C
774 02-02-2019 16:25:00 3.7 C 97 % 3.27 C
775 02-02-2019 16:30:00 3.7 C 97 % 3.27 C
Sensor: Nr:Datum:Temp:Feuchte:Taupunkt:
Aussen-T/F 776 02-02-2019 16:35:00 3.7 C 97 % 3.27 C
777 02-02-2019 16:40:00 3.6 C 97 % 3.17 C
778 02-02-2019 16:45:00 3.6 C 97 % 3.17 C
779 02-02-2019 16:50:00 3.5 C 97 % 3.07 C
780 02-02-2019 16:55:00 3.4 C 97 % 2.97 C
781 02-02-2019 17:00:00 3.3 C 97 % 2.87 C
782 02-02-2019 17:05:00 3.3 C 97 % 2.87 C
783 02-02-2019 17:10:00 3.2 C 97 % 2.77 C
784 02-02-2019 17:15:00 3.2 C 97 % 2.77 C
785 02-02-2019 17:20:00 3.2 C 97 % 2.77 C
786 02-02-2019 17:25:00 3.2 C 97 % 2.77 C
787 02-02-2019 17:30:00 3.2 C 97 % 2.77 C
788 02-02-2019 17:35:00 3.1 C 97 % 2.67 C
789 02-02-2019 17:40:00 3.2 C 97 % 2.77 C
790 02-02-2019 17:45:00 3.3 C 97 % 2.87 C
791 02-02-2019 17:50:00 3.4 C 97 % 2.97 C
792 02-02-2019 17:55:00 3.4 C 97 % 2.97 C
793 02-02-2019 18:00:00 3.4 C 97 % 2.97 C
794 02-02-2019 18:05:00 3.4 C 97 % 2.97 C
795 02-02-2019 18:10:00 3.3 C 97 % 2.87 C
796 02-02-2019 18:15:00 3.3 C 97 % 2.87 C
797 02-02-2019 18:20:00 3.2 C 97 % 2.77 C
798 02-02-2019 18:25:00 3.2 C 97 % 2.77 C
799 02-02-2019 18:30:00 3.2 C 97 % 2.77 C
800 02-02-2019 18:35:00 3.1 C 97 % 2.67 C
Sensor: Nr:Datum:Temp:Feuchte:Taupunkt:
Aussen-T/F 801 02-02-2019 18:40:00 3.1 C 97 % 2.67 C
802 02-02-2019 18:45:00 3 C 97 % 2.57 C
803 02-02-2019 18:50:00 2.9 C 97 % 2.47 C
804 02-02-2019 18:55:00 2.8 C 97 % 2.37 C
805 02-02-2019 19:00:00 2.8 C 96 % 2.23 C
806 02-02-2019 19:05:00 2.8 C 97 % 2.37 C
807 02-02-2019 19:10:00 2.7 C 96 % 2.13 C
808 02-02-2019 19:15:00 2.7 C 96 % 2.13 C
809 02-02-2019 19:20:00 2.7 C 97 % 2.27 C
810 02-02-2019 19:25:00 2.6 C 97 % 2.17 C
811 02-02-2019 19:30:00 2.6 C 97 % 2.17 C
812 02-02-2019 19:35:00 2.6 C 96 % 2.03 C
813 02-02-2019 19:40:00 2.6 C 97 % 2.17 C
814 02-02-2019 19:45:00 2.5 C 97 % 2.07 C
815 02-02-2019 19:50:00 2.5 C 97 % 2.07 C
816 02-02-2019 19:55:00 2.4 C 97 % 1.97 C
817 02-02-2019 20:00:00 2.4 C 97 % 1.97 C
818 02-02-2019 20:05:00 2.4 C 97 % 1.97 C
819 02-02-2019 20:10:00 2.4 C 96 % 1.83 C
820 02-02-2019 20:15:00 2.3 C 96 % 1.73 C
821 02-02-2019 20:20:00 2.3 C 96 % 1.73 C
822 02-02-2019 20:25:00 2.3 C 96 % 1.73 C
823 02-02-2019 20:30:00 2.3 C 96 % 1.73 C
824 02-02-2019 20:35:00 2.3 C 96 % 1.73 C
825 02-02-2019 20:40:00 2.3 C 96 % 1.73 C
Sensor: Nr:Datum:Temp:Feuchte:Taupunkt:
Aussen-T/F 826 02-02-2019 20:45:00 2.3 C 96 % 1.73 C
827 02-02-2019 20:50:00 2.2 C 96 % 1.63 C
828 02-02-2019 20:55:00 2.2 C 96 % 1.63 C
829 02-02-2019 21:00:00 2.2 C 96 % 1.63 C
830 02-02-2019 21:05:00 2.2 C 96 % 1.63 C
831 02-02-2019 21:10:00 2.2 C 96 % 1.63 C
832 02-02-2019 21:15:00 2.1 C 96 % 1.53 C
833 02-02-2019 21:20:00 2.1 C 96 % 1.53 C
834 02-02-2019 21:25:00 2.1 C 96 % 1.53 C
835 02-02-2019 21:30:00 2.1 C 96 % 1.53 C
836 02-02-2019 21:35:00 2.1 C 96 % 1.53 C
837 02-02-2019 21:40:00 2.1 C 96 % 1.53 C
838 02-02-2019 21:45:00 2 C 96 % 1.43 C
839 02-02-2019 21:50:00 2 C 96 % 1.43 C
840 02-02-2019 21:55:00 2 C 96 % 1.43 C
841 02-02-2019 22:00:00 1.9 C 96 % 1.33 C
842 02-02-2019 22:05:00 1.9 C 96 % 1.33 C
843 02-02-2019 22:10:00 1.9 C 96 % 1.33 C
844 02-02-2019 22:15:00 1.9 C 96 % 1.33 C
845 02-02-2019 22:20:00 1.9 C 96 % 1.33 C
846 02-02-2019 22:25:00 1.9 C 96 % 1.33 C
847 02-02-2019 22:30:00 1.9 C 96 % 1.33 C
848 02-02-2019 22:35:00 1.9 C 96 % 1.33 C
849 02-02-2019 22:40:00 1.9 C 96 % 1.33 C
850 02-02-2019 22:45:00 1.8 C 96 % 1.23 C
Sensor: Nr:Datum:Temp:Feuchte:Taupunkt:
Aussen-T/F 851 02-02-2019 22:50:00 1.8 C 96 % 1.23 C
852 02-02-2019 22:55:00 1.8 C 96 % 1.23 C
853 02-02-2019 23:00:00 1.8 C 96 % 1.23 C
854 02-02-2019 23:05:00 1.8 C 96 % 1.23 C
855 02-02-2019 23:10:00 1.8 C 96 % 1.23 C
856 02-02-2019 23:15:00 1.8 C 96 % 1.23 C
857 02-02-2019 23:20:00 1.8 C 96 % 1.23 C
858 02-02-2019 23:25:00 1.8 C 96 % 1.23 C
859 02-02-2019 23:30:00 1.8 C 97 % 1.38 C
860 02-02-2019 23:35:00 1.8 C 97 % 1.38 C
861 02-02-2019 23:40:00 1.8 C 97 % 1.38 C
862 02-02-2019 23:45:00 1.8 C 97 % 1.38 C
863 02-02-2019 23:50:00 1.8 C 96 % 1.23 C
864 02-02-2019 23:55:00 1.8 C 96 % 1.23 C
865 03-02-2019 00:00:00 1.8 C 97 % 1.38 C
866 03-02-2019 00:05:00 1.8 C 96 % 1.23 C
867 03-02-2019 00:10:00 1.8 C 97 % 1.38 C
868 03-02-2019 00:15:00 1.8 C 97 % 1.38 C
869 03-02-2019 00:20:00 1.9 C 97 % 1.48 C
870 03-02-2019 00:25:00 1.9 C 97 % 1.48 C
871 03-02-2019 00:30:00 1.9 C 97 % 1.48 C
872 03-02-2019 00:35:00 1.9 C 96 % 1.33 C
873 03-02-2019 00:40:00 1.9 C 96 % 1.33 C
874 03-02-2019 00:45:00 1.9 C 96 % 1.33 C
875 03-02-2019 00:50:00 1.9 C 96 % 1.33 C
Sensor: Nr:Datum:Temp:Feuchte:Taupunkt:
Aussen-T/F 876 03-02-2019 00:55:00 2 C 96 % 1.43 C
877 03-02-2019 01:00:00 2 C 96 % 1.43 C
878 03-02-2019 01:05:00 2 C 96 % 1.43 C
879 03-02-2019 01:10:00 2 C 96 % 1.43 C
880 03-02-2019 01:15:00 2 C 96 % 1.43 C
881 03-02-2019 01:20:00 2.1 C 96 % 1.53 C
882 03-02-2019 01:25:00 2.1 C 96 % 1.53 C
883 03-02-2019 01:30:00 2.1 C 96 % 1.53 C
884 03-02-2019 01:35:00 2.1 C 96 % 1.53 C
885 03-02-2019 01:40:00 2.1 C 96 % 1.53 C
886 03-02-2019 01:45:00 2.1 C 96 % 1.53 C
887 03-02-2019 01:50:00 2.1 C 96 % 1.53 C
888 03-02-2019 01:55:00 2.1 C 96 % 1.53 C
889 03-02-2019 02:00:00 2.1 C 96 % 1.53 C
890 03-02-2019 02:05:00 2.1 C 95 % 1.38 C
891 03-02-2019 02:10:00 2.1 C 95 % 1.38 C
892 03-02-2019 02:15:00 2.1 C 95 % 1.38 C
893 03-02-2019 02:20:00 2.1 C 95 % 1.38 C
894 03-02-2019 02:25:00 2.2 C 95 % 1.48 C
895 03-02-2019 02:30:00 2.2 C 94 % 1.34 C
896 03-02-2019 02:35:00 2.2 C 94 % 1.34 C
897 03-02-2019 02:40:00 2.2 C 94 % 1.34 C
898 03-02-2019 02:45:00 2.2 C 93 % 1.19 C
899 03-02-2019 02:50:00 2.2 C 93 % 1.19 C
900 03-02-2019 02:55:00 2.2 C 93 % 1.19 C
Sensor: Nr:Datum:Temp:Feuchte:Taupunkt:
Aussen-T/F 901 03-02-2019 03:00:00 2.2 C 93 % 1.19 C
902 03-02-2019 03:05:00 2.2 C 93 % 1.19 C
903 03-02-2019 03:10:00 2.2 C 93 % 1.19 C
904 03-02-2019 03:15:00 2.2 C 93 % 1.19 C
905 03-02-2019 03:20:00 2.2 C 93 % 1.19 C
906 03-02-2019 03:25:00 2.2 C 93 % 1.19 C
907 03-02-2019 03:30:00 2.2 C 93 % 1.19 C
908 03-02-2019 03:35:00 2.2 C 93 % 1.19 C
909 03-02-2019 03:40:00 2.2 C 93 % 1.19 C
910 03-02-2019 03:45:00 2.2 C 93 % 1.19 C
911 03-02-2019 03:50:00 2.1 C 93 % 1.09 C
912 03-02-2019 03:55:00 2.1 C 93 % 1.09 C
913 03-02-2019 04:00:00 2.1 C 93 % 1.09 C
914 03-02-2019 04:05:00 2.1 C 93 % 1.09 C
915 03-02-2019 04:10:00 2.1 C 93 % 1.09 C
916 03-02-2019 04:15:00 2.1 C 93 % 1.09 C
917 03-02-2019 04:20:00 2.1 C 93 % 1.09 C
918 03-02-2019 04:25:00 2.1 C 93 % 1.09 C
919 03-02-2019 04:30:00 2.1 C 94 % 1.24 C
920 03-02-2019 04:35:00 2.1 C 94 % 1.24 C
921 03-02-2019 04:40:00 2.1 C 94 % 1.24 C
922 03-02-2019 04:45:00 2.1 C 94 % 1.24 C
923 03-02-2019 04:50:00 2.1 C 94 % 1.24 C
924 03-02-2019 04:55:00 2.1 C 94 % 1.24 C
925 03-02-2019 05:00:00 2.1 C 94 % 1.24 C
Sensor: Nr:Datum:Temp:Feuchte:Taupunkt:
Aussen-T/F 926 03-02-2019 05:05:00 2.1 C 93 % 1.09 C
927 03-02-2019 05:10:00 2.2 C 93 % 1.19 C
928 03-02-2019 05:15:00 2.2 C 93 % 1.19 C
929 03-02-2019 05:20:00 2.2 C 93 % 1.19 C
930 03-02-2019 05:25:00 2.2 C 93 % 1.19 C
931 03-02-2019 05:30:00 2.2 C 93 % 1.19 C
932 03-02-2019 05:35:00 2.2 C 93 % 1.19 C
933 03-02-2019 05:40:00 2.2 C 93 % 1.19 C
934 03-02-2019 05:45:00 2.2 C 93 % 1.19 C
935 03-02-2019 05:50:00 2.2 C 93 % 1.19 C
936 03-02-2019 05:55:00 2.2 C 93 % 1.19 C
937 03-02-2019 06:00:00 2.2 C 93 % 1.19 C
938 03-02-2019 06:05:00 2.2 C 93 % 1.19 C
939 03-02-2019 06:10:00 2.2 C 93 % 1.19 C
940 03-02-2019 06:15:00 2.3 C 92 % 1.14 C
941 03-02-2019 06:20:00 2.3 C 92 % 1.14 C
942 03-02-2019 06:25:00 2.3 C 93 % 1.29 C
943 03-02-2019 06:30:00 2.2 C 92 % 1.04 C
944 03-02-2019 06:35:00 2.2 C 92 % 1.04 C
945 03-02-2019 06:40:00 2.2 C 92 % 1.04 C
946 03-02-2019 06:45:00 2.1 C 92 % 0.94 C
947 03-02-2019 06:50:00 2.1 C 93 % 1.09 C
948 03-02-2019 06:55:00 2 C 93 % 0.99 C
949 03-02-2019 07:00:00 1.9 C 93 % 0.89 C
950 03-02-2019 07:05:00 1.9 C 93 % 0.89 C
Sensor: Nr:Datum:Temp:Feuchte:Taupunkt:
Aussen-T/F 951 03-02-2019 07:10:00 1.9 C 93 % 0.89 C
952 03-02-2019 07:15:00 1.9 C 93 % 0.89 C
953 03-02-2019 07:20:00 1.9 C 93 % 0.89 C
954 03-02-2019 07:25:00 1.9 C 93 % 0.89 C
955 03-02-2019 07:30:00 1.9 C 93 % 0.89 C
956 03-02-2019 07:35:00 1.9 C 93 % 0.89 C
957 03-02-2019 07:40:00 1.9 C 93 % 0.89 C
958 03-02-2019 07:45:00 1.9 C 93 % 0.89 C
959 03-02-2019 07:50:00 1.9 C 93 % 0.89 C
960 03-02-2019 07:55:00 1.9 C 93 % 0.89 C
961 03-02-2019 08:00:00 1.9 C 93 % 0.89 C
962 03-02-2019 08:05:00 1.9 C 93 % 0.89 C
963 03-02-2019 08:10:00 1.8 C 93 % 0.79 C
964 03-02-2019 08:15:00 1.8 C 93 % 0.79 C
965 03-02-2019 08:20:00 1.8 C 93 % 0.79 C
966 03-02-2019 08:25:00 1.9 C 93 % 0.89 C
967 03-02-2019 08:30:00 1.9 C 93 % 0.89 C
968 03-02-2019 08:35:00 1.9 C 93 % 0.89 C
969 03-02-2019 08:40:00 1.9 C 93 % 0.89 C
970 03-02-2019 08:45:00 1.9 C 93 % 0.89 C
971 03-02-2019 08:50:00 1.9 C 93 % 0.89 C
972 03-02-2019 08:55:00 1.9 C 93 % 0.89 C
973 03-02-2019 09:00:00 1.9 C 93 % 0.89 C
974 03-02-2019 09:05:00 1.9 C 93 % 0.89 C
975 03-02-2019 09:10:00 2 C 93 % 0.99 C
Sensor: Nr:Datum:Temp:Feuchte:Taupunkt:
Aussen-T/F 976 03-02-2019 09:15:00 2 C 94 % 1.14 C
977 03-02-2019 09:20:00 2 C 94 % 1.14 C
978 03-02-2019 09:25:00 2 C 94 % 1.14 C
979 03-02-2019 09:30:00 2 C 93 % 0.99 C
980 03-02-2019 09:35:00 2 C 93 % 0.99 C
981 03-02-2019 09:40:00 2 C 93 % 0.99 C
982 03-02-2019 09:45:00 2 C 93 % 0.99 C
983 03-02-2019 09:50:00 2.1 C 93 % 1.09 C
984 03-02-2019 09:55:00 2.2 C 92 % 1.04 C
985 03-02-2019 10:00:00 2.2 C 92 % 1.04 C
986 03-02-2019 10:05:00 2.3 C 92 % 1.14 C
987 03-02-2019 10:10:00 2.3 C 92 % 1.14 C
988 03-02-2019 10:15:00 2.4 C 92 % 1.24 C
989 03-02-2019 10:20:00 2.4 C 92 % 1.24 C
990 03-02-2019 10:25:00 2.4 C 92 % 1.24 C
991 03-02-2019 10:30:00 2.5 C 91 % 1.18 C
992 03-02-2019 10:35:00 2.5 C 91 % 1.18 C
993 03-02-2019 10:40:00 2.6 C 91 % 1.28 C
994 03-02-2019 10:45:00 2.6 C 91 % 1.28 C
995 03-02-2019 10:50:00 2.7 C 90 % 1.23 C
996 03-02-2019 10:55:00 2.7 C 90 % 1.23 C
997 03-02-2019 11:00:00 2.7 C 90 % 1.23 C
998 03-02-2019 11:05:00 2.8 C 90 % 1.33 C
999 03-02-2019 11:10:00 2.9 C 90 % 1.43 C
1000 03-02-2019 11:15:00 2.9 C 89 % 1.27 C
Sensor: Nr:Datum:Temp:Feuchte:Taupunkt:
Aussen-T/F 1001 03-02-2019 11:20:00 3.1 C 89 % 1.47 C
1002 03-02-2019 11:25:00 3.2 C 89 % 1.57 C
1003 03-02-2019 11:30:00 3.2 C 88 % 1.41 C
1004 03-02-2019 11:35:00 3.3 C 88 % 1.51 C
1005 03-02-2019 11:40:00 3.3 C 88 % 1.51 C
1006 03-02-2019 11:45:00 3.3 C 88 % 1.51 C
1007 03-02-2019 11:50:00 3.3 C 88 % 1.51 C
1008 03-02-2019 11:55:00 3.3 C 88 % 1.51 C
1009 03-02-2019 12:00:00 3.3 C 88 % 1.51 C
1010 03-02-2019 12:05:00 3.3 C 87 % 1.35 C
1011 03-02-2019 12:10:00 3.3 C 87 % 1.35 C
1012 03-02-2019 12:15:00 3.4 C 86 % 1.29 C
1013 03-02-2019 12:20:00 3.4 C 86 % 1.29 C
1014 03-02-2019 12:25:00 3.6 C 85 % 1.32 C
1015 03-02-2019 12:30:00 3.7 C 85 % 1.42 C
1016 03-02-2019 12:35:00 3.7 C 85 % 1.42 C
1017 03-02-2019 12:40:00 3.8 C 84 % 1.35 C
1018 03-02-2019 12:45:00 3.8 C 85 % 1.52 C
1019 03-02-2019 12:50:00 3.9 C 85 % 1.61 C
1020 03-02-2019 12:55:00 3.8 C 85 % 1.52 C
1021 03-02-2019 13:00:00 3.8 C 84 % 1.35 C
1022 03-02-2019 13:05:00 3.8 C 85 % 1.52 C
1023 03-02-2019 13:10:00 3.8 C 85 % 1.52 C
1024 03-02-2019 13:15:00 3.8 C 84 % 1.35 C
1025 03-02-2019 13:20:00 3.9 C 85 % 1.61 C
Sensor: Nr:Datum:Temp:Feuchte:Taupunkt:
Aussen-T/F 1026 03-02-2019 13:25:00 3.9 C 83 % 1.28 C
1027 03-02-2019 13:30:00 3.9 C 83 % 1.28 C
1028 03-02-2019 13:35:00 4 C 83 % 1.38 C
1029 03-02-2019 13:40:00 4.1 C 83 % 1.48 C
1030 03-02-2019 13:45:00 4.2 C 82 % 1.41 C
1031 03-02-2019 13:50:00 4.2 C 81 % 1.24 C
1032 03-02-2019 13:55:00 4.2 C 82 % 1.41 C
1033 03-02-2019 14:00:00 4.2 C 82 % 1.41 C
1034 03-02-2019 14:05:00 4.2 C 83 % 1.58 C
1035 03-02-2019 14:10:00 4.1 C 83 % 1.48 C
1036 03-02-2019 14:15:00 4.1 C 84 % 1.65 C
1037 03-02-2019 14:20:00 3.9 C 84 % 1.45 C
1038 03-02-2019 14:25:00 3.9 C 84 % 1.45 C
1039 03-02-2019 14:30:00 3.9 C 84 % 1.45 C
1040 03-02-2019 14:35:00 4 C 84 % 1.55 C
1041 03-02-2019 14:40:00 4.1 C 83 % 1.48 C
1042 03-02-2019 14:45:00 4.2 C 83 % 1.58 C
1043 03-02-2019 14:50:00 4.2 C 82 % 1.41 C
1044 03-02-2019 14:55:00 4.4 C 81 % 1.43 C
1045 03-02-2019 15:00:00 4.4 C 79 % 1.09 C
1046 03-02-2019 15:05:00 4.4 C 78 % 0.91 C
1047 03-02-2019 15:10:00 4.4 C 78 % 0.91 C
1048 03-02-2019 15:15:00 4.5 C 78 % 1.01 C
1049 03-02-2019 15:20:00 4.5 C 77 % 0.83 C
1050 03-02-2019 15:25:00 4.6 C 76 % 0.74 C
Sensor: Nr:Datum:Temp:Feuchte:Taupunkt:
Aussen-T/F 1051 03-02-2019 15:30:00 4.6 C 78 % 1.1 C
1052 03-02-2019 15:35:00 4.5 C 77 % 0.83 C
1053 03-02-2019 15:40:00 4.6 C 76 % 0.74 C
1054 03-02-2019 15:45:00 4.6 C 75 % 0.56 C
1055 03-02-2019 15:50:00 4.5 C 75 % 0.46 C
1056 03-02-2019 15:55:00 4.5 C 75 % 0.46 C
1057 03-02-2019 16:00:00 4.4 C 75 % 0.37 C
1058 03-02-2019 16:05:00 4.4 C 75 % 0.37 C
1059 03-02-2019 16:10:00 4.4 C 76 % 0.55 C
1060 03-02-2019 16:15:00 4.4 C 76 % 0.55 C
1061 03-02-2019 16:20:00 4.4 C 76 % 0.55 C
1062 03-02-2019 16:25:00 4.4 C 76 % 0.55 C
1063 03-02-2019 16:30:00 4.4 C 76 % 0.55 C
1064 03-02-2019 16:35:00 4.5 C 76 % 0.65 C
1065 03-02-2019 16:40:00 4.5 C 77 % 0.83 C
1066 03-02-2019 16:45:00 4.5 C 76 % 0.65 C
1067 03-02-2019 16:50:00 4.5 C 77 % 0.83 C
1068 03-02-2019 16:55:00 4.4 C 77 % 0.73 C
1069 03-02-2019 17:00:00 4.4 C 77 % 0.73 C
1070 03-02-2019 17:05:00 4.4 C 77 % 0.73 C
1071 03-02-2019 17:10:00 4.3 C 77 % 0.63 C
1072 03-02-2019 17:15:00 4.3 C 77 % 0.63 C
1073 03-02-2019 17:20:00 4.3 C 77 % 0.63 C
1074 03-02-2019 17:25:00 4.3 C 77 % 0.63 C
1075 03-02-2019 17:30:00 4.3 C 78 % 0.81 C
Sensor: Nr:Datum:Temp:Feuchte:Taupunkt:
Aussen-T/F 1076 03-02-2019 17:35:00 4.3 C 79 % 0.99 C
1077 03-02-2019 17:40:00 4.2 C 79 % 0.89 C
1078 03-02-2019 17:45:00 4.2 C 79 % 0.89 C
1079 03-02-2019 17:50:00 4.1 C 79 % 0.79 C
1080 03-02-2019 17:55:00 4.1 C 80 % 0.97 C
1081 03-02-2019 18:00:00 4.1 C 80 % 0.97 C
1082 03-02-2019 18:05:00 4 C 81 % 1.04 C
1083 03-02-2019 18:10:00 3.9 C 81 % 0.95 C
1084 03-02-2019 18:15:00 3.9 C 82 % 1.12 C
1085 03-02-2019 18:20:00 3.9 C 82 % 1.12 C
1086 03-02-2019 18:25:00 3.9 C 83 % 1.28 C
1087 03-02-2019 18:30:00 3.8 C 83 % 1.19 C
1088 03-02-2019 18:35:00 3.8 C 83 % 1.19 C
1089 03-02-2019 18:40:00 3.8 C 83 % 1.19 C
1090 03-02-2019 18:45:00 3.8 C 83 % 1.19 C
1091 03-02-2019 18:50:00 3.8 C 83 % 1.19 C
1092 03-02-2019 18:55:00 3.8 C 83 % 1.19 C
1093 03-02-2019 19:00:00 3.8 C 84 % 1.35 C
1094 03-02-2019 19:05:00 3.7 C 84 % 1.25 C
1095 03-02-2019 19:10:00 3.7 C 84 % 1.25 C
1096 03-02-2019 19:15:00 3.7 C 84 % 1.25 C
1097 03-02-2019 19:20:00 3.6 C 84 % 1.16 C
1098 03-02-2019 19:25:00 3.6 C 85 % 1.32 C
1099 03-02-2019 19:30:00 3.6 C 85 % 1.32 C
1100 03-02-2019 19:35:00 3.6 C 85 % 1.32 C
Sensor: Nr:Datum:Temp:Feuchte:Taupunkt:
Aussen-T/F 1101 03-02-2019 19:40:00 3.5 C 85 % 1.22 C
1102 03-02-2019 19:45:00 3.4 C 86 % 1.29 C
1103 03-02-2019 19:50:00 3.4 C 86 % 1.29 C
1104 03-02-2019 19:55:00 3.4 C 86 % 1.29 C
1105 03-02-2019 20:00:00 3.3 C 86 % 1.19 C
1106 03-02-2019 20:05:00 3.3 C 87 % 1.35 C
1107 03-02-2019 20:10:00 3.3 C 87 % 1.35 C
1108 03-02-2019 20:15:00 3.3 C 87 % 1.35 C
1109 03-02-2019 20:20:00 3.3 C 87 % 1.35 C
1110 03-02-2019 20:25:00 3.2 C 88 % 1.41 C
1111 03-02-2019 20:30:00 3.2 C 88 % 1.41 C
1112 03-02-2019 20:35:00 3.2 C 88 % 1.41 C
1113 03-02-2019 20:40:00 3.1 C 87 % 1.15 C
1114 03-02-2019 20:45:00 3.1 C 87 % 1.15 C
1115 03-02-2019 20:50:00 3.1 C 87 % 1.15 C
1116 03-02-2019 20:55:00 2.9 C 87 % 0.96 C
1117 03-02-2019 21:00:00 2.7 C 87 % 0.76 C
1118 03-02-2019 21:05:00 2.4 C 87 % 0.46 C
1119 03-02-2019 21:10:00 2.3 C 88 % 0.52 C
1120 03-02-2019 21:15:00 2.1 C 88 % 0.33 C
1121 03-02-2019 21:20:00 2 C 89 % 0.38 C
1122 03-02-2019 21:25:00 1.9 C 89 % 0.28 C
1123 03-02-2019 21:30:00 1.8 C 89 % 0.19 C
1124 03-02-2019 21:35:00 1.7 C 90 % 0.24 C
1125 03-02-2019 21:40:00 1.6 C 90 % 0.14 C
Sensor: Nr:Datum:Temp:Feuchte:Taupunkt:
Aussen-T/F 1126 03-02-2019 21:45:00 1.6 C 90 % 0.14 C
1127 03-02-2019 21:50:00 1.5 C 91 % 0.19 C
1128 03-02-2019 21:55:00 1.5 C 91 % 0.19 C
1129 03-02-2019 22:00:00 1.4 C 91 % 0.1 C
1130 03-02-2019 22:05:00 1.4 C 91 % 0.1 C
1131 03-02-2019 22:10:00 1.3 C 91 % 0 C
1132 03-02-2019 22:15:00 1.2 C 91 % -0.1 C
1133 03-02-2019 22:20:00 1.1 C 91 % -0.2 C
1134 03-02-2019 22:25:00 1.1 C 91 % -0.2 C
1135 03-02-2019 22:30:00 0.9 C 91 % -0.4 C
1136 03-02-2019 22:35:00 0.8 C 91 % -0.5 C
1137 03-02-2019 22:40:00 0.8 C 91 % -0.5 C
1138 03-02-2019 22:45:00 0.7 C 92 % -0.45 C
1139 03-02-2019 22:50:00 0.6 C 92 % -0.55 C
1140 03-02-2019 22:55:00 0.6 C 92 % -0.55 C
1141 03-02-2019 23:00:00 0.6 C 92 % -0.55 C
1142 03-02-2019 23:05:00 0.5 C 93 % -0.5 C
1143 03-02-2019 23:10:00 0.5 C 93 % -0.5 C
1144 03-02-2019 23:15:00 0.4 C 93 % -0.6 C
1145 03-02-2019 23:20:00 0.4 C 92 % -0.74 C
1146 03-02-2019 23:25:00 0.3 C 93 % -0.7 C
1147 03-02-2019 23:30:00 0.3 C 93 % -0.7 C
1148 03-02-2019 23:35:00 0.2 C 93 % -0.79 C
1149 03-02-2019 23:40:00 0.1 C 93 % -0.89 C
1150 03-02-2019 23:45:00 0 C 93 % -0.99 C
Sensor: Nr:Datum:Temp:Feuchte:Taupunkt:
Aussen-T/F 1151 03-02-2019 23:50:00 -0.1 C 93 % -1.09 C
1152 03-02-2019 23:55:00 -0.1 C 93 % -1.09 C
1153 04-02-2019 00:00:00 -0.1 C 93 % -1.09 C
1154 04-02-2019 00:05:00 -0.2 C 93 % -1.19 C
1155 04-02-2019 00:10:00 -0.2 C 93 % -1.19 C
1156 04-02-2019 00:15:00 -0.2 C 93 % -1.19 C
1157 04-02-2019 00:20:00 -0.3 C 94 % -1.15 C
1158 04-02-2019 00:25:00 -0.3 C 94 % -1.15 C
1159 04-02-2019 00:30:00 -0.3 C 94 % -1.15 C
1160 04-02-2019 00:35:00 -0.4 C 94 % -1.25 C
1161 04-02-2019 00:40:00 -0.4 C 94 % -1.25 C
1162 04-02-2019 00:45:00 -0.4 C 94 % -1.25 C
1163 04-02-2019 00:50:00 -0.5 C 94 % -1.34 C
1164 04-02-2019 00:55:00 -0.5 C 94 % -1.34 C
1165 04-02-2019 01:00:00 -0.5 C 94 % -1.34 C
1166 04-02-2019 01:05:00 -0.4 C 95 % -1.1 C
1167 04-02-2019 01:10:00 -0.3 C 95 % -1 C
1168 04-02-2019 01:15:00 -0.2 C 95 % -0.9 C
1169 04-02-2019 01:20:00 0 C 95 % -0.7 C
1170 04-02-2019 01:25:00 0.1 C 95 % -0.6 C
1171 04-02-2019 01:30:00 0.1 C 95 % -0.6 C
1172 04-02-2019 01:35:00 0.1 C 95 % -0.6 C
1173 04-02-2019 01:40:00 0.1 C 95 % -0.6 C
1174 04-02-2019 01:45:00 0.1 C 95 % -0.6 C
1175 04-02-2019 01:50:00 0.1 C 95 % -0.6 C
Sensor: Nr:Datum:Temp:Feuchte:Taupunkt:
Aussen-T/F 1176 04-02-2019 01:55:00 0.1 C 95 % -0.6 C
1177 04-02-2019 02:00:00 0.1 C 95 % -0.6 C
1178 04-02-2019 02:05:00 0.1 C 95 % -0.6 C
1179 04-02-2019 02:10:00 0.1 C 95 % -0.6 C
1180 04-02-2019 02:15:00 0.1 C 94 % -0.75 C
1181 04-02-2019 02:20:00 0.1 C 94 % -0.75 C
1182 04-02-2019 02:25:00 0.1 C 95 % -0.6 C
1183 04-02-2019 02:30:00 0.1 C 94 % -0.75 C
1184 04-02-2019 02:35:00 0 C 94 % -0.85 C
1185 04-02-2019 02:40:00 -0.1 C 94 % -0.95 C
1186 04-02-2019 02:45:00 -0.2 C 94 % -1.05 C
1187 04-02-2019 02:50:00 -0.2 C 94 % -1.05 C
1188 04-02-2019 02:55:00 -0.2 C 94 % -1.05 C
1189 04-02-2019 03:00:00 -0.3 C 94 % -1.15 C
1190 04-02-2019 03:05:00 -0.2 C 94 % -1.05 C
1191 04-02-2019 03:10:00 -0.2 C 94 % -1.05 C
1192 04-02-2019 03:15:00 -0.2 C 94 % -1.05 C
1193 04-02-2019 03:20:00 -0.2 C 94 % -1.05 C
1194 04-02-2019 03:25:00 -0.2 C 94 % -1.05 C
1195 04-02-2019 03:30:00 -0.2 C 94 % -1.05 C
1196 04-02-2019 03:35:00 -0.2 C 94 % -1.05 C
1197 04-02-2019 03:40:00 -0.2 C 94 % -1.05 C
1198 04-02-2019 03:45:00 -0.1 C 94 % -0.95 C
1199 04-02-2019 03:50:00 -0.2 C 94 % -1.05 C
1200 04-02-2019 03:55:00 -0.2 C 94 % -1.05 C
Sensor: Nr:Datum:Temp:Feuchte:Taupunkt:
Aussen-T/F 1201 04-02-2019 04:00:00 -0.3 C 94 % -1.15 C
1202 04-02-2019 04:05:00 -0.3 C 94 % -1.15 C
1203 04-02-2019 04:10:00 -0.3 C 94 % -1.15 C
1204 04-02-2019 04:15:00 -0.4 C 94 % -1.25 C
1205 04-02-2019 04:20:00 -0.5 C 94 % -1.34 C
1206 04-02-2019 04:25:00 -0.6 C 94 % -1.44 C
1207 04-02-2019 04:30:00 -0.6 C 94 % -1.44 C
1208 04-02-2019 04:35:00 -0.6 C 94 % -1.44 C
1209 04-02-2019 04:40:00 -0.6 C 94 % -1.44 C
1210 04-02-2019 04:45:00 -0.5 C 94 % -1.34 C
1211 04-02-2019 04:50:00 -0.5 C 94 % -1.34 C
1212 04-02-2019 04:55:00 -0.5 C 95 % -1.2 C
1213 04-02-2019 05:00:00 -0.4 C 94 % -1.25 C
1214 04-02-2019 05:05:00 -0.4 C 95 % -1.1 C
1215 04-02-2019 05:10:00 -0.3 C 95 % -1 C
1216 04-02-2019 05:15:00 -0.2 C 95 % -0.9 C
1217 04-02-2019 05:20:00 -0.2 C 95 % -0.9 C
1218 04-02-2019 05:25:00 -0.1 C 95 % -0.8 C
1219 04-02-2019 05:30:00 0.1 C 95 % -0.6 C
1220 04-02-2019 05:35:00 0.1 C 95 % -0.6 C
1221 04-02-2019 05:40:00 0.2 C 95 % -0.5 C
1222 04-02-2019 05:45:00 0.2 C 95 % -0.5 C
1223 04-02-2019 05:50:00 0.3 C 95 % -0.4 C
1224 04-02-2019 05:55:00 0.3 C 95 % -0.4 C
1225 04-02-2019 06:00:00 0.3 C 95 % -0.4 C
Sensor: Nr:Datum:Temp:Feuchte:Taupunkt:
Aussen-T/F 1226 04-02-2019 06:05:00 0.3 C 95 % -0.4 C
1227 04-02-2019 06:10:00 0.3 C 95 % -0.4 C
1228 04-02-2019 06:15:00 0.3 C 95 % -0.4 C
1229 04-02-2019 06:20:00 0.4 C 95 % -0.31 C
1230 04-02-2019 06:25:00 0.4 C 95 % -0.31 C
1231 04-02-2019 06:30:00 0.4 C 95 % -0.31 C
1232 04-02-2019 06:35:00 0.4 C 95 % -0.31 C
1233 04-02-2019 06:40:00 0.4 C 95 % -0.31 C
1234 04-02-2019 06:45:00 0.4 C 95 % -0.31 C
1235 04-02-2019 06:50:00 0.4 C 95 % -0.31 C
1236 04-02-2019 06:55:00 0.4 C 95 % -0.31 C
1237 04-02-2019 07:00:00 0.4 C 95 % -0.31 C
1238 04-02-2019 07:05:00 0.4 C 95 % -0.31 C
1239 04-02-2019 07:10:00 0.5 C 95 % -0.21 C
1240 04-02-2019 07:15:00 0.5 C 95 % -0.21 C
1241 04-02-2019 07:20:00 0.5 C 95 % -0.21 C
1242 04-02-2019 07:25:00 0.6 C 95 % -0.11 C
1243 04-02-2019 07:30:00 0.5 C 95 % -0.21 C
1244 04-02-2019 07:35:00 0.5 C 95 % -0.21 C
1245 04-02-2019 07:40:00 0.5 C 95 % -0.21 C
1246 04-02-2019 07:45:00 0.6 C 95 % -0.11 C
1247 04-02-2019 07:50:00 0.6 C 94 % -0.25 C
1248 04-02-2019 07:55:00 0.6 C 95 % -0.11 C
1249 04-02-2019 08:00:00 0.6 C 95 % -0.11 C
1250 04-02-2019 08:05:00 0.6 C 95 % -0.11 C
Sensor: Nr:Datum:Temp:Feuchte:Taupunkt:
Aussen-T/F 1251 04-02-2019 08:10:00 0.6 C 95 % -0.11 C
1252 04-02-2019 08:15:00 0.6 C 95 % -0.11 C
1253 04-02-2019 08:20:00 0.7 C 95 % -0.01 C
1254 04-02-2019 08:25:00 0.7 C 94 % -0.15 C
1255 04-02-2019 08:30:00 0.7 C 94 % -0.15 C
1256 04-02-2019 08:35:00 0.7 C 94 % -0.15 C
1257 04-02-2019 08:40:00 0.8 C 94 % -0.05 C
1258 04-02-2019 08:45:00 0.8 C 94 % -0.05 C
1259 04-02-2019 08:50:00 0.8 C 94 % -0.05 C
1260 04-02-2019 08:55:00 0.8 C 94 % -0.05 C
1261 04-02-2019 09:00:00 0.8 C 94 % -0.05 C
1262 04-02-2019 09:05:00 0.8 C 94 % -0.05 C
1263 04-02-2019 09:10:00 0.7 C 94 % -0.15 C
1264 04-02-2019 09:15:00 0.7 C 94 % -0.15 C
1265 04-02-2019 09:20:00 0.6 C 93 % -0.4 C
1266 04-02-2019 09:25:00 0.6 C 94 % -0.25 C
1267 04-02-2019 09:30:00 0.5 C 94 % -0.35 C
1268 04-02-2019 09:35:00 0.5 C 94 % -0.35 C
1269 04-02-2019 09:40:00 0.5 C 94 % -0.35 C
1270 04-02-2019 09:45:00 0.6 C 94 % -0.25 C
1271 04-02-2019 09:50:00 0.5 C 94 % -0.35 C
1272 04-02-2019 09:55:00 0.5 C 94 % -0.35 C
1273 04-02-2019 10:00:00 0.6 C 94 % -0.25 C
1274 04-02-2019 10:05:00 0.6 C 94 % -0.25 C
1275 04-02-2019 10:10:00 0.6 C 94 % -0.25 C
Sensor: Nr:Datum:Temp:Feuchte:Taupunkt:
Aussen-T/F 1276 04-02-2019 10:15:00 0.7 C 94 % -0.15 C
1277 04-02-2019 10:20:00 0.8 C 94 % -0.05 C
1278 04-02-2019 10:25:00 0.8 C 95 % 0.09 C
1279 04-02-2019 10:30:00 0.9 C 94 % 0.05 C
1280 04-02-2019 10:35:00 1 C 94 % 0.15 C
1281 04-02-2019 10:40:00 1.1 C 94 % 0.24 C
1282 04-02-2019 10:45:00 1.2 C 94 % 0.34 C
1283 04-02-2019 10:50:00 1.2 C 94 % 0.34 C
1284 04-02-2019 10:55:00 1.3 C 94 % 0.44 C
1285 04-02-2019 11:00:00 1.4 C 94 % 0.54 C
1286 04-02-2019 11:05:00 1.6 C 93 % 0.59 C
1287 04-02-2019 11:10:00 1.7 C 93 % 0.69 C
1288 04-02-2019 11:15:00 1.8 C 93 % 0.79 C
1289 04-02-2019 11:20:00 1.9 C 92 % 0.74 C
1290 04-02-2019 11:25:00 2 C 91 % 0.69 C
1291 04-02-2019 11:30:00 2.1 C 91 % 0.79 C
1292 04-02-2019 11:35:00 2.2 C 90 % 0.73 C
1293 04-02-2019 11:40:00 2.3 C 90 % 0.83 C
1294 04-02-2019 11:45:00 2.4 C 90 % 0.93 C
1295 04-02-2019 11:50:00 2.5 C 89 % 0.88 C
1296 04-02-2019 11:55:00 2.6 C 89 % 0.97 C
1297 04-02-2019 12:00:00 2.7 C 89 % 1.07 C
1298 04-02-2019 12:05:00 2.9 C 89 % 1.27 C
1299 04-02-2019 12:10:00 3.1 C 88 % 1.31 C
1300 04-02-2019 12:15:00 3.2 C 88 % 1.41 C
Sensor: Nr:Datum:Temp:Feuchte:Taupunkt:
Aussen-T/F 1301 04-02-2019 12:20:00 3.3 C 85 % 1.03 C
1302 04-02-2019 12:25:00 3.6 C 82 % 0.82 C
1303 04-02-2019 12:30:00 3.9 C 80 % 0.77 C
1304 04-02-2019 12:35:00 4.2 C 78 % 0.71 C
1305 04-02-2019 12:40:00 4.3 C 77 % 0.63 C
1306 04-02-2019 12:45:00 4.5 C 77 % 0.83 C
1307 04-02-2019 12:50:00 4.6 C 75 % 0.56 C
1308 04-02-2019 12:55:00 4.7 C 74 % 0.47 C
1309 04-02-2019 13:00:00 4.8 C 74 % 0.57 C
1310 04-02-2019 13:05:00 4.8 C 73 % 0.38 C
1311 04-02-2019 13:10:00 4.8 C 74 % 0.57 C
1312 04-02-2019 13:15:00 4.8 C 73 % 0.38 C
1313 04-02-2019 13:20:00 4.8 C 72 % 0.19 C
1314 04-02-2019 13:25:00 4.8 C 72 % 0.19 C
1315 04-02-2019 13:30:00 4.8 C 72 % 0.19 C
1316 04-02-2019 13:35:00 4.7 C 72 % 0.09 C
1317 04-02-2019 13:40:00 4.7 C 73 % 0.28 C
1318 04-02-2019 13:45:00 4.7 C 72 % 0.09 C
1319 04-02-2019 13:50:00 4.8 C 72 % 0.19 C
1320 04-02-2019 13:55:00 4.9 C 72 % 0.29 C
1321 04-02-2019 14:00:00 4.9 C 71 % 0.09 C
1322 04-02-2019 14:05:00 5 C 72 % 0.38 C
1323 04-02-2019 14:10:00 5.2 C 71 % 0.38 C
1324 04-02-2019 14:15:00 5.2 C 69 % -0.01 C
1325 04-02-2019 14:20:00 5.3 C 69 % 0.09 C
Sensor: Nr:Datum:Temp:Feuchte:Taupunkt:
Aussen-T/F 1326 04-02-2019 14:25:00 5.4 C 70 % 0.38 C
1327 04-02-2019 14:30:00 5.4 C 67 % -0.22 C
1328 04-02-2019 14:35:00 5.4 C 67 % -0.22 C
1329 04-02-2019 14:40:00 5.4 C 67 % -0.22 C
1330 04-02-2019 14:45:00 5.5 C 66 % -0.33 C
1331 04-02-2019 14:50:00 5.5 C 67 % -0.13 C
1332 04-02-2019 14:55:00 5.5 C 66 % -0.33 C
1333 04-02-2019 15:00:00 5.4 C 66 % -0.43 C
1334 04-02-2019 15:05:00 5.4 C 66 % -0.43 C
1335 04-02-2019 15:10:00 5.4 C 67 % -0.22 C
1336 04-02-2019 15:15:00 5.3 C 68 % -0.12 C
1337 04-02-2019 15:20:00 5.3 C 66 % -0.52 C
1338 04-02-2019 15:25:00 5.3 C 66 % -0.52 C
1339 04-02-2019 15:30:00 5.3 C 65 % -0.73 C
1340 04-02-2019 15:35:00 5.3 C 67 % -0.32 C
1341 04-02-2019 15:40:00 5.3 C 68 % -0.12 C
1342 04-02-2019 15:45:00 5.3 C 68 % -0.12 C
1343 04-02-2019 15:50:00 5.3 C 68 % -0.12 C
1344 04-02-2019 15:55:00 5.3 C 66 % -0.52 C
1345 04-02-2019 16:00:00 5.3 C 67 % -0.32 C
1346 04-02-2019 16:05:00 5.3 C 69 % 0.09 C
1347 04-02-2019 16:10:00 5.3 C 70 % 0.28 C
1348 04-02-2019 16:15:00 5.3 C 68 % -0.12 C
1349 04-02-2019 16:20:00 5.3 C 67 % -0.32 C
1350 04-02-2019 16:25:00 5.2 C 70 % 0.19 C
Sensor: Nr:Datum:Temp:Feuchte:Taupunkt:
Aussen-T/F 1351 04-02-2019 16:30:00 5.2 C 73 % 0.77 C
1352 04-02-2019 16:35:00 5 C 73 % 0.57 C
1353 04-02-2019 16:40:00 4.8 C 74 % 0.57 C
1354 04-02-2019 16:45:00 4.7 C 76 % 0.84 C
1355 04-02-2019 16:50:00 4.4 C 77 % 0.73 C
1356 04-02-2019 16:55:00 4.2 C 78 % 0.71 C
1357 04-02-2019 17:00:00 3.9 C 79 % 0.6 C
1358 04-02-2019 17:05:00 3.6 C 81 % 0.65 C
1359 04-02-2019 17:10:00 3.3 C 81 % 0.36 C
1360 04-02-2019 17:15:00 3.1 C 82 % 0.33 C
1361 04-02-2019 17:20:00 2.9 C 83 % 0.31 C
1362 04-02-2019 17:25:00 2.7 C 84 % 0.27 C
1363 04-02-2019 17:30:00 2.6 C 84 % 0.18 C
1364 04-02-2019 17:35:00 2.4 C 85 % 0.14 C
1365 04-02-2019 17:40:00 2.3 C 85 % 0.04 C
1366 04-02-2019 17:45:00 2.2 C 85 % -0.05 C
1367 04-02-2019 17:50:00 2.1 C 86 % 0.01 C
1368 04-02-2019 17:55:00 1.9 C 86 % -0.19 C
1369 04-02-2019 18:00:00 1.8 C 86 % -0.29 C
1370 04-02-2019 18:05:00 1.7 C 87 % -0.23 C
1371 04-02-2019 18:10:00 1.6 C 87 % -0.32 C
1372 04-02-2019 18:15:00 1.6 C 87 % -0.32 C
1373 04-02-2019 18:20:00 1.5 C 87 % -0.42 C
1374 04-02-2019 18:25:00 1.4 C 87 % -0.52 C
1375 04-02-2019 18:30:00 1.3 C 87 % -0.62 C
Sensor: Nr:Datum:Temp:Feuchte:Taupunkt:
Aussen-T/F 1376 04-02-2019 18:35:00 1.3 C 88 % -0.46 C
1377 04-02-2019 18:40:00 1.2 C 88 % -0.56 C
1378 04-02-2019 18:45:00 1.2 C 88 % -0.56 C
1379 04-02-2019 18:50:00 1.1 C 89 % -0.51 C
1380 04-02-2019 18:55:00 1.1 C 89 % -0.51 C
1381 04-02-2019 19:00:00 1.1 C 89 % -0.51 C
1382 04-02-2019 19:05:00 1.1 C 89 % -0.51 C
1383 04-02-2019 19:10:00 1.2 C 89 % -0.41 C
1384 04-02-2019 19:15:00 1.2 C 89 % -0.41 C
1385 04-02-2019 19:20:00 1.3 C 90 % -0.15 C
1386 04-02-2019 19:25:00 1.3 C 90 % -0.15 C
1387 04-02-2019 19:30:00 1.4 C 90 % -0.06 C
1388 04-02-2019 19:35:00 1.5 C 90 % 0.04 C
1389 04-02-2019 19:40:00 1.6 C 90 % 0.14 C
1390 04-02-2019 19:45:00 1.7 C 89 % 0.09 C
1391 04-02-2019 19:50:00 1.7 C 90 % 0.24 C
1392 04-02-2019 19:55:00 1.8 C 90 % 0.34 C
1393 04-02-2019 20:00:00 1.8 C 89 % 0.19 C
1394 04-02-2019 20:05:00 1.9 C 89 % 0.28 C
1395 04-02-2019 20:10:00 1.9 C 89 % 0.28 C
1396 04-02-2019 20:15:00 1.9 C 89 % 0.28 C
1397 04-02-2019 20:20:00 1.9 C 88 % 0.13 C
1398 04-02-2019 20:25:00 2 C 88 % 0.23 C
1399 04-02-2019 20:30:00 2 C 88 % 0.23 C
1400 04-02-2019 20:35:00 2 C 88 % 0.23 C
Sensor: Nr:Datum:Temp:Feuchte:Taupunkt:
Aussen-T/F 1401 04-02-2019 20:40:00 2 C 88 % 0.23 C
1402 04-02-2019 20:45:00 2.2 C 86 % 0.11 C
1403 04-02-2019 20:50:00 2.2 C 85 % -0.05 C
1404 04-02-2019 20:55:00 2.3 C 84 % -0.12 C
1405 04-02-2019 21:00:00 2.3 C 83 % -0.28 C
1406 04-02-2019 21:05:00 2.4 C 83 % -0.18 C
1407 04-02-2019 21:10:00 2.5 C 83 % -0.09 C
1408 04-02-2019 21:15:00 2.6 C 83 % 0.01 C
1409 04-02-2019 21:20:00 2.7 C 82 % -0.06 C
1410 04-02-2019 21:25:00 2.7 C 83 % 0.11 C
1411 04-02-2019 21:30:00 2.7 C 83 % 0.11 C
1412 04-02-2019 21:35:00 2.7 C 83 % 0.11 C
1413 04-02-2019 21:40:00 2.7 C 83 % 0.11 C
1414 04-02-2019 21:45:00 2.7 C 82 % -0.06 C
1415 04-02-2019 21:50:00 2.7 C 82 % -0.06 C
1416 04-02-2019 21:55:00 2.8 C 81 % -0.13 C
1417 04-02-2019 22:00:00 2.8 C 82 % 0.04 C
1418 04-02-2019 22:05:00 2.9 C 83 % 0.31 C
1419 04-02-2019 22:10:00 2.9 C 82 % 0.14 C
1420 04-02-2019 22:15:00 2.9 C 83 % 0.31 C
1421 04-02-2019 22:20:00 2.9 C 82 % 0.14 C
1422 04-02-2019 22:25:00 2.9 C 83 % 0.31 C
1423 04-02-2019 22:30:00 2.8 C 83 % 0.21 C
1424 04-02-2019 22:35:00 2.8 C 82 % 0.04 C
1425 04-02-2019 22:40:00 2.8 C 83 % 0.21 C
Sensor: Nr:Datum:Temp:Feuchte:Taupunkt:
Aussen-T/F 1426 04-02-2019 22:45:00 2.8 C 83 % 0.21 C
1427 04-02-2019 22:50:00 2.9 C 84 % 0.47 C
1428 04-02-2019 22:55:00 2.8 C 85 % 0.54 C
1429 04-02-2019 23:00:00 2.8 C 85 % 0.54 C
1430 04-02-2019 23:05:00 2.8 C 85 % 0.54 C
1431 04-02-2019 23:10:00 2.7 C 86 % 0.6 C
1432 04-02-2019 23:15:00 2.7 C 85 % 0.44 C
1433 04-02-2019 23:20:00 2.7 C 85 % 0.44 C
1434 04-02-2019 23:25:00 2.7 C 86 % 0.6 C
1435 04-02-2019 23:30:00 2.7 C 86 % 0.6 C
1436 04-02-2019 23:35:00 2.7 C 85 % 0.44 C
1437 04-02-2019 23:40:00 2.7 C 85 % 0.44 C
1438 04-02-2019 23:45:00 2.7 C 85 % 0.44 C
1439 04-02-2019 23:50:00 2.7 C 83 % 0.11 C
1440 04-02-2019 23:55:00 2.7 C 83 % 0.11 C
1441 05-02-2019 00:00:00 2.8 C 83 % 0.21 C
1442 05-02-2019 00:05:00 2.8 C 83 % 0.21 C
1443 05-02-2019 00:10:00 2.9 C 83 % 0.31 C
1444 05-02-2019 00:15:00 2.9 C 83 % 0.31 C
1445 05-02-2019 00:20:00 2.9 C 83 % 0.31 C
1446 05-02-2019 00:25:00 3 C 83 % 0.4 C
1447 05-02-2019 00:30:00 3 C 83 % 0.4 C
1448 05-02-2019 00:35:00 3 C 84 % 0.57 C
1449 05-02-2019 00:40:00 3.1 C 82 % 0.33 C
1450 05-02-2019 00:45:00 3.1 C 82 % 0.33 C
Sensor: Nr:Datum:Temp:Feuchte:Taupunkt:
Aussen-T/F 1451 05-02-2019 00:50:00 3.2 C 82 % 0.43 C
1452 05-02-2019 00:55:00 3.2 C 81 % 0.26 C
1453 05-02-2019 01:00:00 3.2 C 83 % 0.6 C
1454 05-02-2019 01:05:00 3.2 C 81 % 0.26 C
1455 05-02-2019 01:10:00 3.3 C 81 % 0.36 C
1456 05-02-2019 01:15:00 3.3 C 80 % 0.19 C
1457 05-02-2019 01:20:00 3.3 C 81 % 0.36 C
1458 05-02-2019 01:25:00 3.3 C 80 % 0.19 C
1459 05-02-2019 01:30:00 3.4 C 81 % 0.46 C
1460 05-02-2019 01:35:00 3.3 C 79 % 0.02 C
1461 05-02-2019 01:40:00 3.4 C 80 % 0.29 C
1462 05-02-2019 01:45:00 3.4 C 81 % 0.46 C
1463 05-02-2019 01:50:00 3.4 C 82 % 0.63 C
1464 05-02-2019 01:55:00 3.3 C 81 % 0.36 C
1465 05-02-2019 02:00:00 3.3 C 82 % 0.53 C
1466 05-02-2019 02:05:00 3.3 C 80 % 0.19 C
1467 05-02-2019 02:10:00 3.3 C 80 % 0.19 C
1468 05-02-2019 02:15:00 3.3 C 81 % 0.36 C
1469 05-02-2019 02:20:00 3.3 C 80 % 0.19 C
1470 05-02-2019 02:25:00 3.4 C 80 % 0.29 C
1471 05-02-2019 02:30:00 3.4 C 79 % 0.11 C
1472 05-02-2019 02:35:00 3.4 C 78 % -0.06 C
1473 05-02-2019 02:40:00 3.5 C 78 % 0.04 C
1474 05-02-2019 02:45:00 3.6 C 78 % 0.13 C
1475 05-02-2019 02:50:00 3.6 C 78 % 0.13 C
Sensor: Nr:Datum:Temp:Feuchte:Taupunkt:
Aussen-T/F 1476 05-02-2019 02:55:00 3.6 C 77 % -0.05 C
1477 05-02-2019 03:00:00 3.6 C 77 % -0.05 C
1478 05-02-2019 03:05:00 3.6 C 77 % -0.05 C
1479 05-02-2019 03:10:00 3.7 C 77 % 0.05 C
1480 05-02-2019 03:15:00 3.7 C 77 % 0.05 C
1481 05-02-2019 03:20:00 3.6 C 76 % -0.22 C
1482 05-02-2019 03:25:00 3.6 C 77 % -0.05 C
1483 05-02-2019 03:30:00 3.6 C 78 % 0.13 C
1484 05-02-2019 03:35:00 3.6 C 78 % 0.13 C
1485 05-02-2019 03:40:00 3.6 C 80 % 0.48 C
1486 05-02-2019 03:45:00 3.6 C 79 % 0.31 C
1487 05-02-2019 03:50:00 3.5 C 80 % 0.38 C
1488 05-02-2019 03:55:00 3.5 C 78 % 0.04 C
1489 05-02-2019 04:00:00 3.5 C 81 % 0.55 C
1490 05-02-2019 04:05:00 3.5 C 80 % 0.38 C
1491 05-02-2019 04:10:00 3.4 C 79 % 0.11 C
1492 05-02-2019 04:15:00 3.4 C 79 % 0.11 C
1493 05-02-2019 04:20:00 3.4 C 80 % 0.29 C
1494 05-02-2019 04:25:00 3.4 C 80 % 0.29 C
1495 05-02-2019 04:30:00 3.4 C 79 % 0.11 C
1496 05-02-2019 04:35:00 3.4 C 78 % -0.06 C
1497 05-02-2019 04:40:00 3.4 C 78 % -0.06 C
1498 05-02-2019 04:45:00 3.4 C 78 % -0.06 C
1499 05-02-2019 04:50:00 3.5 C 77 % -0.14 C
1500 05-02-2019 04:55:00 3.6 C 78 % 0.13 C
Sensor: Nr:Datum:Temp:Feuchte:Taupunkt:
Aussen-T/F 1501 05-02-2019 05:00:00 3.6 C 77 % -0.05 C
1502 05-02-2019 05:05:00 3.6 C 77 % -0.05 C
1503 05-02-2019 05:10:00 3.6 C 77 % -0.05 C
1504 05-02-2019 05:15:00 3.6 C 77 % -0.05 C
1505 05-02-2019 05:20:00 3.6 C 76 % -0.22 C
1506 05-02-2019 05:25:00 3.7 C 77 % 0.05 C
1507 05-02-2019 05:30:00 3.6 C 77 % -0.05 C
1508 05-02-2019 05:35:00 3.7 C 76 % -0.13 C
1509 05-02-2019 05:40:00 3.7 C 76 % -0.13 C
1510 05-02-2019 05:45:00 3.7 C 76 % -0.13 C
1511 05-02-2019 05:50:00 3.7 C 75 % -0.31 C
1512 05-02-2019 05:55:00 3.7 C 78 % 0.23 C
1513 05-02-2019 06:00:00 3.7 C 78 % 0.23 C
1514 05-02-2019 06:05:00 3.7 C 80 % 0.58 C
1515 05-02-2019 06:10:00 3.6 C 80 % 0.48 C
1516 05-02-2019 06:15:00 3.6 C 80 % 0.48 C
1517 05-02-2019 06:20:00 3.4 C 80 % 0.29 C
1518 05-02-2019 06:25:00 3.4 C 81 % 0.46 C
1519 05-02-2019 06:30:00 3.3 C 82 % 0.53 C
1520 05-02-2019 06:35:00 3.3 C 83 % 0.7 C
1521 05-02-2019 06:40:00 3.2 C 83 % 0.6 C
1522 05-02-2019 06:45:00 3.2 C 83 % 0.6 C
1523 05-02-2019 06:50:00 3.2 C 84 % 0.76 C
1524 05-02-2019 06:55:00 3.1 C 84 % 0.67 C
1525 05-02-2019 07:00:00 3.1 C 84 % 0.67 C
Sensor: Nr:Datum:Temp:Feuchte:Taupunkt:
Aussen-T/F 1526 05-02-2019 07:05:00 3.1 C 84 % 0.67 C
1527 05-02-2019 07:10:00 3 C 84 % 0.57 C
1528 05-02-2019 07:15:00 3 C 85 % 0.73 C
1529 05-02-2019 07:20:00 3 C 85 % 0.73 C
1530 05-02-2019 07:25:00 3 C 84 % 0.57 C
1531 05-02-2019 07:30:00 3 C 85 % 0.73 C
1532 05-02-2019 07:35:00 3 C 85 % 0.73 C
1533 05-02-2019 07:40:00 2.9 C 85 % 0.63 C
1534 05-02-2019 07:45:00 2.9 C 86 % 0.8 C
1535 05-02-2019 07:50:00 2.9 C 86 % 0.8 C
1536 05-02-2019 07:55:00 2.9 C 85 % 0.63 C
1537 05-02-2019 08:00:00 2.9 C 86 % 0.8 C
1538 05-02-2019 08:05:00 2.9 C 86 % 0.8 C
1539 05-02-2019 08:10:00 2.9 C 86 % 0.8 C
1540 05-02-2019 08:15:00 2.9 C 86 % 0.8 C
1541 05-02-2019 08:20:00 2.9 C 85 % 0.63 C
1542 05-02-2019 08:25:00 2.9 C 86 % 0.8 C
1543 05-02-2019 08:30:00 2.9 C 86 % 0.8 C
1544 05-02-2019 08:35:00 3 C 85 % 0.73 C
1545 05-02-2019 08:40:00 3 C 84 % 0.57 C
1546 05-02-2019 08:45:00 3.1 C 83 % 0.5 C
1547 05-02-2019 08:50:00 3.2 C 84 % 0.76 C
1548 05-02-2019 08:55:00 3.2 C 83 % 0.6 C
1549 05-02-2019 09:00:00 3.3 C 83 % 0.7 C
1550 05-02-2019 09:05:00 3.3 C 82 % 0.53 C
Sensor: Nr:Datum:Temp:Feuchte:Taupunkt:
Aussen-T/F 1551 05-02-2019 09:10:00 3.4 C 82 % 0.63 C
1552 05-02-2019 09:15:00 3.5 C 81 % 0.55 C
1553 05-02-2019 09:20:00 3.6 C 80 % 0.48 C
1554 05-02-2019 09:25:00 3.6 C 80 % 0.48 C
1555 05-02-2019 09:30:00 3.6 C 80 % 0.48 C
1556 05-02-2019 09:35:00 3.7 C 80 % 0.58 C
1557 05-02-2019 09:40:00 3.7 C 80 % 0.58 C
1558 05-02-2019 09:45:00 3.7 C 79 % 0.4 C
1559 05-02-2019 09:50:00 3.8 C 79 % 0.5 C
1560 05-02-2019 09:55:00 3.8 C 79 % 0.5 C
1561 05-02-2019 10:00:00 3.8 C 79 % 0.5 C
1562 05-02-2019 10:05:00 3.9 C 79 % 0.6 C
1563 05-02-2019 10:10:00 3.9 C 79 % 0.6 C
1564 05-02-2019 10:15:00 4 C 79 % 0.7 C
1565 05-02-2019 10:20:00 4.1 C 78 % 0.62 C
1566 05-02-2019 10:25:00 4.2 C 78 % 0.71 C
1567 05-02-2019 10:30:00 4.2 C 78 % 0.71 C
1568 05-02-2019 10:35:00 4.3 C 77 % 0.63 C
1569 05-02-2019 10:40:00 4.3 C 78 % 0.81 C
1570 05-02-2019 10:45:00 4.4 C 78 % 0.91 C
1571 05-02-2019 10:50:00 4.4 C 77 % 0.73 C
1572 05-02-2019 10:55:00 4.6 C 77 % 0.92 C
1573 05-02-2019 11:00:00 4.7 C 78 % 1.2 C
1574 05-02-2019 11:05:00 4.7 C 77 % 1.02 C
1575 05-02-2019 11:10:00 4.8 C 76 % 0.94 C
Sensor: Nr:Datum:Temp:Feuchte:Taupunkt:
Aussen-T/F 1576 05-02-2019 11:15:00 4.8 C 76 % 0.94 C
1577 05-02-2019 11:20:00 4.9 C 76 % 1.03 C
1578 05-02-2019 11:25:00 5 C 76 % 1.13 C
1579 05-02-2019 11:30:00 5.1 C 75 % 1.04 C
1580 05-02-2019 11:35:00 5.1 C 75 % 1.04 C
1581 05-02-2019 11:40:00 5.2 C 75 % 1.14 C
1582 05-02-2019 11:45:00 5.2 C 75 % 1.14 C
1583 05-02-2019 11:50:00 5.3 C 75 % 1.24 C
1584 05-02-2019 11:55:00 5.3 C 75 % 1.24 C
1585 05-02-2019 12:00:00 5.4 C 76 % 1.52 C
1586 05-02-2019 12:05:00 5.6 C 76 % 1.71 C
1587 05-02-2019 12:10:00 5.6 C 75 % 1.53 C
1588 05-02-2019 12:15:00 5.8 C 75 % 1.72 C
1589 05-02-2019 12:20:00 5.8 C 75 % 1.72 C
1590 05-02-2019 12:25:00 5.9 C 74 % 1.63 C
1591 05-02-2019 12:30:00 6 C 75 % 1.91 C
1592 05-02-2019 12:35:00 6 C 74 % 1.73 C
1593 05-02-2019 12:40:00 6 C 74 % 1.73 C
1594 05-02-2019 12:45:00 6.1 C 74 % 1.82 C
1595 05-02-2019 12:50:00 6 C 74 % 1.73 C
1596 05-02-2019 12:55:00 6.1 C 74 % 1.82 C
1597 05-02-2019 13:00:00 6.1 C 74 % 1.82 C
1598 05-02-2019 13:05:00 6.1 C 74 % 1.82 C
1599 05-02-2019 13:10:00 6.2 C 73 % 1.73 C
1600 05-02-2019 13:15:00 6.2 C 74 % 1.92 C
Sensor: Nr:Datum:Temp:Feuchte:Taupunkt:
Aussen-T/F 1601 05-02-2019 13:20:00 6.3 C 74 % 2.02 C
1602 05-02-2019 13:25:00 6.3 C 74 % 2.02 C
1603 05-02-2019 13:30:00 6.4 C 73 % 1.92 C
1604 05-02-2019 13:35:00 6.4 C 73 % 1.92 C
1605 05-02-2019 13:40:00 6.4 C 73 % 1.92 C
1606 05-02-2019 13:45:00 6.4 C 73 % 1.92 C
1607 05-02-2019 13:50:00 6.4 C 73 % 1.92 C
1608 05-02-2019 13:55:00 6.5 C 73 % 2.02 C
1609 05-02-2019 14:00:00 6.5 C 72 % 1.83 C
1610 05-02-2019 14:05:00 6.6 C 73 % 2.12 C
1611 05-02-2019 14:10:00 6.6 C 73 % 2.12 C
1612 05-02-2019 14:15:00 6.7 C 73 % 2.21 C
1613 05-02-2019 14:20:00 6.7 C 73 % 2.21 C
1614 05-02-2019 14:25:00 6.7 C 73 % 2.21 C
1615 05-02-2019 14:30:00 6.7 C 73 % 2.21 C
1616 05-02-2019 14:35:00 6.8 C 73 % 2.31 C
1617 05-02-2019 14:40:00 6.8 C 73 % 2.31 C
1618 05-02-2019 14:45:00 6.9 C 73 % 2.4 C
1619 05-02-2019 14:50:00 6.9 C 73 % 2.4 C
1620 05-02-2019 14:55:00 6.9 C 72 % 2.21 C
1621 05-02-2019 15:00:00 7 C 74 % 2.69 C
1622 05-02-2019 15:05:00 7 C 73 % 2.5 C
1623 05-02-2019 15:10:00 7.1 C 73 % 2.6 C
1624 05-02-2019 15:15:00 7.1 C 73 % 2.6 C
1625 05-02-2019 15:20:00 7 C 74 % 2.69 C
Sensor: Nr:Datum:Temp:Feuchte:Taupunkt:
Aussen-T/F 1626 05-02-2019 15:25:00 7.1 C 74 % 2.79 C
1627 05-02-2019 15:30:00 7.1 C 73 % 2.6 C
1628 05-02-2019 15:35:00 7 C 73 % 2.5 C
1629 05-02-2019 15:40:00 7 C 73 % 2.5 C
1630 05-02-2019 15:45:00 7 C 74 % 2.69 C
1631 05-02-2019 15:50:00 7 C 75 % 2.88 C
1632 05-02-2019 15:55:00 7 C 74 % 2.69 C
1633 05-02-2019 16:00:00 7 C 74 % 2.69 C
1634 05-02-2019 16:05:00 6.9 C 74 % 2.6 C
1635 05-02-2019 16:10:00 6.9 C 74 % 2.6 C
1636 05-02-2019 16:15:00 6.9 C 75 % 2.78 C
1637 05-02-2019 16:20:00 6.9 C 75 % 2.78 C
1638 05-02-2019 16:25:00 6.8 C 76 % 2.87 C
1639 05-02-2019 16:30:00 6.8 C 76 % 2.87 C
1640 05-02-2019 16:35:00 6.8 C 77 % 3.06 C
1641 05-02-2019 16:40:00 6.8 C 78 % 3.24 C
1642 05-02-2019 16:45:00 6.8 C 79 % 3.42 C
1643 05-02-2019 16:50:00 6.7 C 80 % 3.5 C
1644 05-02-2019 16:55:00 6.7 C 80 % 3.5 C
1645 05-02-2019 17:00:00 6.6 C 81 % 3.58 C
1646 05-02-2019 17:05:00 6.6 C 81 % 3.58 C
1647 05-02-2019 17:10:00 6.6 C 81 % 3.58 C
1648 05-02-2019 17:15:00 6.4 C 82 % 3.56 C
1649 05-02-2019 17:20:00 6.3 C 82 % 3.46 C
1650 05-02-2019 17:25:00 6.3 C 83 % 3.63 C
Sensor: Nr:Datum:Temp:Feuchte:Taupunkt:
Aussen-T/F 1651 05-02-2019 17:30:00 6.1 C 83 % 3.44 C
1652 05-02-2019 17:35:00 6 C 84 % 3.51 C
1653 05-02-2019 17:40:00 5.9 C 84 % 3.41 C
1654 05-02-2019 17:45:00 5.8 C 84 % 3.31 C
1655 05-02-2019 17:50:00 5.7 C 85 % 3.38 C
1656 05-02-2019 17:55:00 5.6 C 85 % 3.28 C
1657 05-02-2019 18:00:00 5.5 C 85 % 3.18 C
1658 05-02-2019 18:05:00 5.4 C 86 % 3.25 C
1659 05-02-2019 18:10:00 5.3 C 86 % 3.15 C
1660 05-02-2019 18:15:00 5.3 C 86 % 3.15 C
1661 05-02-2019 18:20:00 5.2 C 86 % 3.05 C
1662 05-02-2019 18:25:00 5.2 C 86 % 3.05 C
1663 05-02-2019 18:30:00 5.1 C 86 % 2.96 C
1664 05-02-2019 18:35:00 5.1 C 86 % 2.96 C
1665 05-02-2019 18:40:00 5 C 87 % 3.02 C
1666 05-02-2019 18:45:00 5 C 87 % 3.02 C
1667 05-02-2019 18:50:00 4.9 C 87 % 2.92 C
1668 05-02-2019 18:55:00 4.9 C 87 % 2.92 C
1669 05-02-2019 19:00:00 4.8 C 87 % 2.82 C
1670 05-02-2019 19:05:00 4.8 C 87 % 2.82 C
1671 05-02-2019 19:10:00 4.8 C 87 % 2.82 C
1672 05-02-2019 19:15:00 4.8 C 87 % 2.82 C
1673 05-02-2019 19:20:00 4.8 C 87 % 2.82 C
1674 05-02-2019 19:25:00 4.8 C 88 % 2.99 C
1675 05-02-2019 19:30:00 4.7 C 88 % 2.89 C
Sensor: Nr:Datum:Temp:Feuchte:Taupunkt:
Aussen-T/F 1676 05-02-2019 19:35:00 4.7 C 87 % 2.73 C
1677 05-02-2019 19:40:00 4.7 C 88 % 2.89 C
1678 05-02-2019 19:45:00 4.7 C 88 % 2.89 C
1679 05-02-2019 19:50:00 4.7 C 88 % 2.89 C
1680 05-02-2019 19:55:00 4.7 C 88 % 2.89 C
1681 05-02-2019 20:00:00 4.7 C 88 % 2.89 C
1682 05-02-2019 20:05:00 4.6 C 88 % 2.79 C
1683 05-02-2019 20:10:00 4.6 C 88 % 2.79 C
1684 05-02-2019 20:15:00 4.5 C 88 % 2.69 C
1685 05-02-2019 20:20:00 4.4 C 88 % 2.59 C
1686 05-02-2019 20:25:00 4.4 C 88 % 2.59 C
1687 05-02-2019 20:30:00 4.3 C 88 % 2.49 C
1688 05-02-2019 20:35:00 4.2 C 88 % 2.39 C
1689 05-02-2019 20:40:00 4.2 C 88 % 2.39 C
1690 05-02-2019 20:45:00 4.1 C 89 % 2.45 C
1691 05-02-2019 20:50:00 4.1 C 89 % 2.45 C
1692 05-02-2019 20:55:00 4.1 C 89 % 2.45 C
1693 05-02-2019 21:00:00 4.1 C 89 % 2.45 C
1694 05-02-2019 21:05:00 4.1 C 89 % 2.45 C
1695 05-02-2019 21:10:00 4.2 C 90 % 2.71 C
1696 05-02-2019 21:15:00 4.2 C 90 % 2.71 C
1697 05-02-2019 21:20:00 4.2 C 90 % 2.71 C
1698 05-02-2019 21:25:00 4.2 C 90 % 2.71 C
1699 05-02-2019 21:30:00 4.2 C 90 % 2.71 C
1700 05-02-2019 21:35:00 4.2 C 90 % 2.71 C
Sensor: Nr:Datum:Temp:Feuchte:Taupunkt:
Aussen-T/F 1701 05-02-2019 21:40:00 4.2 C 89 % 2.55 C
1702 05-02-2019 21:45:00 4.1 C 89 % 2.45 C
1703 05-02-2019 21:50:00 3.9 C 88 % 2.1 C
1704 05-02-2019 21:55:00 3.7 C 88 % 1.9 C
1705 05-02-2019 22:00:00 3.4 C 88 % 1.61 C
1706 05-02-2019 22:05:00 3.3 C 89 % 1.67 C
1707 05-02-2019 22:10:00 3.1 C 89 % 1.47 C
1708 05-02-2019 22:15:00 2.9 C 89 % 1.27 C
1709 05-02-2019 22:20:00 2.8 C 89 % 1.17 C
1710 05-02-2019 22:25:00 2.7 C 89 % 1.07 C
1711 05-02-2019 22:30:00 2.6 C 90 % 1.13 C
1712 05-02-2019 22:35:00 2.4 C 90 % 0.93 C
1713 05-02-2019 22:40:00 2.4 C 90 % 0.93 C
1714 05-02-2019 22:45:00 2.3 C 91 % 0.99 C
1715 05-02-2019 22:50:00 2.2 C 91 % 0.89 C
1716 05-02-2019 22:55:00 2.2 C 91 % 0.89 C
1717 05-02-2019 23:00:00 2.1 C 91 % 0.79 C
1718 05-02-2019 23:05:00 2.1 C 91 % 0.79 C
1719 05-02-2019 23:10:00 2 C 92 % 0.84 C
1720 05-02-2019 23:15:00 1.9 C 91 % 0.59 C
1721 05-02-2019 23:20:00 1.9 C 92 % 0.74 C
1722 05-02-2019 23:25:00 1.8 C 92 % 0.64 C
1723 05-02-2019 23:30:00 1.8 C 92 % 0.64 C
1724 05-02-2019 23:35:00 1.7 C 92 % 0.54 C
1725 05-02-2019 23:40:00 1.6 C 92 % 0.44 C
Sensor: Nr:Datum:Temp:Feuchte:Taupunkt:
Aussen-T/F 1726 05-02-2019 23:45:00 1.4 C 92 % 0.25 C
1727 05-02-2019 23:50:00 1.3 C 91 % 0 C
1728 05-02-2019 23:55:00 1.1 C 92 % -0.05 C
1729 06-02-2019 00:00:00 1 C 92 % -0.15 C
1730 06-02-2019 00:05:00 0.8 C 92 % -0.35 C
1731 06-02-2019 00:10:00 0.7 C 92 % -0.45 C
1732 06-02-2019 00:15:00 0.6 C 92 % -0.55 C
1733 06-02-2019 00:20:00 0.5 C 92 % -0.65 C
1734 06-02-2019 00:25:00 0.4 C 93 % -0.6 C
1735 06-02-2019 00:30:00 0.3 C 93 % -0.7 C
1736 06-02-2019 00:35:00 0.3 C 93 % -0.7 C
1737 06-02-2019 00:40:00 0.2 C 93 % -0.79 C
1738 06-02-2019 00:45:00 0.2 C 93 % -0.79 C
1739 06-02-2019 00:50:00 0.1 C 93 % -0.89 C
1740 06-02-2019 00:55:00 0.1 C 93 % -0.89 C
1741 06-02-2019 01:00:00 0 C 94 % -0.85 C
1742 06-02-2019 01:05:00 0 C 94 % -0.85 C
1743 06-02-2019 01:10:00 -0.1 C 94 % -0.95 C
1744 06-02-2019 01:15:00 -0.1 C 94 % -0.95 C
1745 06-02-2019 01:20:00 -0.2 C 94 % -1.05 C
1746 06-02-2019 01:25:00 -0.3 C 94 % -1.15 C
1747 06-02-2019 01:30:00 -0.3 C 94 % -1.15 C
1748 06-02-2019 01:35:00 -0.3 C 94 % -1.15 C
1749 06-02-2019 01:40:00 -0.3 C 94 % -1.15 C
1750 06-02-2019 01:45:00 -0.3 C 94 % -1.15 C
Sensor: Nr:Datum:Temp:Feuchte:Taupunkt:
Aussen-T/F 1751 06-02-2019 01:50:00 -0.4 C 94 % -1.25 C
1752 06-02-2019 01:55:00 -0.4 C 94 % -1.25 C
1753 06-02-2019 02:00:00 -0.5 C 94 % -1.34 C
1754 06-02-2019 02:05:00 -0.6 C 94 % -1.44 C
1755 06-02-2019 02:10:00 -0.6 C 94 % -1.44 C
1756 06-02-2019 02:15:00 -0.6 C 94 % -1.44 C
1757 06-02-2019 02:20:00 -0.6 C 95 % -1.3 C
1758 06-02-2019 02:25:00 -0.6 C 95 % -1.3 C
1759 06-02-2019 02:30:00 -0.7 C 95 % -1.4 C
1760 06-02-2019 02:35:00 -0.7 C 95 % -1.4 C
1761 06-02-2019 02:40:00 -0.7 C 94 % -1.54 C
1762 06-02-2019 02:45:00 -0.8 C 94 % -1.64 C
1763 06-02-2019 02:50:00 -0.8 C 94 % -1.64 C
1764 06-02-2019 02:55:00 -0.9 C 95 % -1.6 C
1765 06-02-2019 03:00:00 -0.9 C 95 % -1.6 C
1766 06-02-2019 03:05:00 -1 C 95 % -1.7 C
1767 06-02-2019 03:10:00 -1.1 C 95 % -1.8 C
1768 06-02-2019 03:15:00 -1.1 C 94 % -1.94 C
1769 06-02-2019 03:20:00 -1.2 C 94 % -2.04 C
1770 06-02-2019 03:25:00 -1.2 C 95 % -1.9 C
1771 06-02-2019 03:30:00 -1.2 C 95 % -1.9 C
1772 06-02-2019 03:35:00 -1.3 C 95 % -2 C
1773 06-02-2019 03:40:00 -1.2 C 95 % -1.9 C
1774 06-02-2019 03:45:00 -1.2 C 95 % -1.9 C
1775 06-02-2019 03:50:00 -1.3 C 95 % -2 C
Sensor: Nr:Datum:Temp:Feuchte:Taupunkt:
Aussen-T/F 1776 06-02-2019 03:55:00 -1.3 C 95 % -2 C
1777 06-02-2019 04:00:00 -1.3 C 95 % -2 C
1778 06-02-2019 04:05:00 -1.4 C 95 % -2.1 C
1779 06-02-2019 04:10:00 -1.4 C 95 % -2.1 C
1780 06-02-2019 04:15:00 -1.4 C 95 % -2.1 C
1781 06-02-2019 04:20:00 -1.3 C 95 % -2 C
1782 06-02-2019 04:25:00 -1.3 C 95 % -2 C
1783 06-02-2019 04:30:00 -1.4 C 95 % -2.1 C
1784 06-02-2019 04:35:00 -1.4 C 95 % -2.1 C
1785 06-02-2019 04:40:00 -1.5 C 95 % -2.19 C
1786 06-02-2019 04:45:00 -1.5 C 95 % -2.19 C
1787 06-02-2019 04:50:00 -1.6 C 95 % -2.29 C
1788 06-02-2019 04:55:00 -1.6 C 95 % -2.29 C
1789 06-02-2019 05:00:00 -1.6 C 95 % -2.29 C
1790 06-02-2019 05:05:00 -1.6 C 95 % -2.29 C
1791 06-02-2019 05:10:00 -1.4 C 95 % -2.1 C
1792 06-02-2019 05:15:00 -1.4 C 95 % -2.1 C
1793 06-02-2019 05:20:00 -1.4 C 95 % -2.1 C
1794 06-02-2019 05:25:00 -1.6 C 95 % -2.29 C
1795 06-02-2019 05:30:00 -1.6 C 95 % -2.29 C
1796 06-02-2019 05:35:00 -1.7 C 95 % -2.39 C
1797 06-02-2019 05:40:00 -1.7 C 95 % -2.39 C
1798 06-02-2019 05:45:00 -1.7 C 95 % -2.39 C
1799 06-02-2019 05:50:00 -1.7 C 95 % -2.39 C
1800 06-02-2019 05:55:00 -1.7 C 95 % -2.39 C
Sensor: Nr:Datum:Temp:Feuchte:Taupunkt:
Aussen-T/F 1801 06-02-2019 06:00:00 -1.7 C 95 % -2.39 C
1802 06-02-2019 06:05:00 -1.7 C 95 % -2.39 C
1803 06-02-2019 06:10:00 -1.7 C 95 % -2.39 C
1804 06-02-2019 06:15:00 -1.7 C 95 % -2.39 C
1805 06-02-2019 06:20:00 -1.8 C 95 % -2.49 C
1806 06-02-2019 06:25:00 -1.8 C 95 % -2.49 C
1807 06-02-2019 06:30:00 -1.8 C 95 % -2.49 C
1808 06-02-2019 06:35:00 -1.8 C 95 % -2.49 C
1809 06-02-2019 06:40:00 -1.8 C 95 % -2.49 C
1810 06-02-2019 06:45:00 -1.8 C 95 % -2.49 C
1811 06-02-2019 06:50:00 -1.8 C 95 % -2.49 C
1812 06-02-2019 06:55:00 -1.8 C 95 % -2.49 C
1813 06-02-2019 07:00:00 -1.8 C 95 % -2.49 C
1814 06-02-2019 07:05:00 -1.9 C 95 % -2.59 C
1815 06-02-2019 07:10:00 -1.9 C 95 % -2.59 C
1816 06-02-2019 07:15:00 -1.9 C 95 % -2.59 C
1817 06-02-2019 07:20:00 -2 C 95 % -2.69 C
1818 06-02-2019 07:25:00 -2.1 C 95 % -2.79 C
1819 06-02-2019 07:30:00 -2.1 C 95 % -2.79 C
1820 06-02-2019 07:35:00 -1.9 C 95 % -2.59 C
1821 06-02-2019 07:40:00 -1.9 C 95 % -2.59 C
1822 06-02-2019 07:45:00 -2 C 95 % -2.69 C
1823 06-02-2019 07:50:00 -2.1 C 95 % -2.79 C
1824 06-02-2019 07:55:00 -2.1 C 95 % -2.79 C
1825 06-02-2019 08:00:00 -2.2 C 95 % -2.89 C
Sensor: Nr:Datum:Temp:Feuchte:Taupunkt:
Aussen-T/F 1826 06-02-2019 08:05:00 -2.2 C 95 % -2.89 C
1827 06-02-2019 08:10:00 -2.3 C 95 % -2.99 C
1828 06-02-2019 08:15:00 -2.3 C 95 % -2.99 C
1829 06-02-2019 08:20:00 -2.3 C 95 % -2.99 C
1830 06-02-2019 08:25:00 -2.2 C 96 % -2.75 C
1831 06-02-2019 08:30:00 -2.2 C 96 % -2.75 C
1832 06-02-2019 08:35:00 -2.2 C 96 % -2.75 C
1833 06-02-2019 08:40:00 -2.2 C 96 % -2.75 C
1834 06-02-2019 08:45:00 -2.2 C 96 % -2.75 C
1835 06-02-2019 08:50:00 -2.2 C 96 % -2.75 C
1836 06-02-2019 08:55:00 -2.1 C 96 % -2.65 C
1837 06-02-2019 09:00:00 -2 C 96 % -2.55 C
1838 06-02-2019 09:05:00 -1.9 C 96 % -2.45 C
1839 06-02-2019 09:10:00 -1.8 C 96 % -2.35 C
1840 06-02-2019 09:15:00 -1.7 C 96 % -2.25 C
1841 06-02-2019 09:20:00 -1.6 C 96 % -2.15 C
1842 06-02-2019 09:25:00 -1.4 C 96 % -1.95 C
1843 06-02-2019 09:30:00 -1.3 C 96 % -1.85 C
1844 06-02-2019 09:35:00 -1.2 C 96 % -1.75 C
1845 06-02-2019 09:40:00 -1.1 C 96 % -1.66 C
1846 06-02-2019 09:45:00 -0.9 C 96 % -1.46 C
1847 06-02-2019 09:50:00 -0.8 C 96 % -1.36 C
1848 06-02-2019 09:55:00 -0.7 C 96 % -1.26 C
1849 06-02-2019 10:00:00 -0.6 C 96 % -1.16 C
1850 06-02-2019 10:05:00 -0.4 C 96 % -0.96 C
Sensor: Nr:Datum:Temp:Feuchte:Taupunkt:
Aussen-T/F 1851 06-02-2019 10:10:00 -0.4 C 97 % -0.82 C
1852 06-02-2019 10:15:00 -0.3 C 96 % -0.86 C
1853 06-02-2019 10:20:00 -0.1 C 96 % -0.66 C
1854 06-02-2019 10:25:00 0.1 C 97 % -0.32 C
1855 06-02-2019 10:30:00 0.2 C 96 % -0.36 C
1856 06-02-2019 10:35:00 0.3 C 96 % -0.26 C
1857 06-02-2019 10:40:00 0.4 C 96 % -0.16 C
1858 06-02-2019 10:45:00 0.6 C 96 % 0.04 C
1859 06-02-2019 10:50:00 0.7 C 96 % 0.14 C
1860 06-02-2019 10:55:00 0.8 C 96 % 0.24 C
1861 06-02-2019 11:00:00 0.9 C 96 % 0.34 C
1862 06-02-2019 11:05:00 1.1 C 96 % 0.54 C
1863 06-02-2019 11:10:00 1.3 C 96 % 0.73 C
1864 06-02-2019 11:15:00 1.4 C 95 % 0.69 C
1865 06-02-2019 11:20:00 1.5 C 95 % 0.79 C
1866 06-02-2019 11:25:00 1.6 C 95 % 0.89 C
1867 06-02-2019 11:30:00 1.8 C 94 % 0.94 C
1868 06-02-2019 11:35:00 1.9 C 94 % 1.04 C
1869 06-02-2019 11:40:00 2 C 94 % 1.14 C
1870 06-02-2019 11:45:00 2.1 C 93 % 1.09 C
1871 06-02-2019 11:50:00 2.2 C 93 % 1.19 C
1872 06-02-2019 11:55:00 2.3 C 92 % 1.14 C
1873 06-02-2019 12:00:00 2.4 C 92 % 1.24 C
1874 06-02-2019 12:05:00 2.5 C 91 % 1.18 C
1875 06-02-2019 12:10:00 2.6 C 91 % 1.28 C
Sensor: Nr:Datum:Temp:Feuchte:Taupunkt:
Aussen-T/F 1876 06-02-2019 12:15:00 2.7 C 91 % 1.38 C
1877 06-02-2019 12:20:00 2.8 C 92 % 1.63 C
1878 06-02-2019 12:25:00 2.9 C 91 % 1.58 C
1879 06-02-2019 12:30:00 3.1 C 91 % 1.78 C
1880 06-02-2019 12:35:00 3.2 C 91 % 1.88 C
1881 06-02-2019 12:40:00 3.3 C 91 % 1.98 C
1882 06-02-2019 12:45:00 3.4 C 91 % 2.07 C
1883 06-02-2019 12:50:00 3.4 C 91 % 2.07 C
1884 06-02-2019 12:55:00 3.5 C 90 % 2.02 C
1885 06-02-2019 13:00:00 3.6 C 90 % 2.12 C
1886 06-02-2019 13:05:00 3.7 C 90 % 2.22 C
1887 06-02-2019 13:10:00 3.7 C 90 % 2.22 C
1888 06-02-2019 13:15:00 3.8 C 90 % 2.31 C
1889 06-02-2019 13:20:00 3.9 C 89 % 2.26 C
1890 06-02-2019 13:25:00 4.1 C 88 % 2.3 C
1891 06-02-2019 13:30:00 4.2 C 87 % 2.23 C
1892 06-02-2019 13:35:00 4.3 C 87 % 2.33 C
1893 06-02-2019 13:40:00 4.4 C 86 % 2.27 C
1894 06-02-2019 13:45:00 4.6 C 84 % 2.14 C
1895 06-02-2019 13:50:00 4.7 C 84 % 2.23 C
1896 06-02-2019 13:55:00 4.8 C 82 % 1.99 C
1897 06-02-2019 14:00:00 4.8 C 81 % 1.82 C
1898 06-02-2019 14:05:00 4.9 C 78 % 1.39 C
1899 06-02-2019 14:10:00 5.1 C 76 % 1.23 C
1900 06-02-2019 14:15:00 5.3 C 74 % 1.05 C
Sensor: Nr:Datum:Temp:Feuchte:Taupunkt:
Aussen-T/F 1901 06-02-2019 14:20:00 5.6 C 74 % 1.34 C
1902 06-02-2019 14:25:00 5.8 C 67 % 0.16 C
1903 06-02-2019 14:30:00 6 C 68 % 0.55 C
1904 06-02-2019 14:35:00 6.1 C 68 % 0.65 C
1905 06-02-2019 14:40:00 6.1 C 68 % 0.65 C
1906 06-02-2019 14:45:00 6.1 C 67 % 0.44 C
1907 06-02-2019 14:50:00 6.1 C 66 % 0.24 C
1908 06-02-2019 14:55:00 6.2 C 66 % 0.33 C
1909 06-02-2019 15:00:00 6.2 C 67 % 0.54 C
1910 06-02-2019 15:05:00 6.3 C 69 % 1.04 C
1911 06-02-2019 15:10:00 6.2 C 69 % 0.95 C
1912 06-02-2019 15:15:00 6.2 C 70 % 1.15 C
1913 06-02-2019 15:20:00 6.2 C 72 % 1.54 C
1914 06-02-2019 15:25:00 6.1 C 72 % 1.44 C
1915 06-02-2019 15:30:00 5.9 C 72 % 1.25 C
1916 06-02-2019 15:35:00 5.8 C 73 % 1.34 C
1917 06-02-2019 15:40:00 5.8 C 75 % 1.72 C
1918 06-02-2019 15:45:00 5.7 C 75 % 1.62 C
1919 06-02-2019 15:50:00 5.7 C 76 % 1.81 C
1920 06-02-2019 15:55:00 5.6 C 77 % 1.89 C
1921 06-02-2019 16:00:00 5.4 C 77 % 1.7 C
1922 06-02-2019 16:05:00 5.4 C 77 % 1.7 C
1923 06-02-2019 16:10:00 5.3 C 78 % 1.78 C
1924 06-02-2019 16:15:00 5.3 C 78 % 1.78 C
1925 06-02-2019 16:20:00 5.3 C 78 % 1.78 C
Sensor: Nr:Datum:Temp:Feuchte:Taupunkt:
Aussen-T/F 1926 06-02-2019 16:25:00 5.2 C 79 % 1.86 C
1927 06-02-2019 16:30:00 5.2 C 78 % 1.69 C
1928 06-02-2019 16:35:00 5.1 C 78 % 1.59 C
1929 06-02-2019 16:40:00 5 C 78 % 1.49 C
1930 06-02-2019 16:45:00 4.9 C 78 % 1.39 C
1931 06-02-2019 16:50:00 4.8 C 79 % 1.47 C
1932 06-02-2019 16:55:00 4.7 C 79 % 1.38 C
1933 06-02-2019 17:00:00 4.6 C 80 % 1.46 C
1934 06-02-2019 17:05:00 4.4 C 80 % 1.26 C
1935 06-02-2019 17:10:00 4.3 C 81 % 1.34 C
1936 06-02-2019 17:15:00 4.1 C 81 % 1.14 C
1937 06-02-2019 17:20:00 4 C 82 % 1.21 C
1938 06-02-2019 17:25:00 3.8 C 82 % 1.02 C
1939 06-02-2019 17:30:00 3.7 C 83 % 1.09 C
1940 06-02-2019 17:35:00 3.6 C 82 % 0.82 C
1941 06-02-2019 17:40:00 3.4 C 82 % 0.63 C
1942 06-02-2019 17:45:00 3.3 C 83 % 0.7 C
1943 06-02-2019 17:50:00 3.2 C 83 % 0.6 C
1944 06-02-2019 17:55:00 3.1 C 84 % 0.67 C
1945 06-02-2019 18:00:00 3.1 C 84 % 0.67 C
1946 06-02-2019 18:05:00 2.9 C 85 % 0.63 C
1947 06-02-2019 18:10:00 2.8 C 85 % 0.54 C
1948 06-02-2019 18:15:00 2.8 C 86 % 0.7 C
1949 06-02-2019 18:20:00 2.7 C 86 % 0.6 C
1950 06-02-2019 18:25:00 2.7 C 86 % 0.6 C
Sensor: Nr:Datum:Temp:Feuchte:Taupunkt:
Aussen-T/F 1951 06-02-2019 18:30:00 2.6 C 86 % 0.5 C
1952 06-02-2019 18:35:00 2.5 C 86 % 0.4 C
1953 06-02-2019 18:40:00 2.5 C 87 % 0.56 C
1954 06-02-2019 18:45:00 2.4 C 87 % 0.46 C
1955 06-02-2019 18:50:00 2.4 C 87 % 0.46 C
1956 06-02-2019 18:55:00 2.3 C 87 % 0.36 C
1957 06-02-2019 19:00:00 2.3 C 88 % 0.52 C
1958 06-02-2019 19:05:00 2.2 C 88 % 0.42 C
1959 06-02-2019 19:10:00 2.1 C 89 % 0.48 C
1960 06-02-2019 19:15:00 2.1 C 89 % 0.48 C
1961 06-02-2019 19:20:00 2.1 C 89 % 0.48 C
1962 06-02-2019 19:25:00 2.1 C 90 % 0.64 C
1963 06-02-2019 19:30:00 2.1 C 90 % 0.64 C
1964 06-02-2019 19:35:00 2.1 C 90 % 0.64 C
1965 06-02-2019 19:40:00 2.2 C 90 % 0.73 C
1966 06-02-2019 19:45:00 2.2 C 90 % 0.73 C
1967 06-02-2019 19:50:00 2.1 C 89 % 0.48 C
1968 06-02-2019 19:55:00 2.1 C 89 % 0.48 C
1969 06-02-2019 20:00:00 2.1 C 89 % 0.48 C
1970 06-02-2019 20:05:00 2.1 C 89 % 0.48 C
1971 06-02-2019 20:10:00 2 C 89 % 0.38 C
1972 06-02-2019 20:15:00 2 C 89 % 0.38 C
1973 06-02-2019 20:20:00 1.9 C 89 % 0.28 C
1974 06-02-2019 20:25:00 1.9 C 89 % 0.28 C
1975 06-02-2019 20:30:00 1.9 C 90 % 0.44 C
Sensor: Nr:Datum:Temp:Feuchte:Taupunkt:
Aussen-T/F 1976 06-02-2019 20:35:00 1.9 C 90 % 0.44 C
1977 06-02-2019 20:40:00 1.9 C 90 % 0.44 C
1978 06-02-2019 20:45:00 1.8 C 90 % 0.34 C
1979 06-02-2019 20:50:00 1.8 C 90 % 0.34 C
1980 06-02-2019 20:55:00 1.7 C 91 % 0.39 C
1981 06-02-2019 21:00:00 1.7 C 91 % 0.39 C
1982 06-02-2019 21:05:00 1.7 C 91 % 0.39 C
1983 06-02-2019 21:10:00 1.7 C 91 % 0.39 C
1984 06-02-2019 21:15:00 1.7 C 91 % 0.39 C
1985 06-02-2019 21:20:00 1.6 C 91 % 0.29 C
1986 06-02-2019 21:25:00 1.6 C 91 % 0.29 C
1987 06-02-2019 21:30:00 1.5 C 91 % 0.19 C
1988 06-02-2019 21:35:00 1.4 C 91 % 0.1 C
1989 06-02-2019 21:40:00 1.4 C 91 % 0.1 C
1990 06-02-2019 21:45:00 1.3 C 91 % 0 C
1991 06-02-2019 21:50:00 1.4 C 91 % 0.1 C
1992 06-02-2019 21:55:00 1.4 C 92 % 0.25 C
1993 06-02-2019 22:00:00 1.3 C 91 % 0 C
1994 06-02-2019 22:05:00 1.3 C 91 % 0 C
1995 06-02-2019 22:10:00 1.2 C 91 % -0.1 C
1996 06-02-2019 22:15:00 1.2 C 92 % 0.05 C
1997 06-02-2019 22:20:00 1.2 C 92 % 0.05 C
1998 06-02-2019 22:25:00 1.2 C 92 % 0.05 C
1999 06-02-2019 22:30:00 1.2 C 92 % 0.05 C
2000 06-02-2019 22:35:00 1.2 C 92 % 0.05 C
Sensor: Nr:Datum:Temp:Feuchte:Taupunkt:
Aussen-T/F 2001 06-02-2019 22:40:00 1.2 C 92 % 0.05 C
2002 06-02-2019 22:45:00 1.2 C 92 % 0.05 C
2003 06-02-2019 22:50:00 1.2 C 92 % 0.05 C
2004 06-02-2019 22:55:00 1.2 C 92 % 0.05 C
2005 06-02-2019 23:00:00 1.2 C 92 % 0.05 C
2006 06-02-2019 23:05:00 1.2 C 92 % 0.05 C
2007 06-02-2019 23:10:00 1.3 C 92 % 0.15 C
2008 06-02-2019 23:15:00 1.3 C 92 % 0.15 C
2009 06-02-2019 23:20:00 1.3 C 92 % 0.15 C
2010 06-02-2019 23:25:00 1.3 C 92 % 0.15 C
2011 06-02-2019 23:30:00 1.3 C 92 % 0.15 C
2012 06-02-2019 23:35:00 1.3 C 92 % 0.15 C
2013 06-02-2019 23:40:00 1.3 C 92 % 0.15 C
2014 06-02-2019 23:45:00 1.3 C 92 % 0.15 C
2015 06-02-2019 23:50:00 1.2 C 92 % 0.05 C
2016 06-02-2019 23:55:00 1.2 C 91 % -0.1 C
2017 07-02-2019 00:00:00 1.1 C 91 % -0.2 C
2018 07-02-2019 00:05:00 1 C 91 % -0.3 C
2019 07-02-2019 00:10:00 0.9 C 91 % -0.4 C
2020 07-02-2019 00:15:00 0.8 C 91 % -0.5 C
2021 07-02-2019 00:20:00 0.8 C 92 % -0.35 C
2022 07-02-2019 00:25:00 0.9 C 92 % -0.25 C
2023 07-02-2019 00:30:00 0.9 C 92 % -0.25 C
2024 07-02-2019 00:35:00 0.9 C 92 % -0.25 C
2025 07-02-2019 00:40:00 0.9 C 92 % -0.25 C
Sensor: Nr:Datum:Temp:Feuchte:Taupunkt:
Aussen-T/F 2026 07-02-2019 00:45:00 0.9 C 92 % -0.25 C
2027 07-02-2019 00:50:00 0.9 C 92 % -0.25 C
2028 07-02-2019 00:55:00 0.9 C 92 % -0.25 C
2029 07-02-2019 01:00:00 1 C 92 % -0.15 C
2030 07-02-2019 01:05:00 1.1 C 92 % -0.05 C
2031 07-02-2019 01:10:00 1.1 C 92 % -0.05 C
2032 07-02-2019 01:15:00 1.1 C 92 % -0.05 C
2033 07-02-2019 01:20:00 1.2 C 92 % 0.05 C
2034 07-02-2019 01:25:00 1.2 C 92 % 0.05 C
2035 07-02-2019 01:30:00 1.3 C 92 % 0.15 C
2036 07-02-2019 01:35:00 1.3 C 92 % 0.15 C
2037 07-02-2019 01:40:00 1.3 C 92 % 0.15 C
2038 07-02-2019 01:45:00 1.3 C 92 % 0.15 C
2039 07-02-2019 01:50:00 1.3 C 92 % 0.15 C
2040 07-02-2019 01:55:00 1.3 C 92 % 0.15 C
2041 07-02-2019 02:00:00 1.3 C 92 % 0.15 C
2042 07-02-2019 02:05:00 1.3 C 92 % 0.15 C
2043 07-02-2019 02:10:00 1.4 C 92 % 0.25 C
2044 07-02-2019 02:15:00 1.4 C 92 % 0.25 C
2045 07-02-2019 02:20:00 1.4 C 91 % 0.1 C
2046 07-02-2019 02:25:00 1.5 C 91 % 0.19 C
2047 07-02-2019 02:30:00 1.5 C 91 % 0.19 C
2048 07-02-2019 02:35:00 1.5 C 91 % 0.19 C
2049 07-02-2019 02:40:00 1.5 C 91 % 0.19 C
2050 07-02-2019 02:45:00 1.5 C 91 % 0.19 C
Sensor: Nr:Datum:Temp:Feuchte:Taupunkt:
Aussen-T/F 2051 07-02-2019 02:50:00 1.5 C 91 % 0.19 C
2052 07-02-2019 02:55:00 1.5 C 92 % 0.35 C
2053 07-02-2019 03:00:00 1.6 C 92 % 0.44 C
2054 07-02-2019 03:05:00 1.6 C 92 % 0.44 C
2055 07-02-2019 03:10:00 1.6 C 92 % 0.44 C
2056 07-02-2019 03:15:00 1.7 C 92 % 0.54 C
2057 07-02-2019 03:20:00 1.7 C 92 % 0.54 C
2058 07-02-2019 03:25:00 1.7 C 92 % 0.54 C
2059 07-02-2019 03:30:00 1.7 C 92 % 0.54 C
2060 07-02-2019 03:35:00 1.8 C 92 % 0.64 C
2061 07-02-2019 03:40:00 1.8 C 91 % 0.49 C
2062 07-02-2019 03:45:00 1.8 C 91 % 0.49 C
2063 07-02-2019 03:50:00 1.9 C 91 % 0.59 C
2064 07-02-2019 03:55:00 1.9 C 91 % 0.59 C
2065 07-02-2019 04:00:00 2 C 91 % 0.69 C
2066 07-02-2019 04:05:00 2.1 C 91 % 0.79 C
2067 07-02-2019 04:10:00 2.2 C 90 % 0.73 C
2068 07-02-2019 04:15:00 2.2 C 90 % 0.73 C
2069 07-02-2019 04:20:00 2.3 C 90 % 0.83 C
2070 07-02-2019 04:25:00 2.3 C 90 % 0.83 C
2071 07-02-2019 04:30:00 2.4 C 90 % 0.93 C
2072 07-02-2019 04:35:00 2.4 C 90 % 0.93 C
2073 07-02-2019 04:40:00 2.4 C 90 % 0.93 C
2074 07-02-2019 04:45:00 2.5 C 91 % 1.18 C
2075 07-02-2019 04:50:00 2.6 C 91 % 1.28 C
Sensor: Nr:Datum:Temp:Feuchte:Taupunkt:
Aussen-T/F 2076 07-02-2019 04:55:00 2.6 C 91 % 1.28 C
2077 07-02-2019 05:00:00 2.6 C 92 % 1.43 C
2078 07-02-2019 05:05:00 2.6 C 92 % 1.43 C
2079 07-02-2019 05:10:00 2.6 C 92 % 1.43 C
2080 07-02-2019 05:15:00 2.6 C 92 % 1.43 C
2081 07-02-2019 05:20:00 2.6 C 92 % 1.43 C
2082 07-02-2019 05:25:00 2.6 C 91 % 1.28 C
2083 07-02-2019 05:30:00 2.6 C 91 % 1.28 C
2084 07-02-2019 05:35:00 2.7 C 90 % 1.23 C
2085 07-02-2019 05:40:00 2.7 C 90 % 1.23 C
2086 07-02-2019 05:45:00 2.7 C 90 % 1.23 C
2087 07-02-2019 05:50:00 2.8 C 90 % 1.33 C
2088 07-02-2019 05:55:00 2.8 C 90 % 1.33 C
2089 07-02-2019 06:00:00 2.8 C 90 % 1.33 C
2090 07-02-2019 06:05:00 2.9 C 90 % 1.43 C
2091 07-02-2019 06:10:00 2.9 C 89 % 1.27 C
2092 07-02-2019 06:15:00 2.9 C 89 % 1.27 C
2093 07-02-2019 06:20:00 3 C 88 % 1.21 C
2094 07-02-2019 06:25:00 3 C 88 % 1.21 C
2095 07-02-2019 06:30:00 3 C 88 % 1.21 C
2096 07-02-2019 06:35:00 3.1 C 88 % 1.31 C
2097 07-02-2019 06:40:00 3.1 C 88 % 1.31 C
2098 07-02-2019 06:45:00 3.1 C 88 % 1.31 C
2099 07-02-2019 06:50:00 3.1 C 88 % 1.31 C
2100 07-02-2019 06:55:00 3.2 C 88 % 1.41 C
Sensor: Nr:Datum:Temp:Feuchte:Taupunkt:
Aussen-T/F 2101 07-02-2019 07:00:00 3.2 C 89 % 1.57 C
2102 07-02-2019 07:05:00 3.3 C 89 % 1.67 C
2103 07-02-2019 07:10:00 3.3 C 89 % 1.67 C
2104 07-02-2019 07:15:00 3.4 C 89 % 1.76 C
2105 07-02-2019 07:20:00 3.4 C 90 % 1.92 C
2106 07-02-2019 07:25:00 3.4 C 89 % 1.76 C
2107 07-02-2019 07:30:00 3.5 C 90 % 2.02 C
2108 07-02-2019 07:35:00 3.6 C 90 % 2.12 C
2109 07-02-2019 07:40:00 3.7 C 89 % 2.06 C
2110 07-02-2019 07:45:00 3.7 C 89 % 2.06 C
2111 07-02-2019 07:50:00 3.7 C 90 % 2.22 C
2112 07-02-2019 07:55:00 3.8 C 90 % 2.31 C
2113 07-02-2019 08:00:00 3.8 C 90 % 2.31 C
2114 07-02-2019 08:05:00 3.9 C 91 % 2.57 C
2115 07-02-2019 08:10:00 3.9 C 91 % 2.57 C
2116 07-02-2019 08:15:00 3.9 C 92 % 2.72 C
2117 07-02-2019 08:20:00 3.9 C 92 % 2.72 C
2118 07-02-2019 08:25:00 4 C 93 % 2.97 C
2119 07-02-2019 08:30:00 4 C 93 % 2.97 C
2120 07-02-2019 08:35:00 4.1 C 93 % 3.07 C
2121 07-02-2019 08:40:00 4.1 C 93 % 3.07 C
2122 07-02-2019 08:45:00 4.1 C 93 % 3.07 C
2123 07-02-2019 08:50:00 4.1 C 94 % 3.22 C
2124 07-02-2019 08:55:00 4.1 C 94 % 3.22 C
2125 07-02-2019 09:00:00 4.2 C 94 % 3.32 C
Sensor: Nr:Datum:Temp:Feuchte:Taupunkt:
Aussen-T/F 2126 07-02-2019 09:05:00 4.2 C 94 % 3.32 C
2127 07-02-2019 09:10:00 4.3 C 94 % 3.42 C
2128 07-02-2019 09:15:00 4.3 C 94 % 3.42 C
2129 07-02-2019 09:20:00 4.4 C 95 % 3.67 C
2130 07-02-2019 09:25:00 4.5 C 95 % 3.77 C
2131 07-02-2019 09:30:00 4.6 C 95 % 3.87 C
2132 07-02-2019 09:35:00 4.6 C 95 % 3.87 C
2133 07-02-2019 09:40:00 4.7 C 95 % 3.97 C
2134 07-02-2019 09:45:00 4.8 C 95 % 4.07 C
2135 07-02-2019 09:50:00 4.9 C 95 % 4.17 C
2136 07-02-2019 09:55:00 4.9 C 95 % 4.17 C
2137 07-02-2019 10:00:00 4.9 C 95 % 4.17 C
2138 07-02-2019 10:05:00 5 C 95 % 4.27 C
2139 07-02-2019 10:10:00 5 C 95 % 4.27 C
2140 07-02-2019 10:15:00 5.1 C 95 % 4.37 C
2141 07-02-2019 10:20:00 5.1 C 95 % 4.37 C
2142 07-02-2019 10:25:00 5.2 C 95 % 4.47 C
2143 07-02-2019 10:30:00 5.2 C 95 % 4.47 C
2144 07-02-2019 10:35:00 5.2 C 95 % 4.47 C
2145 07-02-2019 10:40:00 5.3 C 95 % 4.57 C
2146 07-02-2019 10:45:00 5.3 C 95 % 4.57 C
2147 07-02-2019 10:50:00 5.4 C 96 % 4.81 C
2148 07-02-2019 10:55:00 5.4 C 95 % 4.66 C
2149 07-02-2019 11:00:00 5.5 C 96 % 4.91 C
2150 07-02-2019 11:05:00 5.4 C 95 % 4.66 C
Sensor: Nr:Datum:Temp:Feuchte:Taupunkt:
Aussen-T/F 2151 07-02-2019 11:10:00 5.5 C 96 % 4.91 C
2152 07-02-2019 11:15:00 5.6 C 95 % 4.86 C
2153 07-02-2019 11:20:00 5.7 C 96 % 5.11 C
2154 07-02-2019 11:25:00 5.7 C 96 % 5.11 C
2155 07-02-2019 11:30:00 5.7 C 96 % 5.11 C
2156 07-02-2019 11:35:00 5.7 C 96 % 5.11 C
2157 07-02-2019 11:40:00 5.7 C 95 % 4.96 C
2158 07-02-2019 11:45:00 5.7 C 95 % 4.96 C
2159 07-02-2019 11:50:00 5.8 C 96 % 5.21 C
2160 07-02-2019 11:55:00 6.1 C 96 % 5.51 C
2161 07-02-2019 12:00:00 6.3 C 96 % 5.71 C
2162 07-02-2019 12:05:00 6.4 C 96 % 5.81 C
2163 07-02-2019 12:10:00 6.6 C 96 % 6.01 C
2164 07-02-2019 12:15:00 6.7 C 96 % 6.11 C
2165 07-02-2019 12:20:00 6.7 C 95 % 5.96 C
2166 07-02-2019 12:25:00 6.7 C 95 % 5.96 C
2167 07-02-2019 12:30:00 6.8 C 95 % 6.06 C
2168 07-02-2019 12:35:00 6.9 C 95 % 6.16 C
2169 07-02-2019 12:40:00 6.9 C 95 % 6.16 C
2170 07-02-2019 12:45:00 7 C 94 % 6.1 C
2171 07-02-2019 12:50:00 7.1 C 94 % 6.2 C
2172 07-02-2019 12:55:00 7.2 C 94 % 6.3 C
2173 07-02-2019 13:00:00 7.3 C 93 % 6.25 C
2174 07-02-2019 13:05:00 7.3 C 93 % 6.25 C
2175 07-02-2019 13:10:00 7.4 C 93 % 6.34 C
Sensor: Nr:Datum:Temp:Feuchte:Taupunkt:
Aussen-T/F 2176 07-02-2019 13:15:00 7.5 C 92 % 6.29 C
2177 07-02-2019 13:20:00 7.6 C 91 % 6.23 C
2178 07-02-2019 13:25:00 7.6 C 91 % 6.23 C
2179 07-02-2019 13:30:00 7.6 C 90 % 6.07 C
2180 07-02-2019 13:35:00 7.6 C 90 % 6.07 C
2181 07-02-2019 13:40:00 7.6 C 90 % 6.07 C
2182 07-02-2019 13:45:00 7.6 C 90 % 6.07 C
2183 07-02-2019 13:50:00 7.7 C 89 % 6 C
2184 07-02-2019 13:55:00 7.7 C 89 % 6 C
2185 07-02-2019 14:00:00 7.8 C 89 % 6.1 C
2186 07-02-2019 14:05:00 7.8 C 88 % 5.94 C
2187 07-02-2019 14:10:00 7.8 C 87 % 5.78 C
2188 07-02-2019 14:15:00 7.9 C 87 % 5.87 C
2189 07-02-2019 14:20:00 8 C 86 % 5.81 C
2190 07-02-2019 14:25:00 8.1 C 85 % 5.73 C
2191 07-02-2019 14:30:00 8.1 C 84 % 5.56 C
2192 07-02-2019 14:35:00 8.2 C 84 % 5.66 C
2193 07-02-2019 14:40:00 8.3 C 84 % 5.76 C
2194 07-02-2019 14:45:00 8.3 C 84 % 5.76 C
2195 07-02-2019 14:50:00 8.4 C 82 % 5.51 C
2196 07-02-2019 14:55:00 8.4 C 82 % 5.51 C
2197 07-02-2019 15:00:00 8.4 C 82 % 5.51 C
2198 07-02-2019 15:05:00 8.5 C 82 % 5.61 C
2199 07-02-2019 15:10:00 8.5 C 81 % 5.43 C
2200 07-02-2019 15:15:00 8.5 C 81 % 5.43 C
Sensor: Nr:Datum:Temp:Feuchte:Taupunkt:
Aussen-T/F 2201 07-02-2019 15:20:00 8.5 C 81 % 5.43 C
2202 07-02-2019 15:25:00 8.4 C 81 % 5.33 C
2203 07-02-2019 15:30:00 8.5 C 81 % 5.43 C
2204 07-02-2019 15:35:00 8.5 C 81 % 5.43 C
2205 07-02-2019 15:40:00 8.6 C 81 % 5.53 C
2206 07-02-2019 15:45:00 8.7 C 80 % 5.45 C
2207 07-02-2019 15:50:00 8.7 C 80 % 5.45 C
2208 07-02-2019 15:55:00 8.6 C 79 % 5.17 C
2209 07-02-2019 16:00:00 8.6 C 80 % 5.35 C
2210 07-02-2019 16:05:00 8.6 C 80 % 5.35 C
2211 07-02-2019 16:10:00 8.6 C 80 % 5.35 C
2212 07-02-2019 16:15:00 8.6 C 80 % 5.35 C
2213 07-02-2019 16:20:00 8.7 C 79 % 5.27 C
2214 07-02-2019 16:25:00 8.7 C 78 % 5.08 C
2215 07-02-2019 16:30:00 8.7 C 79 % 5.27 C
2216 07-02-2019 16:35:00 8.7 C 79 % 5.27 C
2217 07-02-2019 16:40:00 8.7 C 79 % 5.27 C
2218 07-02-2019 16:45:00 8.5 C 79 % 5.07 C
2219 07-02-2019 16:50:00 8.4 C 79 % 4.98 C
2220 07-02-2019 16:55:00 8.3 C 79 % 4.88 C
2221 07-02-2019 17:00:00 8.1 C 79 % 4.68 C
2222 07-02-2019 17:05:00 8.1 C 80 % 4.86 C
2223 07-02-2019 17:10:00 7.9 C 80 % 4.67 C
2224 07-02-2019 17:15:00 7.8 C 80 % 4.57 C
2225 07-02-2019 17:20:00 7.5 C 81 % 4.46 C
Sensor: Nr:Datum:Temp:Feuchte:Taupunkt:
Aussen-T/F 2226 07-02-2019 17:25:00 7.4 C 82 % 4.53 C
2227 07-02-2019 17:30:00 7.3 C 83 % 4.61 C
2228 07-02-2019 17:35:00 7.3 C 83 % 4.61 C
2229 07-02-2019 17:40:00 7.2 C 84 % 4.68 C
2230 07-02-2019 17:45:00 7.2 C 84 % 4.68 C
2231 07-02-2019 17:50:00 7.2 C 84 % 4.68 C
2232 07-02-2019 17:55:00 7.2 C 85 % 4.85 C
2233 07-02-2019 18:00:00 7.1 C 84 % 4.58 C
2234 07-02-2019 18:05:00 7.1 C 84 % 4.58 C
2235 07-02-2019 18:10:00 7 C 84 % 4.49 C
2236 07-02-2019 18:15:00 6.9 C 84 % 4.39 C
2237 07-02-2019 18:20:00 6.7 C 83 % 4.02 C
2238 07-02-2019 18:25:00 6.6 C 84 % 4.1 C
2239 07-02-2019 18:30:00 6.5 C 84 % 4 C
2240 07-02-2019 18:35:00 6.4 C 84 % 3.9 C
2241 07-02-2019 18:40:00 6.3 C 84 % 3.8 C
2242 07-02-2019 18:45:00 6.2 C 84 % 3.7 C
2243 07-02-2019 18:50:00 6.2 C 84 % 3.7 C
2244 07-02-2019 18:55:00 6.2 C 83 % 3.53 C
2245 07-02-2019 19:00:00 6.4 C 82 % 3.56 C
2246 07-02-2019 19:05:00 6.7 C 81 % 3.68 C
2247 07-02-2019 19:10:00 6.8 C 81 % 3.77 C
2248 07-02-2019 19:15:00 6.8 C 81 % 3.77 C
2249 07-02-2019 19:20:00 6.7 C 80 % 3.5 C
2250 07-02-2019 19:25:00 6.7 C 81 % 3.68 C
Sensor: Nr:Datum:Temp:Feuchte:Taupunkt:
Aussen-T/F 2251 07-02-2019 19:30:00 6.6 C 81 % 3.58 C
2252 07-02-2019 19:35:00 6.6 C 81 % 3.58 C
2253 07-02-2019 19:40:00 6.7 C 81 % 3.68 C
2254 07-02-2019 19:45:00 6.7 C 81 % 3.68 C
2255 07-02-2019 19:50:00 6.6 C 81 % 3.58 C
2256 07-02-2019 19:55:00 6.5 C 82 % 3.66 C
2257 07-02-2019 20:00:00 6.4 C 83 % 3.73 C
2258 07-02-2019 20:05:00 6.4 C 83 % 3.73 C
2259 07-02-2019 20:10:00 6.4 C 83 % 3.73 C
2260 07-02-2019 20:15:00 6.4 C 83 % 3.73 C
2261 07-02-2019 20:20:00 6.3 C 82 % 3.46 C
2262 07-02-2019 20:25:00 6.3 C 83 % 3.63 C
2263 07-02-2019 20:30:00 6.2 C 83 % 3.53 C
2264 07-02-2019 20:35:00 6.2 C 83 % 3.53 C
2265 07-02-2019 20:40:00 6.2 C 83 % 3.53 C
2266 07-02-2019 20:45:00 6.2 C 83 % 3.53 C
2267 07-02-2019 20:50:00 6.2 C 84 % 3.7 C
2268 07-02-2019 20:55:00 6.2 C 84 % 3.7 C
2269 07-02-2019 21:00:00 6.2 C 84 % 3.7 C
2270 07-02-2019 21:05:00 6.3 C 84 % 3.8 C
2271 07-02-2019 21:10:00 6.5 C 84 % 4 C
2272 07-02-2019 21:15:00 6.7 C 83 % 4.02 C
2273 07-02-2019 21:20:00 6.9 C 83 % 4.22 C
2274 07-02-2019 21:25:00 7.2 C 82 % 4.34 C
2275 07-02-2019 21:30:00 7.3 C 81 % 4.26 C
Sensor: Nr:Datum:Temp:Feuchte:Taupunkt:
Aussen-T/F 2276 07-02-2019 21:35:00 7.3 C 81 % 4.26 C
2277 07-02-2019 21:40:00 7.2 C 81 % 4.16 C
2278 07-02-2019 21:45:00 7.1 C 81 % 4.07 C
2279 07-02-2019 21:50:00 7.1 C 81 % 4.07 C
2280 07-02-2019 21:55:00 7 C 81 % 3.97 C
2281 07-02-2019 22:00:00 6.9 C 81 % 3.87 C
2282 07-02-2019 22:05:00 6.8 C 81 % 3.77 C
2283 07-02-2019 22:10:00 6.7 C 81 % 3.68 C
2284 07-02-2019 22:15:00 6.6 C 81 % 3.58 C
2285 07-02-2019 22:20:00 6.5 C 81 % 3.48 C
2286 07-02-2019 22:25:00 6.4 C 81 % 3.38 C
2287 07-02-2019 22:30:00 6.3 C 82 % 3.46 C
2288 07-02-2019 22:35:00 6.3 C 83 % 3.63 C
2289 07-02-2019 22:40:00 6.2 C 83 % 3.53 C
2290 07-02-2019 22:45:00 6.2 C 84 % 3.7 C
2291 07-02-2019 22:50:00 6.2 C 84 % 3.7 C
2292 07-02-2019 22:55:00 6.2 C 84 % 3.7 C
2293 07-02-2019 23:00:00 6.2 C 84 % 3.7 C
2294 07-02-2019 23:05:00 6.3 C 84 % 3.8 C
2295 07-02-2019 23:10:00 6.4 C 84 % 3.9 C
2296 07-02-2019 23:15:00 6.3 C 84 % 3.8 C
2297 07-02-2019 23:20:00 6.3 C 84 % 3.8 C
2298 07-02-2019 23:25:00 6.3 C 84 % 3.8 C
2299 07-02-2019 23:30:00 6.3 C 85 % 3.97 C
2300 07-02-2019 23:35:00 6.2 C 84 % 3.7 C
Sensor: Nr:Datum:Temp:Feuchte:Taupunkt:
Aussen-T/F 2301 07-02-2019 23:40:00 6.1 C 85 % 3.77 C
2302 07-02-2019 23:45:00 6.1 C 85 % 3.77 C
2303 07-02-2019 23:50:00 6 C 85 % 3.67 C
2304 07-02-2019 23:55:00 5.9 C 85 % 3.58 C
2305 08-02-2019 00:00:00 5.8 C 85 % 3.48 C
2306 08-02-2019 00:05:00 5.7 C 86 % 3.55 C
2307 08-02-2019 00:10:00 5.6 C 86 % 3.45 C
2308 08-02-2019 00:15:00 5.4 C 86 % 3.25 C
2309 08-02-2019 00:20:00 5.3 C 87 % 3.32 C
2310 08-02-2019 00:25:00 5.3 C 88 % 3.48 C
2311 08-02-2019 00:30:00 5.4 C 89 % 3.74 C
2312 08-02-2019 00:35:00 5.4 C 89 % 3.74 C
2313 08-02-2019 00:40:00 5.5 C 88 % 3.67 C
2314 08-02-2019 00:45:00 5.6 C 88 % 3.77 C
2315 08-02-2019 00:50:00 5.6 C 88 % 3.77 C
2316 08-02-2019 00:55:00 5.7 C 88 % 3.87 C
2317 08-02-2019 01:00:00 5.9 C 88 % 4.07 C
2318 08-02-2019 01:05:00 6 C 87 % 4 C
2319 08-02-2019 01:10:00 6.1 C 86 % 3.94 C
2320 08-02-2019 01:15:00 6.2 C 86 % 4.04 C
2321 08-02-2019 01:20:00 6.1 C 85 % 3.77 C
2322 08-02-2019 01:25:00 5.9 C 85 % 3.58 C
2323 08-02-2019 01:30:00 5.8 C 86 % 3.64 C
2324 08-02-2019 01:35:00 5.7 C 86 % 3.55 C
2325 08-02-2019 01:40:00 5.7 C 87 % 3.71 C
Sensor: Nr:Datum:Temp:Feuchte:Taupunkt:
Aussen-T/F 2326 08-02-2019 01:45:00 5.8 C 87 % 3.81 C
2327 08-02-2019 01:50:00 5.8 C 87 % 3.81 C
2328 08-02-2019 01:55:00 5.7 C 87 % 3.71 C
2329 08-02-2019 02:00:00 5.7 C 87 % 3.71 C
2330 08-02-2019 02:05:00 5.7 C 87 % 3.71 C
2331 08-02-2019 02:10:00 5.7 C 87 % 3.71 C
2332 08-02-2019 02:15:00 5.8 C 87 % 3.81 C
2333 08-02-2019 02:20:00 5.8 C 87 % 3.81 C
2334 08-02-2019 02:25:00 5.9 C 87 % 3.91 C
2335 08-02-2019 02:30:00 5.9 C 87 % 3.91 C
2336 08-02-2019 02:35:00 5.9 C 87 % 3.91 C
2337 08-02-2019 02:40:00 5.9 C 87 % 3.91 C
2338 08-02-2019 02:45:00 5.8 C 86 % 3.64 C
2339 08-02-2019 02:50:00 5.8 C 86 % 3.64 C
2340 08-02-2019 02:55:00 5.7 C 87 % 3.71 C
2341 08-02-2019 03:00:00 5.6 C 87 % 3.61 C
2342 08-02-2019 03:05:00 5.6 C 88 % 3.77 C
2343 08-02-2019 03:10:00 5.7 C 88 % 3.87 C
2344 08-02-2019 03:15:00 5.7 C 88 % 3.87 C
2345 08-02-2019 03:20:00 5.8 C 88 % 3.97 C
2346 08-02-2019 03:25:00 5.8 C 88 % 3.97 C
2347 08-02-2019 03:30:00 5.8 C 87 % 3.81 C
2348 08-02-2019 03:35:00 5.8 C 87 % 3.81 C
2349 08-02-2019 03:40:00 5.8 C 87 % 3.81 C
2350 08-02-2019 03:45:00 5.8 C 87 % 3.81 C
Sensor: Nr:Datum:Temp:Feuchte:Taupunkt:
Aussen-T/F 2351 08-02-2019 03:50:00 5.8 C 88 % 3.97 C
2352 08-02-2019 03:55:00 5.8 C 88 % 3.97 C
2353 08-02-2019 04:00:00 5.9 C 88 % 4.07 C
2354 08-02-2019 04:05:00 6.1 C 87 % 4.1 C
2355 08-02-2019 04:10:00 6.2 C 87 % 4.2 C
2356 08-02-2019 04:15:00 6.3 C 86 % 4.14 C
2357 08-02-2019 04:20:00 6.3 C 86 % 4.14 C
2358 08-02-2019 04:25:00 6.3 C 86 % 4.14 C
2359 08-02-2019 04:30:00 6.3 C 86 % 4.14 C
2360 08-02-2019 04:35:00 6.4 C 86 % 4.23 C
2361 08-02-2019 04:40:00 6.4 C 86 % 4.23 C
2362 08-02-2019 04:45:00 6.4 C 86 % 4.23 C
2363 08-02-2019 04:50:00 6.4 C 86 % 4.23 C
2364 08-02-2019 04:55:00 6.4 C 86 % 4.23 C
2365 08-02-2019 05:00:00 6.3 C 86 % 4.14 C
2366 08-02-2019 05:05:00 6.3 C 86 % 4.14 C
2367 08-02-2019 05:10:00 6.3 C 86 % 4.14 C
2368 08-02-2019 05:15:00 6.3 C 86 % 4.14 C
2369 08-02-2019 05:20:00 6.3 C 86 % 4.14 C
2370 08-02-2019 05:25:00 6.4 C 87 % 4.4 C
2371 08-02-2019 05:30:00 6.4 C 86 % 4.23 C
2372 08-02-2019 05:35:00 6.4 C 86 % 4.23 C
2373 08-02-2019 05:40:00 6.5 C 86 % 4.33 C
2374 08-02-2019 05:45:00 6.5 C 86 % 4.33 C
2375 08-02-2019 05:50:00 6.5 C 86 % 4.33 C
Sensor: Nr:Datum:Temp:Feuchte:Taupunkt:
Aussen-T/F 2376 08-02-2019 05:55:00 6.6 C 86 % 4.43 C
2377 08-02-2019 06:00:00 6.5 C 86 % 4.33 C
2378 08-02-2019 06:05:00 6.4 C 86 % 4.23 C
2379 08-02-2019 06:10:00 6.3 C 86 % 4.14 C
2380 08-02-2019 06:15:00 6.3 C 86 % 4.14 C
2381 08-02-2019 06:20:00 6.3 C 87 % 4.3 C
2382 08-02-2019 06:25:00 6.3 C 87 % 4.3 C
2383 08-02-2019 06:30:00 6.3 C 87 % 4.3 C
2384 08-02-2019 06:35:00 6.3 C 87 % 4.3 C
2385 08-02-2019 06:40:00 6.3 C 87 % 4.3 C
2386 08-02-2019 06:45:00 6.3 C 87 % 4.3 C
2387 08-02-2019 06:50:00 6.3 C 87 % 4.3 C
2388 08-02-2019 06:55:00 6.3 C 87 % 4.3 C
2389 08-02-2019 07:00:00 6.3 C 87 % 4.3 C
2390 08-02-2019 07:05:00 6.3 C 87 % 4.3 C
2391 08-02-2019 07:10:00 6.3 C 87 % 4.3 C
2392 08-02-2019 07:15:00 6.3 C 87 % 4.3 C
2393 08-02-2019 07:20:00 6.3 C 87 % 4.3 C
2394 08-02-2019 07:25:00 6.3 C 87 % 4.3 C
2395 08-02-2019 07:30:00 6.3 C 87 % 4.3 C
2396 08-02-2019 07:35:00 6.4 C 87 % 4.4 C
2397 08-02-2019 07:40:00 6.4 C 87 % 4.4 C
2398 08-02-2019 07:45:00 6.5 C 86 % 4.33 C
2399 08-02-2019 07:50:00 6.6 C 86 % 4.43 C
2400 08-02-2019 07:55:00 6.6 C 86 % 4.43 C
Sensor: Nr:Datum:Temp:Feuchte:Taupunkt:
Aussen-T/F 2401 08-02-2019 08:00:00 6.6 C 86 % 4.43 C
2402 08-02-2019 08:05:00 6.6 C 86 % 4.43 C
2403 08-02-2019 08:10:00 6.6 C 86 % 4.43 C
2404 08-02-2019 08:15:00 6.6 C 86 % 4.43 C
2405 08-02-2019 08:20:00 6.6 C 86 % 4.43 C
2406 08-02-2019 08:25:00 6.7 C 86 % 4.53 C
2407 08-02-2019 08:30:00 6.7 C 86 % 4.53 C
2408 08-02-2019 08:35:00 6.7 C 86 % 4.53 C
2409 08-02-2019 08:40:00 6.7 C 86 % 4.53 C
2410 08-02-2019 08:45:00 6.7 C 86 % 4.53 C
2411 08-02-2019 08:50:00 6.8 C 86 % 4.63 C
2412 08-02-2019 08:55:00 6.8 C 86 % 4.63 C
2413 08-02-2019 09:00:00 6.8 C 86 % 4.63 C
2414 08-02-2019 09:05:00 6.9 C 86 % 4.72 C
2415 08-02-2019 09:10:00 6.9 C 86 % 4.72 C
2416 08-02-2019 09:15:00 6.9 C 86 % 4.72 C
2417 08-02-2019 09:20:00 7 C 86 % 4.82 C
2418 08-02-2019 09:25:00 7.1 C 86 % 4.92 C
2419 08-02-2019 09:30:00 7.1 C 86 % 4.92 C
2420 08-02-2019 09:35:00 7.1 C 85 % 4.75 C
2421 08-02-2019 09:40:00 7.2 C 85 % 4.85 C
2422 08-02-2019 09:45:00 7.2 C 85 % 4.85 C
2423 08-02-2019 09:50:00 7.2 C 85 % 4.85 C
2424 08-02-2019 09:55:00 7.2 C 85 % 4.85 C
2425 08-02-2019 10:00:00 7.2 C 85 % 4.85 C
Sensor: Nr:Datum:Temp:Feuchte:Taupunkt:
Aussen-T/F 2426 08-02-2019 10:05:00 7.3 C 85 % 4.95 C
2427 08-02-2019 10:10:00 7.3 C 85 % 4.95 C
2428 08-02-2019 10:15:00 7.3 C 85 % 4.95 C
2429 08-02-2019 10:20:00 7.3 C 85 % 4.95 C
2430 08-02-2019 10:25:00 7.3 C 85 % 4.95 C
2431 08-02-2019 10:30:00 7.4 C 86 % 5.22 C
2432 08-02-2019 10:35:00 7.4 C 85 % 5.05 C
2433 08-02-2019 10:40:00 7.5 C 85 % 5.15 C
2434 08-02-2019 10:45:00 7.6 C 85 % 5.24 C
2435 08-02-2019 10:50:00 7.7 C 85 % 5.34 C
2436 08-02-2019 10:55:00 7.8 C 85 % 5.44 C
2437 08-02-2019 11:00:00 7.9 C 84 % 5.37 C
2438 08-02-2019 11:05:00 8 C 84 % 5.47 C
2439 08-02-2019 11:10:00 8.1 C 84 % 5.56 C
2440 08-02-2019 11:15:00 8.3 C 83 % 5.59 C
2441 08-02-2019 11:20:00 8.3 C 83 % 5.59 C
2442 08-02-2019 11:25:00 8.5 C 83 % 5.78 C
2443 08-02-2019 11:30:00 8.6 C 82 % 5.71 C
2444 08-02-2019 11:35:00 8.7 C 82 % 5.8 C
2445 08-02-2019 11:40:00 8.7 C 81 % 5.63 C
2446 08-02-2019 11:45:00 8.7 C 81 % 5.63 C
2447 08-02-2019 11:50:00 8.8 C 81 % 5.72 C
2448 08-02-2019 11:55:00 8.8 C 81 % 5.72 C
2449 08-02-2019 12:00:00 8.9 C 82 % 6 C
2450 08-02-2019 12:05:00 9.1 C 80 % 5.84 C
Sensor: Nr:Datum:Temp:Feuchte:Taupunkt:
Aussen-T/F 2451 08-02-2019 12:10:00 9.2 C 80 % 5.94 C
2452 08-02-2019 12:15:00 9.3 C 80 % 6.03 C
2453 08-02-2019 12:20:00 9.4 C 80 % 6.13 C
2454 08-02-2019 12:25:00 9.4 C 79 % 5.95 C
2455 08-02-2019 12:30:00 9.6 C 79 % 6.14 C
2456 08-02-2019 12:35:00 9.6 C 79 % 6.14 C
2457 08-02-2019 12:40:00 9.7 C 79 % 6.24 C
2458 08-02-2019 12:45:00 9.7 C 79 % 6.24 C
2459 08-02-2019 12:50:00 9.7 C 78 % 6.06 C
2460 08-02-2019 12:55:00 9.7 C 79 % 6.24 C
2461 08-02-2019 13:00:00 9.7 C 78 % 6.06 C
2462 08-02-2019 13:05:00 9.7 C 79 % 6.24 C
2463 08-02-2019 13:10:00 9.6 C 79 % 6.14 C
2464 08-02-2019 13:15:00 9.5 C 78 % 5.86 C
2465 08-02-2019 13:20:00 9.4 C 79 % 5.95 C
2466 08-02-2019 13:25:00 9.3 C 79 % 5.85 C
2467 08-02-2019 13:30:00 9.2 C 80 % 5.94 C
2468 08-02-2019 13:35:00 9.1 C 80 % 5.84 C
2469 08-02-2019 13:40:00 8.9 C 80 % 5.64 C
2470 08-02-2019 13:45:00 8.8 C 81 % 5.72 C
2471 08-02-2019 13:50:00 8.7 C 81 % 5.63 C
2472 08-02-2019 13:55:00 8.7 C 81 % 5.63 C
2473 08-02-2019 14:00:00 8.6 C 81 % 5.53 C
2474 08-02-2019 14:05:00 8.5 C 81 % 5.43 C
2475 08-02-2019 14:10:00 8.4 C 81 % 5.33 C
Sensor: Nr:Datum:Temp:Feuchte:Taupunkt:
Aussen-T/F 2476 08-02-2019 14:15:00 8.4 C 82 % 5.51 C
2477 08-02-2019 14:20:00 8.4 C 82 % 5.51 C
2478 08-02-2019 14:25:00 8.4 C 82 % 5.51 C
2479 08-02-2019 14:30:00 8.4 C 82 % 5.51 C
2480 08-02-2019 14:35:00 8.4 C 82 % 5.51 C
2481 08-02-2019 14:40:00 8.4 C 82 % 5.51 C
2482 08-02-2019 14:45:00 8.4 C 82 % 5.51 C
2483 08-02-2019 14:50:00 8.3 C 82 % 5.41 C
2484 08-02-2019 14:55:00 8.3 C 82 % 5.41 C
2485 08-02-2019 15:00:00 8.3 C 83 % 5.59 C
2486 08-02-2019 15:05:00 8.3 C 82 % 5.41 C
2487 08-02-2019 15:10:00 8.3 C 82 % 5.41 C
2488 08-02-2019 15:15:00 8.3 C 82 % 5.41 C
2489 08-02-2019 15:20:00 8.3 C 82 % 5.41 C
2490 08-02-2019 15:25:00 8.3 C 83 % 5.59 C
2491 08-02-2019 15:30:00 8.2 C 83 % 5.49 C
2492 08-02-2019 15:35:00 8.2 C 83 % 5.49 C
2493 08-02-2019 15:40:00 8.2 C 83 % 5.49 C
2494 08-02-2019 15:45:00 8.2 C 83 % 5.49 C
2495 08-02-2019 15:50:00 8.2 C 83 % 5.49 C
2496 08-02-2019 15:55:00 8.2 C 83 % 5.49 C
2497 08-02-2019 16:00:00 8.2 C 83 % 5.49 C
2498 08-02-2019 16:05:00 8.2 C 83 % 5.49 C
2499 08-02-2019 16:10:00 8.3 C 83 % 5.59 C
2500 08-02-2019 16:15:00 8.3 C 83 % 5.59 C
Sensor: Nr:Datum:Temp:Feuchte:Taupunkt:
Aussen-T/F 2501 08-02-2019 16:20:00 8.3 C 82 % 5.41 C
2502 08-02-2019 16:25:00 8.3 C 82 % 5.41 C
2503 08-02-2019 16:30:00 8.3 C 83 % 5.59 C
2504 08-02-2019 16:35:00 8.3 C 83 % 5.59 C
2505 08-02-2019 16:40:00 8.3 C 83 % 5.59 C
2506 08-02-2019 16:45:00 8.3 C 83 % 5.59 C
2507 08-02-2019 16:50:00 8.3 C 83 % 5.59 C
2508 08-02-2019 16:55:00 8.3 C 82 % 5.41 C
2509 08-02-2019 17:00:00 8.3 C 82 % 5.41 C
2510 08-02-2019 17:05:00 8.3 C 82 % 5.41 C
2511 08-02-2019 17:10:00 8.3 C 82 % 5.41 C
2512 08-02-2019 17:15:00 8.3 C 82 % 5.41 C
2513 08-02-2019 17:20:00 8.3 C 82 % 5.41 C
2514 08-02-2019 17:25:00 8.2 C 82 % 5.32 C
2515 08-02-2019 17:30:00 8.2 C 82 % 5.32 C
2516 08-02-2019 17:35:00 8.2 C 82 % 5.32 C
2517 08-02-2019 17:40:00 8.2 C 82 % 5.32 C
2518 08-02-2019 17:45:00 8.1 C 82 % 5.22 C
2519 08-02-2019 17:50:00 8.1 C 82 % 5.22 C
2520 08-02-2019 17:55:00 8.1 C 82 % 5.22 C
2521 08-02-2019 18:00:00 8 C 83 % 5.29 C
2522 08-02-2019 18:05:00 8 C 83 % 5.29 C
2523 08-02-2019 18:10:00 7.9 C 83 % 5.2 C
2524 08-02-2019 18:15:00 7.9 C 83 % 5.2 C
2525 08-02-2019 18:20:00 8 C 83 % 5.29 C
Sensor: Nr:Datum:Temp:Feuchte:Taupunkt:
Aussen-T/F 2526 08-02-2019 18:25:00 8 C 83 % 5.29 C
2527 08-02-2019 18:30:00 8.1 C 82 % 5.22 C
2528 08-02-2019 18:35:00 8.1 C 82 % 5.22 C
2529 08-02-2019 18:40:00 8.2 C 82 % 5.32 C
2530 08-02-2019 18:45:00 8.2 C 81 % 5.14 C
2531 08-02-2019 18:50:00 8.2 C 81 % 5.14 C
2532 08-02-2019 18:55:00 8.2 C 82 % 5.32 C
2533 08-02-2019 19:00:00 8.2 C 81 % 5.14 C
2534 08-02-2019 19:05:00 8.2 C 81 % 5.14 C
2535 08-02-2019 19:10:00 8.2 C 81 % 5.14 C
2536 08-02-2019 19:15:00 8.2 C 81 % 5.14 C
2537 08-02-2019 19:20:00 8.2 C 81 % 5.14 C
2538 08-02-2019 19:25:00 8.2 C 81 % 5.14 C
2539 08-02-2019 19:30:00 8.2 C 81 % 5.14 C
2540 08-02-2019 19:35:00 8.2 C 81 % 5.14 C
2541 08-02-2019 19:40:00 8.2 C 81 % 5.14 C
2542 08-02-2019 19:45:00 8.2 C 81 % 5.14 C
2543 08-02-2019 19:50:00 8.3 C 81 % 5.24 C
2544 08-02-2019 19:55:00 8.3 C 81 % 5.24 C
2545 08-02-2019 20:00:00 8.3 C 81 % 5.24 C
2546 08-02-2019 20:05:00 8.3 C 81 % 5.24 C
2547 08-02-2019 20:10:00 8.3 C 80 % 5.06 C
2548 08-02-2019 20:15:00 8.3 C 81 % 5.24 C
2549 08-02-2019 20:20:00 8.2 C 80 % 4.96 C
2550 08-02-2019 20:25:00 8.2 C 80 % 4.96 C
Sensor: Nr:Datum:Temp:Feuchte:Taupunkt:
Aussen-T/F 2551 08-02-2019 20:30:00 8.3 C 80 % 5.06 C
2552 08-02-2019 20:35:00 8.2 C 80 % 4.96 C
2553 08-02-2019 20:40:00 8.2 C 80 % 4.96 C
2554 08-02-2019 20:45:00 8.2 C 80 % 4.96 C
2555 08-02-2019 20:50:00 8.2 C 80 % 4.96 C
2556 08-02-2019 20:55:00 8.1 C 81 % 5.04 C
2557 08-02-2019 21:00:00 8.1 C 80 % 4.86 C
2558 08-02-2019 21:05:00 8.2 C 80 % 4.96 C
2559 08-02-2019 21:10:00 8.2 C 80 % 4.96 C
2560 08-02-2019 21:15:00 8.1 C 80 % 4.86 C
2561 08-02-2019 21:20:00 8.1 C 80 % 4.86 C
2562 08-02-2019 21:25:00 8.1 C 80 % 4.86 C
2563 08-02-2019 21:30:00 8.1 C 81 % 5.04 C
2564 08-02-2019 21:35:00 8.1 C 80 % 4.86 C
2565 08-02-2019 21:40:00 8.1 C 80 % 4.86 C
2566 08-02-2019 21:45:00 8 C 80 % 4.77 C
2567 08-02-2019 21:50:00 7.9 C 80 % 4.67 C
2568 08-02-2019 21:55:00 7.9 C 80 % 4.67 C
2569 08-02-2019 22:00:00 7.9 C 80 % 4.67 C
2570 08-02-2019 22:05:00 7.8 C 80 % 4.57 C
2571 08-02-2019 22:10:00 7.8 C 81 % 4.75 C
2572 08-02-2019 22:15:00 7.7 C 81 % 4.65 C
2573 08-02-2019 22:20:00 7.6 C 81 % 4.55 C
2574 08-02-2019 22:25:00 7.7 C 81 % 4.65 C
2575 08-02-2019 22:30:00 7.7 C 81 % 4.65 C
Sensor: Nr:Datum:Temp:Feuchte:Taupunkt:
Aussen-T/F 2576 08-02-2019 22:35:00 7.8 C 81 % 4.75 C
2577 08-02-2019 22:40:00 7.8 C 81 % 4.75 C
2578 08-02-2019 22:45:00 7.7 C 81 % 4.65 C
2579 08-02-2019 22:50:00 7.8 C 80 % 4.57 C
2580 08-02-2019 22:55:00 7.8 C 80 % 4.57 C
2581 08-02-2019 23:00:00 7.9 C 80 % 4.67 C
2582 08-02-2019 23:05:00 7.9 C 80 % 4.67 C
2583 08-02-2019 23:10:00 8.1 C 80 % 4.86 C
2584 08-02-2019 23:15:00 8.1 C 79 % 4.68 C
2585 08-02-2019 23:20:00 8.1 C 79 % 4.68 C
2586 08-02-2019 23:25:00 8.1 C 79 % 4.68 C
2587 08-02-2019 23:30:00 8.1 C 79 % 4.68 C
2588 08-02-2019 23:35:00 8.1 C 80 % 4.86 C
2589 08-02-2019 23:40:00 8.1 C 79 % 4.68 C
2590 08-02-2019 23:45:00 8.2 C 79 % 4.78 C
2591 08-02-2019 23:50:00 8.2 C 79 % 4.78 C
2592 08-02-2019 23:55:00 8.3 C 78 % 4.7 C
2593 09-02-2019 00:00:00 8.3 C 79 % 4.88 C
2594 09-02-2019 00:05:00 8.2 C 78 % 4.6 C
2595 09-02-2019 00:10:00 8.2 C 79 % 4.78 C
2596 09-02-2019 00:15:00 8.2 C 79 % 4.78 C
2597 09-02-2019 00:20:00 8.2 C 78 % 4.6 C
2598 09-02-2019 00:25:00 8.3 C 78 % 4.7 C
2599 09-02-2019 00:30:00 8.3 C 78 % 4.7 C
2600 09-02-2019 00:35:00 8.4 C 78 % 4.79 C
Sensor: Nr:Datum:Temp:Feuchte:Taupunkt:
Aussen-T/F 2601 09-02-2019 00:40:00 8.4 C 77 % 4.61 C
2602 09-02-2019 00:45:00 8.4 C 77 % 4.61 C
2603 09-02-2019 00:50:00 8.3 C 77 % 4.51 C
2604 09-02-2019 00:55:00 8.3 C 77 % 4.51 C
2605 09-02-2019 01:00:00 8.3 C 78 % 4.7 C
2606 09-02-2019 01:05:00 8.3 C 78 % 4.7 C
2607 09-02-2019 01:10:00 8.2 C 79 % 4.78 C
2608 09-02-2019 01:15:00 8.1 C 82 % 5.22 C
2609 09-02-2019 01:20:00 7.9 C 81 % 4.85 C
2610 09-02-2019 01:25:00 7.8 C 81 % 4.75 C
2611 09-02-2019 01:30:00 7.7 C 82 % 4.83 C
2612 09-02-2019 01:35:00 7.6 C 82 % 4.73 C
2613 09-02-2019 01:40:00 7.5 C 83 % 4.81 C
2614 09-02-2019 01:45:00 7.4 C 83 % 4.71 C
2615 09-02-2019 01:50:00 7.4 C 84 % 4.88 C
2616 09-02-2019 01:55:00 7.3 C 84 % 4.78 C
2617 09-02-2019 02:00:00 7.3 C 85 % 4.95 C
2618 09-02-2019 02:05:00 7.3 C 85 % 4.95 C
2619 09-02-2019 02:10:00 7.3 C 86 % 5.12 C
2620 09-02-2019 02:15:00 7.3 C 86 % 5.12 C
2621 09-02-2019 02:20:00 7.4 C 86 % 5.22 C
2622 09-02-2019 02:25:00 7.4 C 86 % 5.22 C
2623 09-02-2019 02:30:00 7.5 C 86 % 5.31 C
2624 09-02-2019 02:35:00 7.6 C 86 % 5.41 C
2625 09-02-2019 02:40:00 7.6 C 85 % 5.24 C
Sensor: Nr:Datum:Temp:Feuchte:Taupunkt:
Aussen-T/F 2626 09-02-2019 02:45:00 7.6 C 85 % 5.24 C
2627 09-02-2019 02:50:00 7.7 C 85 % 5.34 C
2628 09-02-2019 02:55:00 7.7 C 85 % 5.34 C
2629 09-02-2019 03:00:00 7.7 C 85 % 5.34 C
2630 09-02-2019 03:05:00 7.8 C 85 % 5.44 C
2631 09-02-2019 03:10:00 7.8 C 85 % 5.44 C
2632 09-02-2019 03:15:00 7.9 C 85 % 5.54 C
2633 09-02-2019 03:20:00 8 C 84 % 5.47 C
2634 09-02-2019 03:25:00 8.1 C 84 % 5.56 C
2635 09-02-2019 03:30:00 8.1 C 84 % 5.56 C
2636 09-02-2019 03:35:00 8.2 C 84 % 5.66 C
2637 09-02-2019 03:40:00 8.3 C 84 % 5.76 C
2638 09-02-2019 03:45:00 8.3 C 84 % 5.76 C
2639 09-02-2019 03:50:00 8.3 C 84 % 5.76 C
2640 09-02-2019 03:55:00 8.4 C 83 % 5.69 C
2641 09-02-2019 04:00:00 8.6 C 83 % 5.88 C
2642 09-02-2019 04:05:00 8.7 C 82 % 5.8 C
2643 09-02-2019 04:10:00 8.8 C 81 % 5.72 C
2644 09-02-2019 04:15:00 8.9 C 81 % 5.82 C
2645 09-02-2019 04:20:00 8.9 C 81 % 5.82 C
2646 09-02-2019 04:25:00 9.1 C 81 % 6.02 C
2647 09-02-2019 04:30:00 9.1 C 82 % 6.19 C
2648 09-02-2019 04:35:00 9.1 C 82 % 6.19 C
2649 09-02-2019 04:40:00 9.1 C 83 % 6.37 C
2650 09-02-2019 04:45:00 8.9 C 83 % 6.17 C
Sensor: Nr:Datum:Temp:Feuchte:Taupunkt:
Aussen-T/F 2651 09-02-2019 04:50:00 8.9 C 83 % 6.17 C
2652 09-02-2019 04:55:00 8.8 C 83 % 6.08 C
2653 09-02-2019 05:00:00 8.7 C 83 % 5.98 C
2654 09-02-2019 05:05:00 8.6 C 83 % 5.88 C
2655 09-02-2019 05:10:00 8.5 C 84 % 5.96 C
2656 09-02-2019 05:15:00 8.4 C 84 % 5.86 C
2657 09-02-2019 05:20:00 8.3 C 84 % 5.76 C
2658 09-02-2019 05:25:00 8.3 C 84 % 5.76 C
2659 09-02-2019 05:30:00 8.2 C 84 % 5.66 C
2660 09-02-2019 05:35:00 8.1 C 84 % 5.56 C
2661 09-02-2019 05:40:00 8 C 84 % 5.47 C
2662 09-02-2019 05:45:00 7.9 C 84 % 5.37 C
2663 09-02-2019 05:50:00 8 C 83 % 5.29 C
2664 09-02-2019 05:55:00 8.1 C 83 % 5.39 C
2665 09-02-2019 06:00:00 8.1 C 83 % 5.39 C
2666 09-02-2019 06:05:00 8 C 83 % 5.29 C
2667 09-02-2019 06:10:00 7.9 C 83 % 5.2 C
2668 09-02-2019 06:15:00 7.8 C 83 % 5.1 C
2669 09-02-2019 06:20:00 7.8 C 83 % 5.1 C
2670 09-02-2019 06:25:00 7.7 C 83 % 5 C
2671 09-02-2019 06:30:00 7.7 C 83 % 5 C
2672 09-02-2019 06:35:00 7.7 C 82 % 4.83 C
2673 09-02-2019 06:40:00 7.7 C 82 % 4.83 C
2674 09-02-2019 06:45:00 7.7 C 83 % 5 C
2675 09-02-2019 06:50:00 7.7 C 83 % 5 C
Sensor: Nr:Datum:Temp:Feuchte:Taupunkt:
Aussen-T/F 2676 09-02-2019 06:55:00 7.8 C 83 % 5.1 C
2677 09-02-2019 07:00:00 7.8 C 83 % 5.1 C
2678 09-02-2019 07:05:00 7.8 C 84 % 5.27 C
2679 09-02-2019 07:10:00 7.8 C 84 % 5.27 C
2680 09-02-2019 07:15:00 7.7 C 85 % 5.34 C
2681 09-02-2019 07:20:00 7.7 C 85 % 5.34 C
2682 09-02-2019 07:25:00 7.5 C 86 % 5.31 C
2683 09-02-2019 07:30:00 7.4 C 86 % 5.22 C
2684 09-02-2019 07:35:00 7.3 C 86 % 5.12 C
2685 09-02-2019 07:40:00 7.3 C 87 % 5.28 C
2686 09-02-2019 07:45:00 7.2 C 87 % 5.19 C
2687 09-02-2019 07:50:00 7.2 C 87 % 5.19 C
2688 09-02-2019 07:55:00 7.2 C 87 % 5.19 C
2689 09-02-2019 08:00:00 7.3 C 87 % 5.28 C
2690 09-02-2019 08:05:00 7.4 C 86 % 5.22 C
2691 09-02-2019 08:10:00 7.4 C 86 % 5.22 C
2692 09-02-2019 08:15:00 7.4 C 86 % 5.22 C
2693 09-02-2019 08:20:00 7.3 C 86 % 5.12 C
2694 09-02-2019 08:25:00 7.3 C 87 % 5.28 C
2695 09-02-2019 08:30:00 7.2 C 87 % 5.19 C
2696 09-02-2019 08:35:00 7.1 C 87 % 5.09 C
2697 09-02-2019 08:40:00 7 C 87 % 4.99 C
2698 09-02-2019 08:45:00 7 C 87 % 4.99 C
2699 09-02-2019 08:50:00 7.1 C 86 % 4.92 C
2700 09-02-2019 08:55:00 7.2 C 85 % 4.85 C
Sensor: Nr:Datum:Temp:Feuchte:Taupunkt:
Aussen-T/F 2701 09-02-2019 09:00:00 7.3 C 84 % 4.78 C
2702 09-02-2019 09:05:00 7.3 C 84 % 4.78 C
2703 09-02-2019 09:10:00 7.3 C 84 % 4.78 C
2704 09-02-2019 09:15:00 7.3 C 83 % 4.61 C
2705 09-02-2019 09:20:00 7.6 C 83 % 4.9 C
2706 09-02-2019 09:25:00 7.6 C 83 % 4.9 C
2707 09-02-2019 09:30:00 7.8 C 82 % 4.92 C
2708 09-02-2019 09:35:00 7.9 C 81 % 4.85 C
2709 09-02-2019 09:40:00 8.1 C 81 % 5.04 C
2710 09-02-2019 09:45:00 8.1 C 81 % 5.04 C
2711 09-02-2019 09:50:00 8.2 C 81 % 5.14 C
2712 09-02-2019 09:55:00 8.3 C 81 % 5.24 C
2713 09-02-2019 10:00:00 8.4 C 81 % 5.33 C
2714 09-02-2019 10:05:00 8.6 C 80 % 5.35 C
2715 09-02-2019 10:10:00 8.7 C 80 % 5.45 C
2716 09-02-2019 10:15:00 8.8 C 79 % 5.36 C
2717 09-02-2019 10:20:00 8.9 C 79 % 5.46 C
2718 09-02-2019 10:25:00 8.9 C 79 % 5.46 C
2719 09-02-2019 10:30:00 8.9 C 79 % 5.46 C
2720 09-02-2019 10:35:00 9 C 79 % 5.56 C
2721 09-02-2019 10:40:00 9 C 79 % 5.56 C
2722 09-02-2019 10:45:00 9 C 79 % 5.56 C
2723 09-02-2019 10:50:00 9 C 79 % 5.56 C
2724 09-02-2019 10:55:00 9 C 79 % 5.56 C
2725 09-02-2019 11:00:00 9.1 C 79 % 5.66 C
Sensor: Nr:Datum:Temp:Feuchte:Taupunkt:
Aussen-T/F 2726 09-02-2019 11:05:00 9.1 C 79 % 5.66 C
2727 09-02-2019 11:10:00 9.1 C 79 % 5.66 C
2728 09-02-2019 11:15:00 9.2 C 79 % 5.75 C
2729 09-02-2019 11:20:00 9.2 C 78 % 5.57 C
2730 09-02-2019 11:25:00 9.2 C 78 % 5.57 C
2731 09-02-2019 11:30:00 9.2 C 77 % 5.38 C
2732 09-02-2019 11:35:00 9.3 C 77 % 5.48 C
2733 09-02-2019 11:40:00 9.4 C 77 % 5.58 C
2734 09-02-2019 11:45:00 9.6 C 77 % 5.77 C
2735 09-02-2019 11:50:00 9.6 C 76 % 5.58 C
2736 09-02-2019 11:55:00 9.7 C 76 % 5.68 C
2737 09-02-2019 12:00:00 9.7 C 76 % 5.68 C
2738 09-02-2019 12:05:00 9.7 C 76 % 5.68 C
2739 09-02-2019 12:10:00 9.8 C 75 % 5.59 C
2740 09-02-2019 12:15:00 9.8 C 75 % 5.59 C
2741 09-02-2019 12:20:00 9.8 C 74 % 5.39 C
2742 09-02-2019 12:25:00 9.9 C 74 % 5.49 C
2743 09-02-2019 12:30:00 9.9 C 74 % 5.49 C
2744 09-02-2019 12:35:00 10 C 74 % 5.59 C
2745 09-02-2019 12:40:00 10.1 C 73 % 5.49 C
2746 09-02-2019 12:45:00 10.2 C 73 % 5.58 C
2747 09-02-2019 12:50:00 10.3 C 72 % 5.48 C
2748 09-02-2019 12:55:00 10.5 C 71 % 5.47 C
2749 09-02-2019 13:00:00 10.6 C 71 % 5.57 C
2750 09-02-2019 13:05:00 10.6 C 70 % 5.36 C
Sensor: Nr:Datum:Temp:Feuchte:Taupunkt:
Aussen-T/F 2751 09-02-2019 13:10:00 10.6 C 71 % 5.57 C
2752 09-02-2019 13:15:00 10.6 C 72 % 5.77 C
2753 09-02-2019 13:20:00 10.6 C 71 % 5.57 C
2754 09-02-2019 13:25:00 10.7 C 72 % 5.87 C
2755 09-02-2019 13:30:00 10.7 C 70 % 5.46 C
2756 09-02-2019 13:35:00 10.8 C 69 % 5.35 C
2757 09-02-2019 13:40:00 10.9 C 68 % 5.23 C
2758 09-02-2019 13:45:00 10.9 C 69 % 5.44 C
2759 09-02-2019 13:50:00 10.9 C 69 % 5.44 C
2760 09-02-2019 13:55:00 10.9 C 69 % 5.44 C
2761 09-02-2019 14:00:00 11 C 68 % 5.33 C
2762 09-02-2019 14:05:00 11.1 C 68 % 5.43 C
2763 09-02-2019 14:10:00 11.2 C 68 % 5.52 C
2764 09-02-2019 14:15:00 11.2 C 67 % 5.31 C
2765 09-02-2019 14:20:00 11.2 C 68 % 5.52 C
2766 09-02-2019 14:25:00 11.2 C 68 % 5.52 C
2767 09-02-2019 14:30:00 11.1 C 68 % 5.43 C
2768 09-02-2019 14:35:00 11.1 C 67 % 5.21 C
2769 09-02-2019 14:40:00 11.1 C 68 % 5.43 C
2770 09-02-2019 14:45:00 11.1 C 68 % 5.43 C
2771 09-02-2019 14:50:00 11.1 C 67 % 5.21 C
2772 09-02-2019 14:55:00 11.1 C 67 % 5.21 C
2773 09-02-2019 15:00:00 10.9 C 67 % 5.02 C
2774 09-02-2019 15:05:00 10.9 C 67 % 5.02 C
2775 09-02-2019 15:10:00 10.8 C 67 % 4.93 C
Sensor: Nr:Datum:Temp:Feuchte:Taupunkt:
Aussen-T/F 2776 09-02-2019 15:15:00 10.7 C 67 % 4.83 C
2777 09-02-2019 15:20:00 10.7 C 68 % 5.04 C
2778 09-02-2019 15:25:00 10.6 C 69 % 5.16 C
2779 09-02-2019 15:30:00 10.5 C 69 % 5.06 C
2780 09-02-2019 15:35:00 10.5 C 69 % 5.06 C
2781 09-02-2019 15:40:00 10.5 C 69 % 5.06 C
2782 09-02-2019 15:45:00 10.4 C 69 % 4.97 C
2783 09-02-2019 15:50:00 10.4 C 70 % 5.17 C
2784 09-02-2019 15:55:00 10.4 C 70 % 5.17 C
2785 09-02-2019 16:00:00 10.4 C 69 % 4.97 C
2786 09-02-2019 16:05:00 10.4 C 70 % 5.17 C
2787 09-02-2019 16:10:00 10.3 C 71 % 5.28 C
2788 09-02-2019 16:15:00 10.2 C 72 % 5.39 C
2789 09-02-2019 16:20:00 10.1 C 72 % 5.29 C
2790 09-02-2019 16:25:00 10.1 C 72 % 5.29 C
2791 09-02-2019 16:30:00 10 C 73 % 5.39 C
2792 09-02-2019 16:35:00 9.9 C 73 % 5.29 C
2793 09-02-2019 16:40:00 9.9 C 72 % 5.1 C
2794 09-02-2019 16:45:00 9.9 C 73 % 5.29 C
2795 09-02-2019 16:50:00 9.8 C 73 % 5.2 C
2796 09-02-2019 16:55:00 9.8 C 73 % 5.2 C
2797 09-02-2019 17:00:00 9.8 C 72 % 5 C
2798 09-02-2019 17:05:00 9.7 C 72 % 4.9 C
2799 09-02-2019 17:10:00 9.7 C 73 % 5.1 C
2800 09-02-2019 17:15:00 9.6 C 74 % 5.2 C
Sensor: Nr:Datum:Temp:Feuchte:Taupunkt:
Aussen-T/F 2801 09-02-2019 17:20:00 9.5 C 74 % 5.1 C
2802 09-02-2019 17:25:00 9.4 C 74 % 5.01 C
2803 09-02-2019 17:30:00 9.3 C 74 % 4.91 C
2804 09-02-2019 17:35:00 9.3 C 74 % 4.91 C
2805 09-02-2019 17:40:00 9.2 C 75 % 5.01 C
2806 09-02-2019 17:45:00 9.1 C 75 % 4.91 C
2807 09-02-2019 17:50:00 9 C 75 % 4.81 C
2808 09-02-2019 17:55:00 8.9 C 76 % 4.91 C
2809 09-02-2019 18:00:00 8.8 C 76 % 4.81 C
2810 09-02-2019 18:05:00 8.8 C 77 % 5 C
2811 09-02-2019 18:10:00 8.7 C 77 % 4.9 C
2812 09-02-2019 18:15:00 8.6 C 78 % 4.99 C
2813 09-02-2019 18:20:00 8.6 C 78 % 4.99 C
2814 09-02-2019 18:25:00 8.5 C 78 % 4.89 C
2815 09-02-2019 18:30:00 8.4 C 79 % 4.98 C
2816 09-02-2019 18:35:00 8.4 C 79 % 4.98 C
2817 09-02-2019 18:40:00 8.4 C 78 % 4.79 C
2818 09-02-2019 18:45:00 8.4 C 79 % 4.98 C
2819 09-02-2019 18:50:00 8.4 C 79 % 4.98 C
2820 09-02-2019 18:55:00 8.5 C 80 % 5.25 C
2821 09-02-2019 19:00:00 8.6 C 81 % 5.53 C
2822 09-02-2019 19:05:00 8.4 C 84 % 5.86 C
2823 09-02-2019 19:10:00 8.2 C 85 % 5.83 C
2824 09-02-2019 19:15:00 8 C 86 % 5.81 C
2825 09-02-2019 19:20:00 7.8 C 86 % 5.61 C
Sensor: Nr:Datum:Temp:Feuchte:Taupunkt:
Aussen-T/F 2826 09-02-2019 19:25:00 7.7 C 86 % 5.51 C
2827 09-02-2019 19:30:00 7.7 C 86 % 5.51 C
2828 09-02-2019 19:35:00 7.6 C 86 % 5.41 C
2829 09-02-2019 19:40:00 7.6 C 85 % 5.24 C
2830 09-02-2019 19:45:00 7.6 C 84 % 5.07 C
2831 09-02-2019 19:50:00 7.6 C 84 % 5.07 C
2832 09-02-2019 19:55:00 7.6 C 84 % 5.07 C
2833 09-02-2019 20:00:00 7.5 C 84 % 4.98 C
2834 09-02-2019 20:05:00 7.4 C 84 % 4.88 C
2835 09-02-2019 20:10:00 7.3 C 84 % 4.78 C
2836 09-02-2019 20:15:00 7.2 C 85 % 4.85 C
2837 09-02-2019 20:20:00 7.2 C 85 % 4.85 C
2838 09-02-2019 20:25:00 7.1 C 86 % 4.92 C
2839 09-02-2019 20:30:00 7.1 C 86 % 4.92 C
2840 09-02-2019 20:35:00 7.2 C 87 % 5.19 C
2841 09-02-2019 20:40:00 7.2 C 87 % 5.19 C
2842 09-02-2019 20:45:00 7.2 C 87 % 5.19 C
2843 09-02-2019 20:50:00 7.3 C 87 % 5.28 C
2844 09-02-2019 20:55:00 7.3 C 87 % 5.28 C
2845 09-02-2019 21:00:00 7.4 C 87 % 5.38 C
2846 09-02-2019 21:05:00 7.5 C 86 % 5.31 C
2847 09-02-2019 21:10:00 7.5 C 86 % 5.31 C
2848 09-02-2019 21:15:00 7.5 C 86 % 5.31 C
2849 09-02-2019 21:20:00 7.6 C 86 % 5.41 C
2850 09-02-2019 21:25:00 7.6 C 86 % 5.41 C
Sensor: Nr:Datum:Temp:Feuchte:Taupunkt:
Aussen-T/F 2851 09-02-2019 21:30:00 7.6 C 86 % 5.41 C
2852 09-02-2019 21:35:00 7.6 C 86 % 5.41 C
2853 09-02-2019 21:40:00 7.7 C 86 % 5.51 C
2854 09-02-2019 21:45:00 7.7 C 86 % 5.51 C
2855 09-02-2019 21:50:00 7.8 C 85 % 5.44 C
2856 09-02-2019 21:55:00 7.8 C 85 % 5.44 C
2857 09-02-2019 22:00:00 7.9 C 85 % 5.54 C
2858 09-02-2019 22:05:00 7.9 C 85 % 5.54 C
2859 09-02-2019 22:10:00 7.9 C 85 % 5.54 C
2860 09-02-2019 22:15:00 8.1 C 84 % 5.56 C
2861 09-02-2019 22:20:00 8.1 C 84 % 5.56 C
2862 09-02-2019 22:25:00 8.1 C 84 % 5.56 C
2863 09-02-2019 22:30:00 8.2 C 84 % 5.66 C
2864 09-02-2019 22:35:00 8.3 C 83 % 5.59 C
2865 09-02-2019 22:40:00 8.3 C 83 % 5.59 C
2866 09-02-2019 22:45:00 8.3 C 83 % 5.59 C
2867 09-02-2019 22:50:00 8.4 C 83 % 5.69 C
2868 09-02-2019 22:55:00 8.4 C 82 % 5.51 C
2869 09-02-2019 23:00:00 8.6 C 82 % 5.71 C
2870 09-02-2019 23:05:00 8.6 C 82 % 5.71 C
2871 09-02-2019 23:10:00 8.6 C 82 % 5.71 C
2872 09-02-2019 23:15:00 8.6 C 82 % 5.71 C
2873 09-02-2019 23:20:00 8.6 C 82 % 5.71 C
2874 09-02-2019 23:25:00 8.6 C 82 % 5.71 C
2875 09-02-2019 23:30:00 8.6 C 82 % 5.71 C
Sensor: Nr:Datum:Temp:Feuchte:Taupunkt:
Aussen-T/F 2876 09-02-2019 23:35:00 8.6 C 82 % 5.71 C
2877 09-02-2019 23:40:00 8.6 C 82 % 5.71 C
2878 09-02-2019 23:45:00 8.7 C 82 % 5.8 C
2879 09-02-2019 23:50:00 8.7 C 82 % 5.8 C
2880 09-02-2019 23:55:00 8.7 C 82 % 5.8 C
2881 10-02-2019 00:00:00 8.7 C 82 % 5.8 C
2882 10-02-2019 00:05:00 8.7 C 82 % 5.8 C
2883 10-02-2019 00:10:00 8.7 C 82 % 5.8 C
2884 10-02-2019 00:15:00 8.7 C 82 % 5.8 C
2885 10-02-2019 00:20:00 8.7 C 82 % 5.8 C
2886 10-02-2019 00:25:00 8.7 C 82 % 5.8 C
2887 10-02-2019 00:30:00 8.7 C 82 % 5.8 C
2888 10-02-2019 00:35:00 8.6 C 82 % 5.71 C
2889 10-02-2019 00:40:00 8.6 C 82 % 5.71 C
2890 10-02-2019 00:45:00 8.5 C 82 % 5.61 C
2891 10-02-2019 00:50:00 8.4 C 82 % 5.51 C
2892 10-02-2019 00:55:00 8.4 C 82 % 5.51 C
2893 10-02-2019 01:00:00 8.3 C 83 % 5.59 C
2894 10-02-2019 01:05:00 8.2 C 83 % 5.49 C
2895 10-02-2019 01:10:00 8.1 C 83 % 5.39 C
2896 10-02-2019 01:15:00 8.1 C 83 % 5.39 C
2897 10-02-2019 01:20:00 7.9 C 83 % 5.2 C
2898 10-02-2019 01:25:00 7.9 C 84 % 5.37 C
2899 10-02-2019 01:30:00 7.8 C 84 % 5.27 C
2900 10-02-2019 01:35:00 7.7 C 84 % 5.17 C
Sensor: Nr:Datum:Temp:Feuchte:Taupunkt:
Aussen-T/F 2901 10-02-2019 01:40:00 7.6 C 85 % 5.24 C
2902 10-02-2019 01:45:00 7.5 C 85 % 5.15 C
2903 10-02-2019 01:50:00 7.6 C 85 % 5.24 C
2904 10-02-2019 01:55:00 7.5 C 85 % 5.15 C
2905 10-02-2019 02:00:00 7.4 C 85 % 5.05 C
2906 10-02-2019 02:05:00 7.4 C 85 % 5.05 C
2907 10-02-2019 02:10:00 7.4 C 85 % 5.05 C
2908 10-02-2019 02:15:00 7.3 C 85 % 4.95 C
2909 10-02-2019 02:20:00 7.3 C 85 % 4.95 C
2910 10-02-2019 02:25:00 7.3 C 85 % 4.95 C
2911 10-02-2019 02:30:00 7.4 C 85 % 5.05 C
2912 10-02-2019 02:35:00 7.4 C 85 % 5.05 C
2913 10-02-2019 02:40:00 7.5 C 84 % 4.98 C
2914 10-02-2019 02:45:00 7.6 C 84 % 5.07 C
2915 10-02-2019 02:50:00 7.5 C 84 % 4.98 C
2916 10-02-2019 02:55:00 7.5 C 84 % 4.98 C
2917 10-02-2019 03:00:00 7.5 C 84 % 4.98 C
2918 10-02-2019 03:05:00 7.4 C 84 % 4.88 C
2919 10-02-2019 03:10:00 7.6 C 84 % 5.07 C
2920 10-02-2019 03:15:00 7.7 C 83 % 5 C
2921 10-02-2019 03:20:00 7.7 C 83 % 5 C
2922 10-02-2019 03:25:00 7.7 C 83 % 5 C
2923 10-02-2019 03:30:00 7.6 C 83 % 4.9 C
2924 10-02-2019 03:35:00 7.6 C 84 % 5.07 C
2925 10-02-2019 03:40:00 7.7 C 84 % 5.17 C
Sensor: Nr:Datum:Temp:Feuchte:Taupunkt:
Aussen-T/F 2926 10-02-2019 03:45:00 7.7 C 85 % 5.34 C
2927 10-02-2019 03:50:00 7.6 C 86 % 5.41 C
2928 10-02-2019 03:55:00 7.5 C 87 % 5.48 C
2929 10-02-2019 04:00:00 7.4 C 88 % 5.55 C
2930 10-02-2019 04:05:00 7.3 C 89 % 5.61 C
2931 10-02-2019 04:10:00 7.2 C 90 % 5.67 C
2932 10-02-2019 04:15:00 7.1 C 90 % 5.57 C
2933 10-02-2019 04:20:00 6.9 C 90 % 5.38 C
2934 10-02-2019 04:25:00 6.9 C 90 % 5.38 C
2935 10-02-2019 04:30:00 6.9 C 90 % 5.38 C
2936 10-02-2019 04:35:00 6.9 C 91 % 5.54 C
2937 10-02-2019 04:40:00 6.8 C 91 % 5.44 C
2938 10-02-2019 04:45:00 6.8 C 92 % 5.59 C
2939 10-02-2019 04:50:00 6.8 C 92 % 5.59 C
2940 10-02-2019 04:55:00 6.8 C 92 % 5.59 C
2941 10-02-2019 05:00:00 6.8 C 93 % 5.75 C
2942 10-02-2019 05:05:00 6.8 C 93 % 5.75 C
2943 10-02-2019 05:10:00 6.8 C 93 % 5.75 C
2944 10-02-2019 05:15:00 6.8 C 93 % 5.75 C
2945 10-02-2019 05:20:00 6.8 C 94 % 5.9 C
2946 10-02-2019 05:25:00 6.9 C 94 % 6 C
2947 10-02-2019 05:30:00 6.9 C 94 % 6 C
2948 10-02-2019 05:35:00 7 C 94 % 6.1 C
2949 10-02-2019 05:40:00 7.1 C 94 % 6.2 C
2950 10-02-2019 05:45:00 7.1 C 94 % 6.2 C
Sensor: Nr:Datum:Temp:Feuchte:Taupunkt:
Aussen-T/F 2951 10-02-2019 05:50:00 7.2 C 94 % 6.3 C
2952 10-02-2019 05:55:00 7.3 C 94 % 6.4 C
2953 10-02-2019 06:00:00 7.3 C 94 % 6.4 C
2954 10-02-2019 06:05:00 7.3 C 94 % 6.4 C
2955 10-02-2019 06:10:00 7.3 C 94 % 6.4 C
2956 10-02-2019 06:15:00 7.4 C 94 % 6.5 C
2957 10-02-2019 06:20:00 7.5 C 94 % 6.6 C
2958 10-02-2019 06:25:00 7.6 C 94 % 6.7 C
2959 10-02-2019 06:30:00 7.7 C 94 % 6.8 C
2960 10-02-2019 06:35:00 7.7 C 94 % 6.8 C
2961 10-02-2019 06:40:00 7.8 C 94 % 6.9 C
2962 10-02-2019 06:45:00 7.9 C 94 % 7 C
2963 10-02-2019 06:50:00 7.9 C 94 % 7 C
2964 10-02-2019 06:55:00 8.1 C 94 % 7.19 C
2965 10-02-2019 07:00:00 8.1 C 94 % 7.19 C
2966 10-02-2019 07:05:00 8.1 C 94 % 7.19 C
2967 10-02-2019 07:10:00 8.2 C 94 % 7.29 C
2968 10-02-2019 07:15:00 8.2 C 94 % 7.29 C
2969 10-02-2019 07:20:00 8.3 C 93 % 7.24 C
2970 10-02-2019 07:25:00 8.4 C 93 % 7.34 C
2971 10-02-2019 07:30:00 8.4 C 93 % 7.34 C
2972 10-02-2019 07:35:00 8.5 C 93 % 7.43 C
2973 10-02-2019 07:40:00 8.5 C 93 % 7.43 C
2974 10-02-2019 07:45:00 8.6 C 93 % 7.53 C
2975 10-02-2019 07:50:00 8.6 C 93 % 7.53 C
Sensor: Nr:Datum:Temp:Feuchte:Taupunkt:
Aussen-T/F 2976 10-02-2019 07:55:00 8.7 C 93 % 7.63 C
2977 10-02-2019 08:00:00 8.7 C 92 % 7.47 C
2978 10-02-2019 08:05:00 8.7 C 92 % 7.47 C
2979 10-02-2019 08:10:00 8.7 C 92 % 7.47 C
2980 10-02-2019 08:15:00 8.8 C 92 % 7.57 C
2981 10-02-2019 08:20:00 8.8 C 92 % 7.57 C
2982 10-02-2019 08:25:00 8.8 C 92 % 7.57 C
2983 10-02-2019 08:30:00 8.8 C 92 % 7.57 C
2984 10-02-2019 08:35:00 8.8 C 92 % 7.57 C
2985 10-02-2019 08:40:00 8.8 C 92 % 7.57 C
2986 10-02-2019 08:45:00 8.8 C 91 % 7.41 C
2987 10-02-2019 08:50:00 8.9 C 91 % 7.51 C
2988 10-02-2019 08:55:00 8.9 C 91 % 7.51 C
2989 10-02-2019 09:00:00 9 C 91 % 7.61 C
2990 10-02-2019 09:05:00 9.1 C 90 % 7.55 C
2991 10-02-2019 09:10:00 9.2 C 90 % 7.65 C
2992 10-02-2019 09:15:00 9.3 C 90 % 7.75 C
2993 10-02-2019 09:20:00 9.3 C 89 % 7.58 C
2994 10-02-2019 09:25:00 9.4 C 89 % 7.68 C
2995 10-02-2019 09:30:00 9.6 C 89 % 7.88 C
2996 10-02-2019 09:35:00 9.7 C 89 % 7.98 C
2997 10-02-2019 09:40:00 9.7 C 88 % 7.81 C
2998 10-02-2019 09:45:00 9.8 C 88 % 7.91 C
2999 10-02-2019 09:50:00 9.9 C 88 % 8.01 C
3000 10-02-2019 09:55:00 9.9 C 88 % 8.01 C
Sensor: Nr:Datum:Temp:Feuchte:Taupunkt:
Aussen-T/F 3001 10-02-2019 10:00:00 10 C 88 % 8.11 C
3002 10-02-2019 10:05:00 10.1 C 88 % 8.21 C
3003 10-02-2019 10:10:00 10.1 C 88 % 8.21 C
3004 10-02-2019 10:15:00 10.1 C 88 % 8.21 C
3005 10-02-2019 10:20:00 10.2 C 88 % 8.3 C
3006 10-02-2019 10:25:00 10.2 C 88 % 8.3 C
3007 10-02-2019 10:30:00 10.2 C 88 % 8.3 C
3008 10-02-2019 10:35:00 10.2 C 89 % 8.47 C
3009 10-02-2019 10:40:00 10 C 89 % 8.27 C
3010 10-02-2019 10:45:00 9.9 C 90 % 8.34 C
3011 10-02-2019 10:50:00 9.9 C 90 % 8.34 C
3012 10-02-2019 10:55:00 9.8 C 90 % 8.24 C
3013 10-02-2019 11:00:00 9.8 C 90 % 8.24 C
3014 10-02-2019 11:05:00 9.8 C 90 % 8.24 C
3015 10-02-2019 11:10:00 9.8 C 90 % 8.24 C
3016 10-02-2019 11:15:00 9.7 C 90 % 8.14 C
3017 10-02-2019 11:20:00 9.7 C 91 % 8.3 C
3018 10-02-2019 11:25:00 9.7 C 91 % 8.3 C
3019 10-02-2019 11:30:00 9.7 C 91 % 8.3 C
3020 10-02-2019 11:35:00 9.7 C 91 % 8.3 C
3021 10-02-2019 11:40:00 9.7 C 91 % 8.3 C
3022 10-02-2019 11:45:00 9.7 C 91 % 8.3 C
3023 10-02-2019 11:50:00 9.7 C 91 % 8.3 C
3024 10-02-2019 11:55:00 9.7 C 92 % 8.46 C
3025 10-02-2019 12:00:00 9.7 C 92 % 8.46 C
Sensor: Nr:Datum:Temp:Feuchte:Taupunkt:
Aussen-T/F 3026 10-02-2019 12:05:00 9.7 C 91 % 8.3 C
3027 10-02-2019 12:10:00 9.7 C 91 % 8.3 C
3028 10-02-2019 12:15:00 9.7 C 92 % 8.46 C
3029 10-02-2019 12:20:00 9.7 C 92 % 8.46 C
3030 10-02-2019 12:25:00 9.7 C 92 % 8.46 C
3031 10-02-2019 12:30:00 9.7 C 92 % 8.46 C
3032 10-02-2019 12:35:00 9.6 C 92 % 8.37 C
3033 10-02-2019 12:40:00 9.6 C 92 % 8.37 C
3034 10-02-2019 12:45:00 9.6 C 92 % 8.37 C
3035 10-02-2019 12:50:00 9.6 C 91 % 8.21 C
3036 10-02-2019 12:55:00 9.6 C 91 % 8.21 C
3037 10-02-2019 13:00:00 9.6 C 91 % 8.21 C
3038 10-02-2019 13:05:00 9.6 C 92 % 8.37 C
3039 10-02-2019 13:10:00 9.6 C 92 % 8.37 C
3040 10-02-2019 13:15:00 9.6 C 92 % 8.37 C
3041 10-02-2019 13:20:00 9.6 C 92 % 8.37 C
3042 10-02-2019 13:25:00 9.7 C 93 % 8.62 C
3043 10-02-2019 13:30:00 9.8 C 92 % 8.56 C
3044 10-02-2019 13:35:00 9.9 C 92 % 8.66 C
3045 10-02-2019 13:40:00 9.9 C 92 % 8.66 C
3046 10-02-2019 13:45:00 10 C 91 % 8.6 C
3047 10-02-2019 13:50:00 10 C 91 % 8.6 C
3048 10-02-2019 13:55:00 10 C 91 % 8.6 C
3049 10-02-2019 14:00:00 9.9 C 91 % 8.5 C
3050 10-02-2019 14:05:00 9.9 C 91 % 8.5 C
Sensor: Nr:Datum:Temp:Feuchte:Taupunkt:
Aussen-T/F 3051 10-02-2019 14:10:00 9.8 C 92 % 8.56 C
3052 10-02-2019 14:15:00 9.8 C 92 % 8.56 C
3053 10-02-2019 14:20:00 9.7 C 92 % 8.46 C
3054 10-02-2019 14:25:00 9.6 C 91 % 8.21 C
3055 10-02-2019 14:30:00 9.4 C 91 % 8.01 C
3056 10-02-2019 14:35:00 9.3 C 91 % 7.91 C
3057 10-02-2019 14:40:00 9.2 C 90 % 7.65 C
3058 10-02-2019 14:45:00 9.1 C 89 % 7.39 C
3059 10-02-2019 14:50:00 8.9 C 88 % 7.02 C
3060 10-02-2019 14:55:00 8.9 C 88 % 7.02 C
3061 10-02-2019 15:00:00 9 C 88 % 7.12 C
3062 10-02-2019 15:05:00 8.9 C 87 % 6.86 C
3063 10-02-2019 15:10:00 8.8 C 86 % 6.59 C
3064 10-02-2019 15:15:00 8.8 C 86 % 6.59 C
3065 10-02-2019 15:20:00 8.8 C 87 % 6.76 C
3066 10-02-2019 15:25:00 8.7 C 87 % 6.66 C
3067 10-02-2019 15:30:00 8.7 C 86 % 6.49 C
3068 10-02-2019 15:35:00 8.7 C 86 % 6.49 C
3069 10-02-2019 15:40:00 8.7 C 86 % 6.49 C
3070 10-02-2019 15:45:00 8.7 C 87 % 6.66 C
3071 10-02-2019 15:50:00 8.8 C 87 % 6.76 C
3072 10-02-2019 15:55:00 8.8 C 86 % 6.59 C
3073 10-02-2019 16:00:00 8.7 C 86 % 6.49 C
3074 10-02-2019 16:05:00 8.7 C 86 % 6.49 C
3075 10-02-2019 16:10:00 8.7 C 87 % 6.66 C
Sensor: Nr:Datum:Temp:Feuchte:Taupunkt:
Aussen-T/F 3076 10-02-2019 16:15:00 8.6 C 88 % 6.73 C
3077 10-02-2019 16:20:00 8.4 C 87 % 6.37 C
3078 10-02-2019 16:25:00 8.4 C 87 % 6.37 C
3079 10-02-2019 16:30:00 8.4 C 87 % 6.37 C
3080 10-02-2019 16:35:00 8.4 C 87 % 6.37 C
3081 10-02-2019 16:40:00 8.4 C 87 % 6.37 C
3082 10-02-2019 16:45:00 8.4 C 87 % 6.37 C
3083 10-02-2019 16:50:00 8.4 C 87 % 6.37 C
3084 10-02-2019 16:55:00 8.3 C 86 % 6.1 C
3085 10-02-2019 17:00:00 8.3 C 87 % 6.27 C
3086 10-02-2019 17:05:00 8.2 C 87 % 6.17 C
3087 10-02-2019 17:10:00 8.2 C 87 % 6.17 C
3088 10-02-2019 17:15:00 8.1 C 86 % 5.9 C
3089 10-02-2019 17:20:00 8.1 C 86 % 5.9 C
3090 10-02-2019 17:25:00 8.1 C 87 % 6.07 C
3091 10-02-2019 17:30:00 8 C 86 % 5.81 C
3092 10-02-2019 17:35:00 7.9 C 86 % 5.71 C
3093 10-02-2019 17:40:00 7.9 C 85 % 5.54 C
3094 10-02-2019 17:45:00 7.8 C 86 % 5.61 C
3095 10-02-2019 17:50:00 7.5 C 86 % 5.31 C
3096 10-02-2019 17:55:00 7.3 C 87 % 5.28 C
3097 10-02-2019 18:00:00 7 C 89 % 5.31 C
3098 10-02-2019 18:05:00 6.8 C 89 % 5.12 C
3099 10-02-2019 18:10:00 6.7 C 90 % 5.18 C
3100 10-02-2019 18:15:00 6.6 C 90 % 5.08 C
Sensor: Nr:Datum:Temp:Feuchte:Taupunkt:
Aussen-T/F 3101 10-02-2019 18:20:00 6.4 C 90 % 4.88 C
3102 10-02-2019 18:25:00 6.4 C 91 % 5.04 C
3103 10-02-2019 18:30:00 6.3 C 91 % 4.94 C
3104 10-02-2019 18:35:00 6.3 C 91 % 4.94 C
3105 10-02-2019 18:40:00 6.3 C 90 % 4.78 C
3106 10-02-2019 18:45:00 6.3 C 90 % 4.78 C
3107 10-02-2019 18:50:00 6.3 C 90 % 4.78 C
3108 10-02-2019 18:55:00 6.3 C 90 % 4.78 C
3109 10-02-2019 19:00:00 6.3 C 90 % 4.78 C
3110 10-02-2019 19:05:00 6.3 C 89 % 4.62 C
3111 10-02-2019 19:10:00 6.3 C 89 % 4.62 C
3112 10-02-2019 19:15:00 6.4 C 88 % 4.56 C
3113 10-02-2019 19:20:00 6.4 C 88 % 4.56 C
3114 10-02-2019 19:25:00 6.4 C 88 % 4.56 C
3115 10-02-2019 19:30:00 6.4 C 88 % 4.56 C
3116 10-02-2019 19:35:00 6.4 C 88 % 4.56 C
3117 10-02-2019 19:40:00 6.4 C 88 % 4.56 C
3118 10-02-2019 19:45:00 6.5 C 88 % 4.66 C
3119 10-02-2019 19:50:00 6.6 C 88 % 4.76 C
3120 10-02-2019 19:55:00 6.6 C 87 % 4.6 C
3121 10-02-2019 20:00:00 6.6 C 87 % 4.6 C
3122 10-02-2019 20:05:00 6.7 C 87 % 4.69 C
3123 10-02-2019 20:10:00 6.7 C 87 % 4.69 C
3124 10-02-2019 20:15:00 6.7 C 87 % 4.69 C
3125 10-02-2019 20:20:00 6.8 C 87 % 4.79 C
Sensor: Nr:Datum:Temp:Feuchte:Taupunkt:
Aussen-T/F 3126 10-02-2019 20:25:00 6.8 C 87 % 4.79 C
3127 10-02-2019 20:30:00 6.8 C 87 % 4.79 C
3128 10-02-2019 20:35:00 6.8 C 87 % 4.79 C
3129 10-02-2019 20:40:00 6.8 C 88 % 4.96 C
3130 10-02-2019 20:45:00 6.7 C 89 % 5.02 C
3131 10-02-2019 20:50:00 6.5 C 89 % 4.82 C
3132 10-02-2019 20:55:00 6.3 C 90 % 4.78 C
3133 10-02-2019 21:00:00 6.2 C 91 % 4.84 C
3134 10-02-2019 21:05:00 6.1 C 91 % 4.74 C
3135 10-02-2019 21:10:00 6.1 C 90 % 4.59 C
3136 10-02-2019 21:15:00 6.1 C 90 % 4.59 C
3137 10-02-2019 21:20:00 6.1 C 89 % 4.43 C
3138 10-02-2019 21:25:00 6.1 C 90 % 4.59 C
3139 10-02-2019 21:30:00 6.1 C 89 % 4.43 C
3140 10-02-2019 21:35:00 6.1 C 88 % 4.27 C
3141 10-02-2019 21:40:00 6.2 C 87 % 4.2 C
3142 10-02-2019 21:45:00 6.2 C 86 % 4.04 C
3143 10-02-2019 21:50:00 6.2 C 86 % 4.04 C
3144 10-02-2019 21:55:00 6.2 C 86 % 4.04 C
3145 10-02-2019 22:00:00 6.2 C 85 % 3.87 C
3146 10-02-2019 22:05:00 6.2 C 84 % 3.7 C
3147 10-02-2019 22:10:00 6.3 C 84 % 3.8 C
3148 10-02-2019 22:15:00 6.3 C 83 % 3.63 C
3149 10-02-2019 22:20:00 6.2 C 83 % 3.53 C
3150 10-02-2019 22:25:00 6.2 C 84 % 3.7 C
Sensor: Nr:Datum:Temp:Feuchte:Taupunkt:
Aussen-T/F 3151 10-02-2019 22:30:00 6.2 C 84 % 3.7 C
3152 10-02-2019 22:35:00 6.1 C 84 % 3.61 C
3153 10-02-2019 22:40:00 6.1 C 84 % 3.61 C
3154 10-02-2019 22:45:00 6 C 84 % 3.51 C
3155 10-02-2019 22:50:00 6 C 84 % 3.51 C
3156 10-02-2019 22:55:00 5.9 C 83 % 3.24 C
3157 10-02-2019 23:00:00 5.9 C 84 % 3.41 C
3158 10-02-2019 23:05:00 5.8 C 84 % 3.31 C
3159 10-02-2019 23:10:00 5.8 C 85 % 3.48 C
3160 10-02-2019 23:15:00 5.7 C 85 % 3.38 C
3161 10-02-2019 23:20:00 5.7 C 85 % 3.38 C
3162 10-02-2019 23:25:00 5.6 C 85 % 3.28 C
3163 10-02-2019 23:30:00 5.6 C 85 % 3.28 C
3164 10-02-2019 23:35:00 5.5 C 86 % 3.35 C
3165 10-02-2019 23:40:00 5.4 C 86 % 3.25 C
3166 10-02-2019 23:45:00 5.4 C 86 % 3.25 C
3167 10-02-2019 23:50:00 5.3 C 87 % 3.32 C
3168 10-02-2019 23:55:00 5.3 C 87 % 3.32 C
3169 11-02-2019 00:00:00 5.3 C 87 % 3.32 C
3170 11-02-2019 00:05:00 5.2 C 88 % 3.38 C
3171 11-02-2019 00:10:00 5.1 C 88 % 3.28 C
3172 11-02-2019 00:15:00 5.1 C 88 % 3.28 C
3173 11-02-2019 00:20:00 5.1 C 89 % 3.44 C
3174 11-02-2019 00:25:00 5 C 89 % 3.34 C
3175 11-02-2019 00:30:00 4.9 C 89 % 3.24 C
Sensor: Nr:Datum:Temp:Feuchte:Taupunkt:
Aussen-T/F 3176 11-02-2019 00:35:00 4.9 C 89 % 3.24 C
3177 11-02-2019 00:40:00 4.9 C 90 % 3.4 C
3178 11-02-2019 00:45:00 4.8 C 90 % 3.3 C
3179 11-02-2019 00:50:00 4.7 C 90 % 3.2 C
3180 11-02-2019 00:55:00 4.6 C 91 % 3.26 C
3181 11-02-2019 01:00:00 4.6 C 91 % 3.26 C
3182 11-02-2019 01:05:00 4.4 C 91 % 3.06 C
3183 11-02-2019 01:10:00 4.4 C 92 % 3.22 C
3184 11-02-2019 01:15:00 4.3 C 92 % 3.12 C
3185 11-02-2019 01:20:00 4.3 C 92 % 3.12 C
3186 11-02-2019 01:25:00 4.3 C 93 % 3.27 C
3187 11-02-2019 01:30:00 4.3 C 93 % 3.27 C
3188 11-02-2019 01:35:00 4.2 C 93 % 3.17 C
3189 11-02-2019 01:40:00 4.2 C 93 % 3.17 C
3190 11-02-2019 01:45:00 4.2 C 93 % 3.17 C
3191 11-02-2019 01:50:00 4.2 C 93 % 3.17 C
3192 11-02-2019 01:55:00 4.2 C 93 % 3.17 C
3193 11-02-2019 02:00:00 4.2 C 93 % 3.17 C
3194 11-02-2019 02:05:00 4.2 C 93 % 3.17 C
3195 11-02-2019 02:10:00 4.1 C 93 % 3.07 C
3196 11-02-2019 02:15:00 4 C 93 % 2.97 C
3197 11-02-2019 02:20:00 3.9 C 93 % 2.87 C
3198 11-02-2019 02:25:00 3.9 C 93 % 2.87 C
3199 11-02-2019 02:30:00 3.9 C 93 % 2.87 C
3200 11-02-2019 02:35:00 3.8 C 93 % 2.77 C
Sensor: Nr:Datum:Temp:Feuchte:Taupunkt:
Aussen-T/F 3201 11-02-2019 02:40:00 3.8 C 93 % 2.77 C
3202 11-02-2019 02:45:00 3.8 C 94 % 2.93 C
3203 11-02-2019 02:50:00 3.8 C 94 % 2.93 C
3204 11-02-2019 02:55:00 3.8 C 94 % 2.93 C
3205 11-02-2019 03:00:00 3.9 C 94 % 3.02 C
3206 11-02-2019 03:05:00 3.9 C 94 % 3.02 C
3207 11-02-2019 03:10:00 3.9 C 94 % 3.02 C
3208 11-02-2019 03:15:00 4 C 94 % 3.12 C
3209 11-02-2019 03:20:00 4.1 C 94 % 3.22 C
3210 11-02-2019 03:25:00 4 C 93 % 2.97 C
3211 11-02-2019 03:30:00 3.9 C 93 % 2.87 C
3212 11-02-2019 03:35:00 3.7 C 92 % 2.52 C
3213 11-02-2019 03:40:00 3.6 C 93 % 2.58 C
3214 11-02-2019 03:45:00 3.6 C 93 % 2.58 C
3215 11-02-2019 03:50:00 3.5 C 93 % 2.48 C
3216 11-02-2019 03:55:00 3.5 C 93 % 2.48 C
3217 11-02-2019 04:00:00 3.5 C 93 % 2.48 C
3218 11-02-2019 04:05:00 3.5 C 93 % 2.48 C
3219 11-02-2019 04:10:00 3.6 C 93 % 2.58 C
3220 11-02-2019 04:15:00 3.6 C 94 % 2.73 C
3221 11-02-2019 04:20:00 3.6 C 94 % 2.73 C
3222 11-02-2019 04:25:00 3.6 C 94 % 2.73 C
3223 11-02-2019 04:30:00 3.6 C 94 % 2.73 C
3224 11-02-2019 04:35:00 3.6 C 94 % 2.73 C
3225 11-02-2019 04:40:00 3.6 C 94 % 2.73 C
Sensor: Nr:Datum:Temp:Feuchte:Taupunkt:
Aussen-T/F 3226 11-02-2019 04:45:00 3.7 C 94 % 2.83 C
3227 11-02-2019 04:50:00 3.7 C 94 % 2.83 C
3228 11-02-2019 04:55:00 3.7 C 94 % 2.83 C
3229 11-02-2019 05:00:00 3.8 C 94 % 2.93 C
3230 11-02-2019 05:05:00 3.8 C 94 % 2.93 C
3231 11-02-2019 05:10:00 3.8 C 94 % 2.93 C
3232 11-02-2019 05:15:00 3.9 C 94 % 3.02 C
3233 11-02-2019 05:20:00 3.9 C 94 % 3.02 C
3234 11-02-2019 05:25:00 3.9 C 94 % 3.02 C
3235 11-02-2019 05:30:00 3.9 C 94 % 3.02 C
3236 11-02-2019 05:35:00 3.9 C 94 % 3.02 C
3237 11-02-2019 05:40:00 3.9 C 94 % 3.02 C
3238 11-02-2019 05:45:00 3.8 C 94 % 2.93 C
3239 11-02-2019 05:50:00 3.8 C 94 % 2.93 C
3240 11-02-2019 05:55:00 3.8 C 94 % 2.93 C
3241 11-02-2019 06:00:00 3.8 C 94 % 2.93 C
3242 11-02-2019 06:05:00 3.8 C 94 % 2.93 C
3243 11-02-2019 06:10:00 3.8 C 94 % 2.93 C
3244 11-02-2019 06:15:00 3.8 C 94 % 2.93 C
3245 11-02-2019 06:20:00 3.8 C 94 % 2.93 C
3246 11-02-2019 06:25:00 3.8 C 94 % 2.93 C
3247 11-02-2019 06:30:00 3.8 C 94 % 2.93 C
3248 11-02-2019 06:35:00 3.8 C 94 % 2.93 C
3249 11-02-2019 06:40:00 3.8 C 94 % 2.93 C
3250 11-02-2019 06:45:00 3.9 C 94 % 3.02 C
Sensor: Nr:Datum:Temp:Feuchte:Taupunkt:
Aussen-T/F 3251 11-02-2019 06:50:00 3.9 C 94 % 3.02 C
3252 11-02-2019 06:55:00 3.9 C 94 % 3.02 C
3253 11-02-2019 07:00:00 3.9 C 94 % 3.02 C
3254 11-02-2019 07:05:00 3.9 C 94 % 3.02 C
3255 11-02-2019 07:10:00 4 C 94 % 3.12 C
3256 11-02-2019 07:15:00 4 C 93 % 2.97 C
3257 11-02-2019 07:20:00 4.1 C 93 % 3.07 C
3258 11-02-2019 07:25:00 4.1 C 93 % 3.07 C
3259 11-02-2019 07:30:00 4.1 C 93 % 3.07 C
3260 11-02-2019 07:35:00 4.1 C 92 % 2.92 C
3261 11-02-2019 07:40:00 4.1 C 92 % 2.92 C
3262 11-02-2019 07:45:00 4.1 C 92 % 2.92 C
3263 11-02-2019 07:50:00 4.2 C 92 % 3.02 C
3264 11-02-2019 07:55:00 4.2 C 91 % 2.87 C
3265 11-02-2019 08:00:00 4.2 C 91 % 2.87 C
3266 11-02-2019 08:05:00 4.2 C 91 % 2.87 C
3267 11-02-2019 08:10:00 4.2 C 91 % 2.87 C
3268 11-02-2019 08:15:00 4.1 C 91 % 2.77 C
3269 11-02-2019 08:20:00 4.1 C 91 % 2.77 C
3270 11-02-2019 08:25:00 4 C 91 % 2.67 C
3271 11-02-2019 08:30:00 4 C 91 % 2.67 C
3272 11-02-2019 08:35:00 4 C 91 % 2.67 C
3273 11-02-2019 08:40:00 4 C 91 % 2.67 C
3274 11-02-2019 08:45:00 4.1 C 91 % 2.77 C
3275 11-02-2019 08:50:00 4.1 C 91 % 2.77 C
Sensor: Nr:Datum:Temp:Feuchte:Taupunkt:
Aussen-T/F 3276 11-02-2019 08:55:00 4.1 C 91 % 2.77 C
3277 11-02-2019 09:00:00 4.1 C 91 % 2.77 C
3278 11-02-2019 09:05:00 4.1 C 91 % 2.77 C
3279 11-02-2019 09:10:00 4.1 C 91 % 2.77 C
3280 11-02-2019 09:15:00 4.1 C 90 % 2.61 C
3281 11-02-2019 09:20:00 4.1 C 90 % 2.61 C
3282 11-02-2019 09:25:00 4.2 C 90 % 2.71 C
3283 11-02-2019 09:30:00 4.2 C 90 % 2.71 C
3284 11-02-2019 09:35:00 4.2 C 90 % 2.71 C
3285 11-02-2019 09:40:00 4.3 C 90 % 2.81 C
3286 11-02-2019 09:45:00 4.3 C 89 % 2.65 C
3287 11-02-2019 09:50:00 4.4 C 89 % 2.75 C
3288 11-02-2019 09:55:00 4.4 C 88 % 2.59 C
3289 11-02-2019 10:00:00 4.5 C 88 % 2.69 C
3290 11-02-2019 10:05:00 4.6 C 88 % 2.79 C
3291 11-02-2019 10:10:00 4.7 C 88 % 2.89 C
3292 11-02-2019 10:15:00 4.8 C 88 % 2.99 C
3293 11-02-2019 10:20:00 4.9 C 88 % 3.08 C
3294 11-02-2019 10:25:00 5 C 87 % 3.02 C
3295 11-02-2019 10:30:00 5.1 C 86 % 2.96 C
3296 11-02-2019 10:35:00 5.2 C 85 % 2.89 C
3297 11-02-2019 10:40:00 5.2 C 84 % 2.72 C
3298 11-02-2019 10:45:00 5.2 C 84 % 2.72 C
3299 11-02-2019 10:50:00 5.3 C 85 % 2.99 C
3300 11-02-2019 10:55:00 5.3 C 85 % 2.99 C
Sensor: Nr:Datum:Temp:Feuchte:Taupunkt:
Aussen-T/F 3301 11-02-2019 11:00:00 5.5 C 85 % 3.18 C
3302 11-02-2019 11:05:00 5.7 C 84 % 3.21 C
3303 11-02-2019 11:10:00 5.7 C 83 % 3.04 C
3304 11-02-2019 11:15:00 5.8 C 83 % 3.14 C
3305 11-02-2019 11:20:00 5.9 C 82 % 3.07 C
3306 11-02-2019 11:25:00 5.9 C 82 % 3.07 C
3307 11-02-2019 11:30:00 5.9 C 81 % 2.9 C
3308 11-02-2019 11:35:00 6.1 C 81 % 3.09 C
3309 11-02-2019 11:40:00 6.1 C 82 % 3.26 C
3310 11-02-2019 11:45:00 6.2 C 80 % 3.01 C
3311 11-02-2019 11:50:00 6.2 C 81 % 3.19 C
3312 11-02-2019 11:55:00 6.3 C 81 % 3.29 C
3313 11-02-2019 12:00:00 6.3 C 80 % 3.11 C
3314 11-02-2019 12:05:00 6.4 C 78 % 2.85 C
3315 11-02-2019 12:10:00 6.5 C 79 % 3.13 C
3316 11-02-2019 12:15:00 6.6 C 78 % 3.05 C
3317 11-02-2019 12:20:00 6.6 C 78 % 3.05 C
3318 11-02-2019 12:25:00 6.6 C 78 % 3.05 C
3319 11-02-2019 12:30:00 6.6 C 78 % 3.05 C
3320 11-02-2019 12:35:00 6.7 C 78 % 3.14 C
3321 11-02-2019 12:40:00 6.7 C 79 % 3.32 C
3322 11-02-2019 12:45:00 6.8 C 78 % 3.24 C
3323 11-02-2019 12:50:00 6.8 C 79 % 3.42 C
3324 11-02-2019 12:55:00 6.8 C 78 % 3.24 C
3325 11-02-2019 13:00:00 6.9 C 78 % 3.34 C
Sensor: Nr:Datum:Temp:Feuchte:Taupunkt:
Aussen-T/F 3326 11-02-2019 13:05:00 7.1 C 76 % 3.16 C
3327 11-02-2019 13:10:00 7.2 C 76 % 3.26 C
3328 11-02-2019 13:15:00 7.2 C 75 % 3.07 C
3329 11-02-2019 13:20:00 7.2 C 75 % 3.07 C
3330 11-02-2019 13:25:00 7.3 C 75 % 3.17 C
3331 11-02-2019 13:30:00 7.3 C 75 % 3.17 C
3332 11-02-2019 13:35:00 7.4 C 74 % 3.08 C
3333 11-02-2019 13:40:00 7.5 C 73 % 2.98 C
3334 11-02-2019 13:45:00 7.6 C 72 % 2.88 C
3335 11-02-2019 13:50:00 7.4 C 71 % 2.5 C
3336 11-02-2019 13:55:00 7.4 C 73 % 2.89 C
3337 11-02-2019 14:00:00 7.3 C 73 % 2.79 C
3338 11-02-2019 14:05:00 7.3 C 73 % 2.79 C
3339 11-02-2019 14:10:00 7.3 C 73 % 2.79 C
3340 11-02-2019 14:15:00 7.3 C 73 % 2.79 C
3341 11-02-2019 14:20:00 7.3 C 74 % 2.98 C
3342 11-02-2019 14:25:00 7.3 C 72 % 2.6 C
3343 11-02-2019 14:30:00 7.3 C 73 % 2.79 C
3344 11-02-2019 14:35:00 7.4 C 73 % 2.89 C
3345 11-02-2019 14:40:00 7.4 C 74 % 3.08 C
3346 11-02-2019 14:45:00 7.5 C 72 % 2.79 C
3347 11-02-2019 14:50:00 7.5 C 73 % 2.98 C
3348 11-02-2019 14:55:00 7.4 C 72 % 2.69 C
3349 11-02-2019 15:00:00 7.4 C 73 % 2.89 C
3350 11-02-2019 15:05:00 7.4 C 74 % 3.08 C
Sensor: Nr:Datum:Temp:Feuchte:Taupunkt:
Aussen-T/F 3351 11-02-2019 15:10:00 7.3 C 73 % 2.79 C
3352 11-02-2019 15:15:00 7.3 C 74 % 2.98 C
3353 11-02-2019 15:20:00 7.3 C 74 % 2.98 C
3354 11-02-2019 15:25:00 7.3 C 74 % 2.98 C
3355 11-02-2019 15:30:00 7.3 C 74 % 2.98 C
3356 11-02-2019 15:35:00 7.4 C 73 % 2.89 C
3357 11-02-2019 15:40:00 7.4 C 74 % 3.08 C
3358 11-02-2019 15:45:00 7.4 C 74 % 3.08 C
3359 11-02-2019 15:50:00 7.4 C 74 % 3.08 C
3360 11-02-2019 15:55:00 7.4 C 74 % 3.08 C
3361 11-02-2019 16:00:00 7.3 C 75 % 3.17 C
3362 11-02-2019 16:05:00 7.3 C 76 % 3.36 C
3363 11-02-2019 16:10:00 7.1 C 78 % 3.53 C
3364 11-02-2019 16:15:00 7 C 78 % 3.43 C
3365 11-02-2019 16:20:00 6.9 C 79 % 3.52 C
3366 11-02-2019 16:25:00 6.8 C 79 % 3.42 C
3367 11-02-2019 16:30:00 6.8 C 79 % 3.42 C
3368 11-02-2019 16:35:00 6.8 C 79 % 3.42 C
3369 11-02-2019 16:40:00 6.8 C 79 % 3.42 C
3370 11-02-2019 16:45:00 6.8 C 81 % 3.77 C
3371 11-02-2019 16:50:00 6.7 C 82 % 3.85 C
3372 11-02-2019 16:55:00 6.6 C 83 % 3.92 C
3373 11-02-2019 17:00:00 6.4 C 84 % 3.9 C
3374 11-02-2019 17:05:00 6.4 C 84 % 3.9 C
3375 11-02-2019 17:10:00 6.3 C 84 % 3.8 C
Sensor: Nr:Datum:Temp:Feuchte:Taupunkt:
Aussen-T/F 3376 11-02-2019 17:15:00 6.2 C 85 % 3.87 C
3377 11-02-2019 17:20:00 6.1 C 85 % 3.77 C
3378 11-02-2019 17:25:00 6.1 C 86 % 3.94 C
3379 11-02-2019 17:30:00 6.1 C 84 % 3.61 C
3380 11-02-2019 17:35:00 6.1 C 83 % 3.44 C
3381 11-02-2019 17:40:00 6.2 C 83 % 3.53 C
3382 11-02-2019 17:45:00 6.2 C 83 % 3.53 C
3383 11-02-2019 17:50:00 6.2 C 83 % 3.53 C
3384 11-02-2019 17:55:00 6.1 C 81 % 3.09 C
3385 11-02-2019 18:00:00 6.1 C 79 % 2.74 C
3386 11-02-2019 18:05:00 6.1 C 79 % 2.74 C
3387 11-02-2019 18:10:00 6 C 78 % 2.46 C
3388 11-02-2019 18:15:00 5.9 C 79 % 2.54 C
3389 11-02-2019 18:20:00 5.8 C 79 % 2.45 C
3390 11-02-2019 18:25:00 5.8 C 79 % 2.45 C
3391 11-02-2019 18:30:00 5.7 C 79 % 2.35 C
3392 11-02-2019 18:35:00 5.7 C 79 % 2.35 C
3393 11-02-2019 18:40:00 5.6 C 80 % 2.43 C
3394 11-02-2019 18:45:00 5.4 C 80 % 2.23 C
3395 11-02-2019 18:50:00 5.4 C 80 % 2.23 C
3396 11-02-2019 18:55:00 5.3 C 81 % 2.31 C
3397 11-02-2019 19:00:00 5.3 C 81 % 2.31 C
3398 11-02-2019 19:05:00 5.2 C 81 % 2.21 C
3399 11-02-2019 19:10:00 5 C 82 % 2.19 C
3400 11-02-2019 19:15:00 4.9 C 83 % 2.26 C
Sensor: Nr:Datum:Temp:Feuchte:Taupunkt:
Aussen-T/F 3401 11-02-2019 19:20:00 4.7 C 84 % 2.23 C
3402 11-02-2019 19:25:00 4.6 C 84 % 2.14 C
3403 11-02-2019 19:30:00 4.5 C 86 % 2.37 C
3404 11-02-2019 19:35:00 4.6 C 87 % 2.63 C
3405 11-02-2019 19:40:00 4.8 C 87 % 2.82 C
3406 11-02-2019 19:45:00 4.8 C 87 % 2.82 C
3407 11-02-2019 19:50:00 4.8 C 87 % 2.82 C
3408 11-02-2019 19:55:00 4.8 C 87 % 2.82 C
3409 11-02-2019 20:00:00 4.8 C 87 % 2.82 C
3410 11-02-2019 20:05:00 4.7 C 86 % 2.56 C
3411 11-02-2019 20:10:00 4.4 C 86 % 2.27 C
3412 11-02-2019 20:15:00 4.3 C 87 % 2.33 C
3413 11-02-2019 20:20:00 4.2 C 87 % 2.23 C
3414 11-02-2019 20:25:00 4.1 C 88 % 2.3 C
3415 11-02-2019 20:30:00 3.9 C 88 % 2.1 C
3416 11-02-2019 20:35:00 3.9 C 88 % 2.1 C
3417 11-02-2019 20:40:00 3.9 C 89 % 2.26 C
3418 11-02-2019 20:45:00 3.9 C 88 % 2.1 C
3419 11-02-2019 20:50:00 3.9 C 88 % 2.1 C
3420 11-02-2019 20:55:00 3.9 C 88 % 2.1 C
3421 11-02-2019 21:00:00 3.8 C 88 % 2 C
3422 11-02-2019 21:05:00 3.7 C 88 % 1.9 C
3423 11-02-2019 21:10:00 3.7 C 88 % 1.9 C
3424 11-02-2019 21:15:00 3.5 C 89 % 1.86 C
3425 11-02-2019 21:20:00 3.4 C 89 % 1.76 C
Sensor: Nr:Datum:Temp:Feuchte:Taupunkt:
Aussen-T/F 3426 11-02-2019 21:25:00 3.4 C 89 % 1.76 C
3427 11-02-2019 21:30:00 3.4 C 89 % 1.76 C
3428 11-02-2019 21:35:00 3.4 C 89 % 1.76 C
3429 11-02-2019 21:40:00 3.4 C 89 % 1.76 C
3430 11-02-2019 21:45:00 3.3 C 88 % 1.51 C
3431 11-02-2019 21:50:00 3.2 C 89 % 1.57 C
3432 11-02-2019 21:55:00 3.2 C 89 % 1.57 C
3433 11-02-2019 22:00:00 3.1 C 89 % 1.47 C
3434 11-02-2019 22:05:00 3 C 89 % 1.37 C
3435 11-02-2019 22:10:00 2.9 C 89 % 1.27 C
3436 11-02-2019 22:15:00 2.8 C 89 % 1.17 C
3437 11-02-2019 22:20:00 2.8 C 90 % 1.33 C
3438 11-02-2019 22:25:00 2.7 C 90 % 1.23 C
3439 11-02-2019 22:30:00 2.7 C 90 % 1.23 C
3440 11-02-2019 22:35:00 2.7 C 90 % 1.23 C
3441 11-02-2019 22:40:00 2.7 C 91 % 1.38 C
3442 11-02-2019 22:45:00 2.6 C 91 % 1.28 C
3443 11-02-2019 22:50:00 2.6 C 91 % 1.28 C
3444 11-02-2019 22:55:00 2.6 C 91 % 1.28 C
3445 11-02-2019 23:00:00 2.5 C 91 % 1.18 C
3446 11-02-2019 23:05:00 2.5 C 91 % 1.18 C
3447 11-02-2019 23:10:00 2.4 C 91 % 1.08 C
3448 11-02-2019 23:15:00 2.4 C 91 % 1.08 C
3449 11-02-2019 23:20:00 2.4 C 92 % 1.24 C
3450 11-02-2019 23:25:00 2.5 C 92 % 1.34 C
Sensor: Nr:Datum:Temp:Feuchte:Taupunkt:
Aussen-T/F 3451 11-02-2019 23:30:00 2.5 C 92 % 1.34 C
3452 11-02-2019 23:35:00 2.6 C 92 % 1.43 C
3453 11-02-2019 23:40:00 2.6 C 92 % 1.43 C
3454 11-02-2019 23:45:00 2.7 C 92 % 1.53 C
3455 11-02-2019 23:50:00 2.8 C 92 % 1.63 C
3456 11-02-2019 23:55:00 2.9 C 91 % 1.58 C
3457 12-02-2019 00:00:00 2.9 C 91 % 1.58 C
3458 12-02-2019 00:05:00 3 C 91 % 1.68 C
3459 12-02-2019 00:10:00 3 C 90 % 1.52 C
3460 12-02-2019 00:15:00 3.1 C 90 % 1.62 C
3461 12-02-2019 00:20:00 3.1 C 90 % 1.62 C
3462 12-02-2019 00:25:00 3.1 C 90 % 1.62 C
3463 12-02-2019 00:30:00 3.1 C 90 % 1.62 C
3464 12-02-2019 00:35:00 3.2 C 90 % 1.72 C
3465 12-02-2019 00:40:00 3.3 C 90 % 1.82 C
3466 12-02-2019 00:45:00 3.3 C 89 % 1.67 C
3467 12-02-2019 00:50:00 3.2 C 89 % 1.57 C
3468 12-02-2019 00:55:00 3.2 C 89 % 1.57 C
3469 12-02-2019 01:00:00 3.2 C 89 % 1.57 C
3470 12-02-2019 01:05:00 3.2 C 89 % 1.57 C
3471 12-02-2019 01:10:00 3.2 C 90 % 1.72 C
3472 12-02-2019 01:15:00 3.1 C 90 % 1.62 C
3473 12-02-2019 01:20:00 3.1 C 90 % 1.62 C
3474 12-02-2019 01:25:00 3.1 C 90 % 1.62 C
3475 12-02-2019 01:30:00 3.1 C 90 % 1.62 C
Sensor: Nr:Datum:Temp:Feuchte:Taupunkt:
Aussen-T/F 3476 12-02-2019 01:35:00 3.1 C 90 % 1.62 C
3477 12-02-2019 01:40:00 3 C 90 % 1.52 C
3478 12-02-2019 01:45:00 2.9 C 90 % 1.43 C
3479 12-02-2019 01:50:00 2.9 C 90 % 1.43 C
3480 12-02-2019 01:55:00 2.8 C 90 % 1.33 C
3481 12-02-2019 02:00:00 2.8 C 90 % 1.33 C
3482 12-02-2019 02:05:00 2.7 C 90 % 1.23 C
3483 12-02-2019 02:10:00 2.7 C 91 % 1.38 C
3484 12-02-2019 02:15:00 2.8 C 91 % 1.48 C
3485 12-02-2019 02:20:00 2.8 C 91 % 1.48 C
3486 12-02-2019 02:25:00 2.8 C 91 % 1.48 C
3487 12-02-2019 02:30:00 2.8 C 91 % 1.48 C
3488 12-02-2019 02:35:00 2.8 C 91 % 1.48 C
3489 12-02-2019 02:40:00 2.9 C 91 % 1.58 C
3490 12-02-2019 02:45:00 2.9 C 91 % 1.58 C
3491 12-02-2019 02:50:00 2.8 C 91 % 1.48 C
3492 12-02-2019 02:55:00 2.8 C 91 % 1.48 C
3493 12-02-2019 03:00:00 2.8 C 91 % 1.48 C
3494 12-02-2019 03:05:00 2.8 C 91 % 1.48 C
3495 12-02-2019 03:10:00 2.8 C 91 % 1.48 C
3496 12-02-2019 03:15:00 2.8 C 91 % 1.48 C
3497 12-02-2019 03:20:00 2.8 C 91 % 1.48 C
3498 12-02-2019 03:25:00 2.7 C 91 % 1.38 C
3499 12-02-2019 03:30:00 2.7 C 90 % 1.23 C
3500 12-02-2019 03:35:00 2.6 C 90 % 1.13 C
Sensor: Nr:Datum:Temp:Feuchte:Taupunkt:
Aussen-T/F 3501 12-02-2019 03:40:00 2.5 C 90 % 1.03 C
3502 12-02-2019 03:45:00 2.4 C 91 % 1.08 C
3503 12-02-2019 03:50:00 2.4 C 91 % 1.08 C
3504 12-02-2019 03:55:00 2.3 C 91 % 0.99 C
3505 12-02-2019 04:00:00 2.3 C 91 % 0.99 C
3506 12-02-2019 04:05:00 2.3 C 91 % 0.99 C
3507 12-02-2019 04:10:00 2.3 C 91 % 0.99 C
3508 12-02-2019 04:15:00 2.3 C 92 % 1.14 C
3509 12-02-2019 04:20:00 2.4 C 92 % 1.24 C
3510 12-02-2019 04:25:00 2.4 C 92 % 1.24 C
3511 12-02-2019 04:30:00 2.5 C 92 % 1.34 C
3512 12-02-2019 04:35:00 2.6 C 91 % 1.28 C
3513 12-02-2019 04:40:00 2.6 C 91 % 1.28 C
3514 12-02-2019 04:45:00 2.7 C 91 % 1.38 C
3515 12-02-2019 04:50:00 2.7 C 91 % 1.38 C
3516 12-02-2019 04:55:00 2.7 C 91 % 1.38 C
3517 12-02-2019 05:00:00 2.7 C 91 % 1.38 C
3518 12-02-2019 05:05:00 2.7 C 91 % 1.38 C
3519 12-02-2019 05:10:00 2.7 C 90 % 1.23 C
3520 12-02-2019 05:15:00 2.7 C 90 % 1.23 C
3521 12-02-2019 05:20:00 2.6 C 90 % 1.13 C
3522 12-02-2019 05:25:00 2.6 C 90 % 1.13 C
3523 12-02-2019 05:30:00 2.6 C 90 % 1.13 C
3524 12-02-2019 05:35:00 2.6 C 91 % 1.28 C
3525 12-02-2019 05:40:00 2.6 C 91 % 1.28 C
Sensor: Nr:Datum:Temp:Feuchte:Taupunkt:
Aussen-T/F 3526 12-02-2019 05:45:00 2.6 C 91 % 1.28 C
3527 12-02-2019 05:50:00 2.6 C 91 % 1.28 C
3528 12-02-2019 05:55:00 2.6 C 90 % 1.13 C
3529 12-02-2019 06:00:00 2.6 C 90 % 1.13 C
3530 12-02-2019 06:05:00 2.5 C 90 % 1.03 C
3531 12-02-2019 06:10:00 2.5 C 90 % 1.03 C
3532 12-02-2019 06:15:00 2.5 C 90 % 1.03 C
3533 12-02-2019 06:20:00 2.5 C 90 % 1.03 C
3534 12-02-2019 06:25:00 2.4 C 90 % 0.93 C
3535 12-02-2019 06:30:00 2.3 C 90 % 0.83 C
3536 12-02-2019 06:35:00 2.3 C 90 % 0.83 C
3537 12-02-2019 06:40:00 2.3 C 90 % 0.83 C
3538 12-02-2019 06:45:00 2.3 C 90 % 0.83 C
3539 12-02-2019 06:50:00 2.3 C 90 % 0.83 C
3540 12-02-2019 06:55:00 2.3 C 91 % 0.99 C
3541 12-02-2019 07:00:00 2.4 C 90 % 0.93 C
3542 12-02-2019 07:05:00 2.4 C 90 % 0.93 C
3543 12-02-2019 07:10:00 2.5 C 90 % 1.03 C
3544 12-02-2019 07:15:00 2.5 C 90 % 1.03 C
3545 12-02-2019 07:20:00 2.5 C 90 % 1.03 C
3546 12-02-2019 07:25:00 2.4 C 90 % 0.93 C
3547 12-02-2019 07:30:00 2.4 C 90 % 0.93 C
3548 12-02-2019 07:35:00 2.4 C 90 % 0.93 C
3549 12-02-2019 07:40:00 2.4 C 90 % 0.93 C
3550 12-02-2019 07:45:00 2.4 C 90 % 0.93 C
Sensor: Nr:Datum:Temp:Feuchte:Taupunkt:
Aussen-T/F 3551 12-02-2019 07:50:00 2.4 C 90 % 0.93 C
3552 12-02-2019 07:55:00 2.3 C 90 % 0.83 C
3553 12-02-2019 08:00:00 2.3 C 90 % 0.83 C
3554 12-02-2019 08:05:00 2.3 C 90 % 0.83 C
3555 12-02-2019 08:10:00 2.3 C 90 % 0.83 C
3556 12-02-2019 08:15:00 2.3 C 90 % 0.83 C
3557 12-02-2019 08:20:00 2.3 C 90 % 0.83 C
3558 12-02-2019 08:25:00 2.2 C 90 % 0.73 C
3559 12-02-2019 08:30:00 2.2 C 90 % 0.73 C
3560 12-02-2019 08:35:00 2.2 C 90 % 0.73 C
3561 12-02-2019 08:40:00 2.2 C 90 % 0.73 C
3562 12-02-2019 08:45:00 2.3 C 90 % 0.83 C
3563 12-02-2019 08:50:00 2.3 C 90 % 0.83 C
3564 12-02-2019 08:55:00 2.4 C 90 % 0.93 C
3565 12-02-2019 09:00:00 2.5 C 90 % 1.03 C
3566 12-02-2019 09:05:00 2.6 C 90 % 1.13 C
3567 12-02-2019 09:10:00 2.7 C 89 % 1.07 C
3568 12-02-2019 09:15:00 2.8 C 89 % 1.17 C
3569 12-02-2019 09:20:00 2.8 C 89 % 1.17 C
3570 12-02-2019 09:25:00 2.9 C 89 % 1.27 C
3571 12-02-2019 09:30:00 3 C 89 % 1.37 C
3572 12-02-2019 09:35:00 3.1 C 88 % 1.31 C
3573 12-02-2019 09:40:00 3.2 C 88 % 1.41 C
3574 12-02-2019 09:45:00 3.3 C 88 % 1.51 C
3575 12-02-2019 09:50:00 3.4 C 88 % 1.61 C
Sensor: Nr:Datum:Temp:Feuchte:Taupunkt:
Aussen-T/F 3576 12-02-2019 09:55:00 3.5 C 88 % 1.7 C
3577 12-02-2019 10:00:00 3.6 C 88 % 1.8 C
3578 12-02-2019 10:05:00 3.7 C 87 % 1.74 C
3579 12-02-2019 10:10:00 3.7 C 87 % 1.74 C
3580 12-02-2019 10:15:00 3.8 C 87 % 1.84 C
3581 12-02-2019 10:20:00 3.8 C 87 % 1.84 C
3582 12-02-2019 10:25:00 3.9 C 86 % 1.78 C
3583 12-02-2019 10:30:00 4 C 86 % 1.88 C
3584 12-02-2019 10:35:00 4.1 C 86 % 1.97 C
3585 12-02-2019 10:40:00 4.2 C 86 % 2.07 C
3586 12-02-2019 10:45:00 4.2 C 85 % 1.91 C
3587 12-02-2019 10:50:00 4.2 C 85 % 1.91 C
3588 12-02-2019 10:55:00 4.3 C 86 % 2.17 C
3589 12-02-2019 11:00:00 4.3 C 85 % 2.01 C
3590 12-02-2019 11:05:00 4.4 C 85 % 2.11 C
3591 12-02-2019 11:10:00 4.4 C 85 % 2.11 C
3592 12-02-2019 11:15:00 4.5 C 84 % 2.04 C
3593 12-02-2019 11:20:00 4.6 C 84 % 2.14 C
3594 12-02-2019 11:25:00 4.6 C 84 % 2.14 C
3595 12-02-2019 11:30:00 4.7 C 84 % 2.23 C
3596 12-02-2019 11:35:00 4.7 C 84 % 2.23 C
3597 12-02-2019 11:40:00 4.8 C 84 % 2.33 C
3598 12-02-2019 11:45:00 4.9 C 84 % 2.43 C
3599 12-02-2019 11:50:00 5 C 83 % 2.36 C
3600 12-02-2019 11:55:00 5 C 83 % 2.36 C
Sensor: Nr:Datum:Temp:Feuchte:Taupunkt:
Aussen-T/F 3601 12-02-2019 12:00:00 5.1 C 83 % 2.46 C
3602 12-02-2019 12:05:00 5.1 C 83 % 2.46 C
3603 12-02-2019 12:10:00 5.2 C 83 % 2.56 C
3604 12-02-2019 12:15:00 5.3 C 83 % 2.65 C
3605 12-02-2019 12:20:00 5.3 C 82 % 2.48 C
3606 12-02-2019 12:25:00 5.4 C 82 % 2.58 C
3607 12-02-2019 12:30:00 5.4 C 82 % 2.58 C
3608 12-02-2019 12:35:00 5.5 C 83 % 2.85 C
3609 12-02-2019 12:40:00 5.6 C 83 % 2.95 C
3610 12-02-2019 12:45:00 5.7 C 81 % 2.7 C
3611 12-02-2019 12:50:00 5.8 C 81 % 2.8 C
3612 12-02-2019 12:55:00 5.9 C 81 % 2.9 C
3613 12-02-2019 13:00:00 6 C 81 % 2.99 C
3614 12-02-2019 13:05:00 6.1 C 81 % 3.09 C
3615 12-02-2019 13:10:00 6.2 C 80 % 3.01 C
3616 12-02-2019 13:15:00 6.2 C 80 % 3.01 C
3617 12-02-2019 13:20:00 6.2 C 79 % 2.84 C
3618 12-02-2019 13:25:00 6.3 C 80 % 3.11 C
3619 12-02-2019 13:30:00 6.3 C 80 % 3.11 C
3620 12-02-2019 13:35:00 6.4 C 80 % 3.21 C
3621 12-02-2019 13:40:00 6.4 C 78 % 2.85 C
3622 12-02-2019 13:45:00 6.5 C 78 % 2.95 C
3623 12-02-2019 13:50:00 6.5 C 78 % 2.95 C
3624 12-02-2019 13:55:00 6.6 C 78 % 3.05 C
3625 12-02-2019 14:00:00 6.7 C 78 % 3.14 C
Sensor: Nr:Datum:Temp:Feuchte:Taupunkt:
Aussen-T/F 3626 12-02-2019 14:05:00 6.7 C 78 % 3.14 C
3627 12-02-2019 14:10:00 6.8 C 78 % 3.24 C
3628 12-02-2019 14:15:00 6.9 C 77 % 3.16 C
3629 12-02-2019 14:20:00 6.9 C 76 % 2.97 C
3630 12-02-2019 14:25:00 6.9 C 76 % 2.97 C
3631 12-02-2019 14:30:00 6.9 C 76 % 2.97 C
3632 12-02-2019 14:35:00 6.9 C 76 % 2.97 C
3633 12-02-2019 14:40:00 7 C 76 % 3.07 C
3634 12-02-2019 14:45:00 6.9 C 77 % 3.16 C
3635 12-02-2019 14:50:00 6.9 C 76 % 2.97 C
3636 12-02-2019 14:55:00 7 C 77 % 3.25 C
3637 12-02-2019 15:00:00 6.9 C 76 % 2.97 C
3638 12-02-2019 15:05:00 6.9 C 75 % 2.78 C
3639 12-02-2019 15:10:00 7 C 75 % 2.88 C
3640 12-02-2019 15:15:00 7 C 76 % 3.07 C
3641 12-02-2019 15:20:00 7.1 C 76 % 3.16 C
3642 12-02-2019 15:25:00 7.1 C 76 % 3.16 C
3643 12-02-2019 15:30:00 7.1 C 76 % 3.16 C
3644 12-02-2019 15:35:00 7.1 C 75 % 2.98 C
3645 12-02-2019 15:40:00 7.1 C 76 % 3.16 C
3646 12-02-2019 15:45:00 7.1 C 76 % 3.16 C
3647 12-02-2019 15:50:00 7.1 C 76 % 3.16 C
3648 12-02-2019 15:55:00 7.1 C 76 % 3.16 C
3649 12-02-2019 16:00:00 7.2 C 77 % 3.45 C
3650 12-02-2019 16:05:00 7.3 C 76 % 3.36 C
Sensor: Nr:Datum:Temp:Feuchte:Taupunkt:
Aussen-T/F 3651 12-02-2019 16:10:00 7.4 C 76 % 3.45 C
3652 12-02-2019 16:15:00 7.5 C 75 % 3.36 C
3653 12-02-2019 16:20:00 7.6 C 75 % 3.46 C
3654 12-02-2019 16:25:00 7.5 C 74 % 3.17 C
3655 12-02-2019 16:30:00 7.5 C 75 % 3.36 C
3656 12-02-2019 16:35:00 7.5 C 74 % 3.17 C
3657 12-02-2019 16:40:00 7.5 C 73 % 2.98 C
3658 12-02-2019 16:45:00 7.4 C 74 % 3.08 C
3659 12-02-2019 16:50:00 7.4 C 75 % 3.27 C
3660 12-02-2019 16:55:00 7.3 C 74 % 2.98 C
3661 12-02-2019 17:00:00 7.2 C 75 % 3.07 C
3662 12-02-2019 17:05:00 7.1 C 75 % 2.98 C
3663 12-02-2019 17:10:00 7 C 76 % 3.07 C
3664 12-02-2019 17:15:00 6.9 C 75 % 2.78 C
3665 12-02-2019 17:20:00 6.8 C 76 % 2.87 C
3666 12-02-2019 17:25:00 6.8 C 77 % 3.06 C
3667 12-02-2019 17:30:00 6.7 C 77 % 2.96 C
3668 12-02-2019 17:35:00 6.4 C 78 % 2.85 C
3669 12-02-2019 17:40:00 6.3 C 79 % 2.93 C
3670 12-02-2019 17:45:00 6.1 C 79 % 2.74 C
3671 12-02-2019 17:50:00 5.8 C 80 % 2.62 C
3672 12-02-2019 17:55:00 5.6 C 81 % 2.6 C
3673 12-02-2019 18:00:00 5.3 C 81 % 2.31 C
3674 12-02-2019 18:05:00 5.1 C 82 % 2.29 C
3675 12-02-2019 18:10:00 4.9 C 83 % 2.26 C
Sensor: Nr:Datum:Temp:Feuchte:Taupunkt:
Aussen-T/F 3676 12-02-2019 18:15:00 4.7 C 84 % 2.23 C
3677 12-02-2019 18:20:00 4.6 C 84 % 2.14 C
3678 12-02-2019 18:25:00 4.4 C 85 % 2.11 C
3679 12-02-2019 18:30:00 4.2 C 85 % 1.91 C
3680 12-02-2019 18:35:00 4.1 C 86 % 1.97 C
3681 12-02-2019 18:40:00 3.9 C 86 % 1.78 C
3682 12-02-2019 18:45:00 3.8 C 86 % 1.68 C
3683 12-02-2019 18:50:00 3.7 C 87 % 1.74 C
3684 12-02-2019 18:55:00 3.6 C 87 % 1.64 C
3685 12-02-2019 19:00:00 3.5 C 87 % 1.55 C
3686 12-02-2019 19:05:00 3.4 C 87 % 1.45 C
3687 12-02-2019 19:10:00 3.3 C 88 % 1.51 C
3688 12-02-2019 19:15:00 3.2 C 88 % 1.41 C
3689 12-02-2019 19:20:00 3.1 C 88 % 1.31 C
3690 12-02-2019 19:25:00 3.1 C 89 % 1.47 C
3691 12-02-2019 19:30:00 2.9 C 89 % 1.27 C
3692 12-02-2019 19:35:00 2.9 C 89 % 1.27 C
3693 12-02-2019 19:40:00 2.8 C 89 % 1.17 C
3694 12-02-2019 19:45:00 2.8 C 89 % 1.17 C
3695 12-02-2019 19:50:00 2.7 C 89 % 1.07 C
3696 12-02-2019 19:55:00 2.6 C 89 % 0.97 C
3697 12-02-2019 20:00:00 2.6 C 90 % 1.13 C
3698 12-02-2019 20:05:00 2.5 C 90 % 1.03 C
3699 12-02-2019 20:10:00 2.4 C 90 % 0.93 C
3700 12-02-2019 20:15:00 2.4 C 90 % 0.93 C
Sensor: Nr:Datum:Temp:Feuchte:Taupunkt:
Aussen-T/F 3701 12-02-2019 20:20:00 2.4 C 90 % 0.93 C
3702 12-02-2019 20:25:00 2.4 C 90 % 0.93 C
3703 12-02-2019 20:30:00 2.3 C 90 % 0.83 C
3704 12-02-2019 20:35:00 2.3 C 90 % 0.83 C
3705 12-02-2019 20:40:00 2.3 C 91 % 0.99 C
3706 12-02-2019 20:45:00 2.2 C 91 % 0.89 C
3707 12-02-2019 20:50:00 2.1 C 91 % 0.79 C
3708 12-02-2019 20:55:00 2.1 C 91 % 0.79 C
3709 12-02-2019 21:00:00 1.9 C 90 % 0.44 C
3710 12-02-2019 21:05:00 1.8 C 91 % 0.49 C
3711 12-02-2019 21:10:00 1.8 C 91 % 0.49 C
3712 12-02-2019 21:15:00 1.7 C 91 % 0.39 C
3713 12-02-2019 21:20:00 1.6 C 91 % 0.29 C
3714 12-02-2019 21:25:00 1.6 C 92 % 0.44 C
3715 12-02-2019 21:30:00 1.6 C 92 % 0.44 C
3716 12-02-2019 21:35:00 1.5 C 92 % 0.35 C
3717 12-02-2019 21:40:00 1.4 C 92 % 0.25 C
3718 12-02-2019 21:45:00 1.4 C 92 % 0.25 C
3719 12-02-2019 21:50:00 1.4 C 92 % 0.25 C
3720 12-02-2019 21:55:00 1.4 C 92 % 0.25 C
3721 12-02-2019 22:00:00 1.3 C 92 % 0.15 C
3722 12-02-2019 22:05:00 1.3 C 92 % 0.15 C
3723 12-02-2019 22:10:00 1.3 C 93 % 0.3 C
3724 12-02-2019 22:15:00 1.3 C 93 % 0.3 C
3725 12-02-2019 22:20:00 1.4 C 93 % 0.4 C
Sensor: Nr:Datum:Temp:Feuchte:Taupunkt:
Aussen-T/F 3726 12-02-2019 22:25:00 1.5 C 93 % 0.49 C
3727 12-02-2019 22:30:00 1.5 C 93 % 0.49 C
3728 12-02-2019 22:35:00 1.5 C 93 % 0.49 C
3729 12-02-2019 22:40:00 1.6 C 93 % 0.59 C
3730 12-02-2019 22:45:00 1.5 C 93 % 0.49 C
3731 12-02-2019 22:50:00 1.4 C 93 % 0.4 C
3732 12-02-2019 22:55:00 1.4 C 93 % 0.4 C
3733 12-02-2019 23:00:00 1.4 C 93 % 0.4 C
3734 12-02-2019 23:05:00 1.4 C 93 % 0.4 C
3735 12-02-2019 23:10:00 1.4 C 93 % 0.4 C
3736 12-02-2019 23:15:00 1.3 C 93 % 0.3 C
3737 12-02-2019 23:20:00 1.3 C 93 % 0.3 C
3738 12-02-2019 23:25:00 1.3 C 93 % 0.3 C
3739 12-02-2019 23:30:00 1.3 C 93 % 0.3 C
3740 12-02-2019 23:35:00 1.3 C 93 % 0.3 C
3741 12-02-2019 23:40:00 1.4 C 94 % 0.54 C
3742 12-02-2019 23:45:00 1.5 C 94 % 0.64 C
3743 12-02-2019 23:50:00 1.5 C 94 % 0.64 C
3744 12-02-2019 23:55:00 1.4 C 93 % 0.4 C
3745 13-02-2019 00:00:00 1.4 C 93 % 0.4 C
3746 13-02-2019 00:05:00 1.4 C 93 % 0.4 C
3747 13-02-2019 00:10:00 1.3 C 93 % 0.3 C
3748 13-02-2019 00:15:00 1.3 C 93 % 0.3 C
3749 13-02-2019 00:20:00 1.3 C 93 % 0.3 C
3750 13-02-2019 00:25:00 1.2 C 93 % 0.2 C
Sensor: Nr:Datum:Temp:Feuchte:Taupunkt:
Aussen-T/F 3751 13-02-2019 00:30:00 1.2 C 93 % 0.2 C
3752 13-02-2019 00:35:00 1.2 C 93 % 0.2 C
3753 13-02-2019 00:40:00 1.2 C 93 % 0.2 C
3754 13-02-2019 00:45:00 1.2 C 93 % 0.2 C
3755 13-02-2019 00:50:00 1.2 C 93 % 0.2 C
3756 13-02-2019 00:55:00 1.1 C 93 % 0.1 C
3757 13-02-2019 01:00:00 0.9 C 93 % -0.1 C
3758 13-02-2019 01:05:00 1 C 94 % 0.15 C
3759 13-02-2019 01:10:00 0.9 C 93 % -0.1 C
3760 13-02-2019 01:15:00 0.9 C 93 % -0.1 C
3761 13-02-2019 01:20:00 0.8 C 93 % -0.2 C
3762 13-02-2019 01:25:00 0.8 C 93 % -0.2 C
3763 13-02-2019 01:30:00 0.8 C 93 % -0.2 C
3764 13-02-2019 01:35:00 0.9 C 94 % 0.05 C
3765 13-02-2019 01:40:00 1 C 94 % 0.15 C
3766 13-02-2019 01:45:00 0.9 C 93 % -0.1 C
3767 13-02-2019 01:50:00 0.8 C 93 % -0.2 C
3768 13-02-2019 01:55:00 0.6 C 93 % -0.4 C
3769 13-02-2019 02:00:00 0.5 C 93 % -0.5 C
3770 13-02-2019 02:05:00 0.3 C 93 % -0.7 C
3771 13-02-2019 02:10:00 0.2 C 93 % -0.79 C
3772 13-02-2019 02:15:00 0.2 C 93 % -0.79 C
3773 13-02-2019 02:20:00 0.1 C 93 % -0.89 C
3774 13-02-2019 02:25:00 0.1 C 93 % -0.89 C
3775 13-02-2019 02:30:00 0.1 C 93 % -0.89 C
Sensor: Nr:Datum:Temp:Feuchte:Taupunkt:
Aussen-T/F 3776 13-02-2019 02:35:00 0 C 94 % -0.85 C
3777 13-02-2019 02:40:00 0.1 C 94 % -0.75 C
3778 13-02-2019 02:45:00 0 C 94 % -0.85 C
3779 13-02-2019 02:50:00 0 C 94 % -0.85 C
3780 13-02-2019 02:55:00 -0.1 C 94 % -0.95 C
3781 13-02-2019 03:00:00 -0.2 C 94 % -1.05 C
3782 13-02-2019 03:05:00 -0.2 C 94 % -1.05 C
3783 13-02-2019 03:10:00 -0.3 C 94 % -1.15 C
3784 13-02-2019 03:15:00 -0.3 C 94 % -1.15 C
3785 13-02-2019 03:20:00 -0.3 C 94 % -1.15 C
3786 13-02-2019 03:25:00 -0.4 C 94 % -1.25 C
3787 13-02-2019 03:30:00 -0.4 C 94 % -1.25 C
3788 13-02-2019 03:35:00 -0.4 C 94 % -1.25 C
3789 13-02-2019 03:40:00 -0.4 C 94 % -1.25 C
3790 13-02-2019 03:45:00 -0.3 C 94 % -1.15 C
3791 13-02-2019 03:50:00 -0.3 C 94 % -1.15 C
3792 13-02-2019 03:55:00 -0.3 C 94 % -1.15 C
3793 13-02-2019 04:00:00 -0.3 C 94 % -1.15 C
3794 13-02-2019 04:05:00 -0.4 C 94 % -1.25 C
3795 13-02-2019 04:10:00 -0.4 C 94 % -1.25 C
3796 13-02-2019 04:15:00 -0.4 C 94 % -1.25 C
3797 13-02-2019 04:20:00 -0.4 C 95 % -1.1 C
3798 13-02-2019 04:25:00 -0.4 C 94 % -1.25 C
3799 13-02-2019 04:30:00 -0.3 C 95 % -1 C
3800 13-02-2019 04:35:00 -0.3 C 95 % -1 C
Sensor: Nr:Datum:Temp:Feuchte:Taupunkt:
Aussen-T/F 3801 13-02-2019 04:40:00 -0.3 C 95 % -1 C
3802 13-02-2019 04:45:00 -0.3 C 95 % -1 C
3803 13-02-2019 04:50:00 -0.2 C 95 % -0.9 C
3804 13-02-2019 04:55:00 -0.3 C 95 % -1 C
3805 13-02-2019 05:00:00 -0.3 C 95 % -1 C
3806 13-02-2019 05:05:00 -0.3 C 95 % -1 C
3807 13-02-2019 05:10:00 -0.3 C 95 % -1 C
3808 13-02-2019 05:15:00 -0.3 C 95 % -1 C
3809 13-02-2019 05:20:00 -0.4 C 95 % -1.1 C
3810 13-02-2019 05:25:00 -0.5 C 95 % -1.2 C
3811 13-02-2019 05:30:00 -0.5 C 95 % -1.2 C
3812 13-02-2019 05:35:00 -0.6 C 95 % -1.3 C
3813 13-02-2019 05:40:00 -0.6 C 95 % -1.3 C
3814 13-02-2019 05:45:00 -0.6 C 95 % -1.3 C
3815 13-02-2019 05:50:00 -0.6 C 95 % -1.3 C
3816 13-02-2019 05:55:00 -0.6 C 95 % -1.3 C
3817 13-02-2019 06:00:00 -0.6 C 95 % -1.3 C
3818 13-02-2019 06:05:00 -0.6 C 95 % -1.3 C
3819 13-02-2019 06:10:00 -0.5 C 95 % -1.2 C
3820 13-02-2019 06:15:00 -0.5 C 95 % -1.2 C
3821 13-02-2019 06:20:00 -0.6 C 95 % -1.3 C
3822 13-02-2019 06:25:00 -0.6 C 95 % -1.3 C
3823 13-02-2019 06:30:00 -0.5 C 95 % -1.2 C
3824 13-02-2019 06:35:00 -0.5 C 95 % -1.2 C
3825 13-02-2019 06:40:00 -0.4 C 95 % -1.1 C
Sensor: Nr:Datum:Temp:Feuchte:Taupunkt:
Aussen-T/F 3826 13-02-2019 06:45:00 -0.3 C 95 % -1 C
3827 13-02-2019 06:50:00 -0.2 C 96 % -0.76 C
3828 13-02-2019 06:55:00 -0.1 C 96 % -0.66 C
3829 13-02-2019 07:00:00 0 C 96 % -0.56 C
3830 13-02-2019 07:05:00 0.1 C 96 % -0.46 C
3831 13-02-2019 07:10:00 0.1 C 96 % -0.46 C
3832 13-02-2019 07:15:00 0.2 C 96 % -0.36 C
3833 13-02-2019 07:20:00 0.3 C 96 % -0.26 C
3834 13-02-2019 07:25:00 0.3 C 96 % -0.26 C
3835 13-02-2019 07:30:00 0.3 C 96 % -0.26 C
3836 13-02-2019 07:35:00 0.3 C 96 % -0.26 C
3837 13-02-2019 07:40:00 0.4 C 96 % -0.16 C
3838 13-02-2019 07:45:00 0.4 C 96 % -0.16 C
3839 13-02-2019 07:50:00 0.4 C 96 % -0.16 C
3840 13-02-2019 07:55:00 0.4 C 96 % -0.16 C
3841 13-02-2019 08:00:00 0.5 C 96 % -0.06 C
3842 13-02-2019 08:05:00 0.5 C 96 % -0.06 C
3843 13-02-2019 08:10:00 0.6 C 96 % 0.04 C
3844 13-02-2019 08:15:00 0.6 C 96 % 0.04 C
3845 13-02-2019 08:20:00 0.6 C 96 % 0.04 C
3846 13-02-2019 08:25:00 0.7 C 96 % 0.14 C
3847 13-02-2019 08:30:00 0.7 C 96 % 0.14 C
3848 13-02-2019 08:35:00 0.7 C 96 % 0.14 C
3849 13-02-2019 08:40:00 0.7 C 95 % -0.01 C
3850 13-02-2019 08:45:00 0.8 C 95 % 0.09 C
Sensor: Nr:Datum:Temp:Feuchte:Taupunkt:
Aussen-T/F 3851 13-02-2019 08:50:00 0.8 C 95 % 0.09 C
3852 13-02-2019 08:55:00 0.8 C 95 % 0.09 C
3853 13-02-2019 09:00:00 0.9 C 95 % 0.19 C
3854 13-02-2019 09:05:00 0.9 C 96 % 0.34 C
3855 13-02-2019 09:10:00 0.9 C 95 % 0.19 C
3856 13-02-2019 09:15:00 0.9 C 95 % 0.19 C
3857 13-02-2019 09:20:00 1 C 95 % 0.29 C
3858 13-02-2019 09:25:00 1 C 95 % 0.29 C
3859 13-02-2019 09:30:00 1 C 95 % 0.29 C
3860 13-02-2019 09:35:00 1 C 95 % 0.29 C
3861 13-02-2019 09:40:00 1.1 C 95 % 0.39 C
3862 13-02-2019 09:45:00 1.1 C 95 % 0.39 C
3863 13-02-2019 09:50:00 1.1 C 95 % 0.39 C
3864 13-02-2019 09:55:00 1.2 C 95 % 0.49 C
3865 13-02-2019 10:00:00 1.3 C 95 % 0.59 C
3866 13-02-2019 10:05:00 1.3 C 94 % 0.44 C
3867 13-02-2019 10:10:00 1.3 C 94 % 0.44 C
3868 13-02-2019 10:15:00 1.4 C 94 % 0.54 C
3869 13-02-2019 10:20:00 1.5 C 94 % 0.64 C
3870 13-02-2019 10:25:00 1.6 C 94 % 0.74 C
3871 13-02-2019 10:30:00 1.7 C 94 % 0.84 C
3872 13-02-2019 10:35:00 1.7 C 93 % 0.69 C
3873 13-02-2019 10:40:00 1.8 C 93 % 0.79 C
3874 13-02-2019 10:45:00 1.8 C 93 % 0.79 C
3875 13-02-2019 10:50:00 1.9 C 93 % 0.89 C
Sensor: Nr:Datum:Temp:Feuchte:Taupunkt:
Aussen-T/F 3876 13-02-2019 10:55:00 2 C 93 % 0.99 C
3877 13-02-2019 11:00:00 2.1 C 93 % 1.09 C
3878 13-02-2019 11:05:00 2.2 C 92 % 1.04 C
3879 13-02-2019 11:10:00 2.2 C 92 % 1.04 C
3880 13-02-2019 11:15:00 2.3 C 91 % 0.99 C
3881 13-02-2019 11:20:00 2.3 C 91 % 0.99 C
3882 13-02-2019 11:25:00 2.3 C 91 % 0.99 C
3883 13-02-2019 11:30:00 2.3 C 91 % 0.99 C
3884 13-02-2019 11:35:00 2.3 C 91 % 0.99 C
3885 13-02-2019 11:40:00 2.4 C 91 % 1.08 C
3886 13-02-2019 11:45:00 2.4 C 91 % 1.08 C
3887 13-02-2019 11:50:00 2.5 C 91 % 1.18 C
3888 13-02-2019 11:55:00 2.6 C 91 % 1.28 C
3889 13-02-2019 12:00:00 2.7 C 91 % 1.38 C
3890 13-02-2019 12:05:00 2.8 C 91 % 1.48 C
3891 13-02-2019 12:10:00 2.9 C 91 % 1.58 C
3892 13-02-2019 12:15:00 3.1 C 91 % 1.78 C
3893 13-02-2019 12:20:00 3.3 C 91 % 1.98 C
3894 13-02-2019 12:25:00 3.5 C 90 % 2.02 C
3895 13-02-2019 12:30:00 3.7 C 90 % 2.22 C
3896 13-02-2019 12:35:00 3.9 C 89 % 2.26 C
3897 13-02-2019 12:40:00 4.1 C 88 % 2.3 C
3898 13-02-2019 12:45:00 4.3 C 87 % 2.33 C
3899 13-02-2019 12:50:00 4.3 C 86 % 2.17 C
3900 13-02-2019 12:55:00 4.4 C 86 % 2.27 C
Sensor: Nr:Datum:Temp:Feuchte:Taupunkt:
Aussen-T/F 3901 13-02-2019 13:00:00 4.6 C 86 % 2.47 C